<?xml version="1.0" encoding="UTF-8" standalone="no" ?>
<gpx xmlns="http://www.topografix.com/GPX/1/1" xmlns:xsi="http://www.w3.org/2001/XMLSchema-instance" xsi:schemaLocation="http://www.topografix.com/GPX/1/1 http://www.topografix.com/GPX/1/1/gpx.xsd" version="1.1" creator="VisuGPX - https://www.visugpx.com">
  <metadata>
    <name>Oisans Trièves - Etape 1 bis</name>
    <desc><![CDATA[Oisans Trièves
Etape 1 bis : De Bourg d'Oisans à La Mure par Sécilienne, La Morte et Oris-en-Rattier]]></desc>
  </metadata>
  <wpt lat="45.05496" lon="6.03035">
    <ele>726</ele>
    <name><![CDATA[Oisans Trièves - Etape 1 bis]]></name>
    <type><![CDATA[Generic]]></type>
  </wpt>
  <trk>
    <name><![CDATA[Oisans Trièves - Etape 1 bis]]></name>
    <trkseg>
      <trkpt lat="45.05496" lon="6.03035">
        <ele>726</ele>
        <time>2017-12-16T16:09:29Z</time>
      </trkpt>
      <trkpt lat="45.055" lon="6.03014">
        <ele>726</ele>
        <time>2017-12-16T16:09:38Z</time>
      </trkpt>
      <trkpt lat="45.05508" lon="6.02993">
        <ele>725</ele>
        <time>2017-12-16T16:09:43Z</time>
      </trkpt>
      <trkpt lat="45.05516" lon="6.02981">
        <ele>725</ele>
        <time>2017-12-16T16:09:46Z</time>
      </trkpt>
      <trkpt lat="45.05526" lon="6.02977">
        <ele>724</ele>
        <time>2017-12-16T16:09:54Z</time>
      </trkpt>
      <trkpt lat="45.05553" lon="6.0297">
        <ele>724</ele>
        <time>2017-12-16T16:10:09Z</time>
      </trkpt>
      <trkpt lat="45.05566" lon="6.02969">
        <ele>723</ele>
        <time>2017-12-16T16:10:29Z</time>
      </trkpt>
      <trkpt lat="45.05597" lon="6.02965">
        <ele>722</ele>
        <time>2017-12-16T16:10:49Z</time>
      </trkpt>
      <trkpt lat="45.05627" lon="6.02958">
        <ele>722</ele>
        <time>2017-12-16T16:11:09Z</time>
      </trkpt>
      <trkpt lat="45.05663" lon="6.02953">
        <ele>722</ele>
        <time>2017-12-16T16:11:15Z</time>
      </trkpt>
      <trkpt lat="45.05707" lon="6.02939">
        <ele>722</ele>
        <time>2017-12-16T16:11:33Z</time>
      </trkpt>
      <trkpt lat="45.05734" lon="6.02923">
        <ele>721</ele>
        <time>2017-12-16T16:11:44Z</time>
      </trkpt>
      <trkpt lat="45.0577" lon="6.02898">
        <ele>722</ele>
        <time>2017-12-16T16:11:58Z</time>
      </trkpt>
      <trkpt lat="45.0582" lon="6.02863">
        <ele>722</ele>
        <time>2017-12-16T16:12:17Z</time>
      </trkpt>
      <trkpt lat="45.05982" lon="6.02736">
        <ele>719</ele>
        <time>2017-12-16T16:12:28Z</time>
      </trkpt>
      <trkpt lat="45.06224" lon="6.02551">
        <ele>718</ele>
        <time>2017-12-16T16:12:35Z</time>
      </trkpt>
      <trkpt lat="45.06282" lon="6.02509">
        <ele>719</ele>
        <time>2017-12-16T16:12:38Z</time>
      </trkpt>
      <trkpt lat="45.06291" lon="6.02508">
        <ele>719</ele>
        <time>2017-12-16T16:12:50Z</time>
      </trkpt>
      <trkpt lat="45.06316" lon="6.02489">
        <ele>718</ele>
        <time>2017-12-16T16:12:55Z</time>
      </trkpt>
      <trkpt lat="45.06331" lon="6.02483">
        <ele>718</ele>
        <time>2017-12-16T16:13:07Z</time>
      </trkpt>
      <trkpt lat="45.06345" lon="6.02482">
        <ele>719</ele>
        <time>2017-12-16T16:13:16Z</time>
      </trkpt>
      <trkpt lat="45.06348" lon="6.02485">
        <ele>719</ele>
        <time>2017-12-16T16:13:20Z</time>
      </trkpt>
      <trkpt lat="45.06353" lon="6.02489">
        <ele>719</ele>
        <time>2017-12-16T16:13:37Z</time>
      </trkpt>
      <trkpt lat="45.0636" lon="6.02491">
        <ele>719</ele>
        <time>2017-12-16T16:13:40Z</time>
      </trkpt>
      <trkpt lat="45.06367" lon="6.02488">
        <ele>719</ele>
        <time>2017-12-16T16:13:45Z</time>
      </trkpt>
      <trkpt lat="45.06372" lon="6.02483">
        <ele>719</ele>
        <time>2017-12-16T16:13:52Z</time>
      </trkpt>
      <trkpt lat="45.06376" lon="6.02476">
        <ele>719</ele>
        <time>2017-12-16T16:14:01Z</time>
      </trkpt>
      <trkpt lat="45.06378" lon="6.02468">
        <ele>719</ele>
        <time>2017-12-16T16:14:04Z</time>
      </trkpt>
      <trkpt lat="45.06377" lon="6.02459">
        <ele>719</ele>
        <time>2017-12-16T16:14:09Z</time>
      </trkpt>
      <trkpt lat="45.06388" lon="6.0244">
        <ele>719</ele>
        <time>2017-12-16T16:14:25Z</time>
      </trkpt>
      <trkpt lat="45.06406" lon="6.02417">
        <ele>719</ele>
        <time>2017-12-16T16:14:33Z</time>
      </trkpt>
      <trkpt lat="45.06449" lon="6.02382">
        <ele>719</ele>
        <time>2017-12-16T16:14:48Z</time>
      </trkpt>
      <trkpt lat="45.06513" lon="6.02333">
        <ele>719</ele>
        <time>2017-12-16T16:15:05Z</time>
      </trkpt>
      <trkpt lat="45.06641" lon="6.02239">
        <ele>718</ele>
        <time>2017-12-16T16:15:10Z</time>
      </trkpt>
      <trkpt lat="45.06806" lon="6.02109">
        <ele>715</ele>
        <time>2017-12-16T16:15:27Z</time>
      </trkpt>
      <trkpt lat="45.06938" lon="6.02009">
        <ele>719</ele>
        <time>2017-12-16T16:15:29Z</time>
      </trkpt>
      <trkpt lat="45.07151" lon="6.01856">
        <ele>742</ele>
        <time>2017-12-16T16:15:35Z</time>
      </trkpt>
      <trkpt lat="45.07228" lon="6.01793">
        <ele>728</ele>
        <time>2017-12-16T16:15:52Z</time>
      </trkpt>
      <trkpt lat="45.07272" lon="6.01764">
        <ele>723</ele>
        <time>2017-12-16T16:15:54Z</time>
      </trkpt>
      <trkpt lat="45.07317" lon="6.01728">
        <ele>725</ele>
        <time>2017-12-16T16:16:00Z</time>
      </trkpt>
      <trkpt lat="45.07354" lon="6.01692">
        <ele>726</ele>
        <time>2017-12-16T16:16:10Z</time>
      </trkpt>
      <trkpt lat="45.07409" lon="6.0165">
        <ele>728</ele>
        <time>2017-12-16T16:16:28Z</time>
      </trkpt>
      <trkpt lat="45.07609" lon="6.01494">
        <ele>723</ele>
        <time>2017-12-16T16:16:31Z</time>
      </trkpt>
      <trkpt lat="45.07627" lon="6.01483">
        <ele>723</ele>
        <time>2017-12-16T16:16:36Z</time>
      </trkpt>
      <trkpt lat="45.07649" lon="6.01474">
        <ele>723</ele>
        <time>2017-12-16T16:16:42Z</time>
      </trkpt>
      <trkpt lat="45.0784" lon="6.01428">
        <ele>717</ele>
        <time>2017-12-16T16:16:53Z</time>
      </trkpt>
      <trkpt lat="45.08174" lon="6.01349">
        <ele>717</ele>
        <time>2017-12-16T16:16:59Z</time>
      </trkpt>
      <trkpt lat="45.08629" lon="6.0124">
        <ele>716</ele>
        <time>2017-12-16T16:17:04Z</time>
      </trkpt>
      <trkpt lat="45.08897" lon="6.01177">
        <ele>714</ele>
        <time>2017-12-16T16:17:16Z</time>
      </trkpt>
      <trkpt lat="45.08963" lon="6.01162">
        <ele>714</ele>
        <time>2017-12-16T16:17:29Z</time>
      </trkpt>
      <trkpt lat="45.0898" lon="6.01161">
        <ele>714</ele>
        <time>2017-12-16T16:17:33Z</time>
      </trkpt>
      <trkpt lat="45.09001" lon="6.01161">
        <ele>714</ele>
        <time>2017-12-16T16:17:47Z</time>
      </trkpt>
      <trkpt lat="45.09022" lon="6.01162">
        <ele>714</ele>
        <time>2017-12-16T16:18:01Z</time>
      </trkpt>
      <trkpt lat="45.09035" lon="6.01162">
        <ele>714</ele>
        <time>2017-12-16T16:18:21Z</time>
      </trkpt>
      <trkpt lat="45.09051" lon="6.01155">
        <ele>714</ele>
        <time>2017-12-16T16:18:26Z</time>
      </trkpt>
      <trkpt lat="45.09073" lon="6.0114">
        <ele>714</ele>
        <time>2017-12-16T16:18:32Z</time>
      </trkpt>
      <trkpt lat="45.09094" lon="6.0113">
        <ele>714</ele>
        <time>2017-12-16T16:18:40Z</time>
      </trkpt>
      <trkpt lat="45.09341" lon="6.01072">
        <ele>712</ele>
        <time>2017-12-16T16:18:52Z</time>
      </trkpt>
      <trkpt lat="45.09691" lon="6.0099">
        <ele>712</ele>
        <time>2017-12-16T16:18:57Z</time>
      </trkpt>
      <trkpt lat="45.09697" lon="6.00991">
        <ele>712</ele>
        <time>2017-12-16T16:19:07Z</time>
      </trkpt>
      <trkpt lat="45.0971" lon="6.00987">
        <ele>712</ele>
        <time>2017-12-16T16:19:20Z</time>
      </trkpt>
      <trkpt lat="45.09726" lon="6.0098">
        <ele>712</ele>
        <time>2017-12-16T16:19:27Z</time>
      </trkpt>
      <trkpt lat="45.09751" lon="6.00965">
        <ele>713</ele>
        <time>2017-12-16T16:19:31Z</time>
      </trkpt>
      <trkpt lat="45.09771" lon="6.00959">
        <ele>713</ele>
        <time>2017-12-16T16:19:34Z</time>
      </trkpt>
      <trkpt lat="45.09796" lon="6.00963">
        <ele>713</ele>
        <time>2017-12-16T16:19:51Z</time>
      </trkpt>
      <trkpt lat="45.09824" lon="6.00958">
        <ele>714</ele>
        <time>2017-12-16T16:19:59Z</time>
      </trkpt>
      <trkpt lat="45.09837" lon="6.00957">
        <ele>714</ele>
        <time>2017-12-16T16:20:15Z</time>
      </trkpt>
      <trkpt lat="45.0994" lon="6.00932">
        <ele>714</ele>
        <time>2017-12-16T16:20:25Z</time>
      </trkpt>
      <trkpt lat="45.10481" lon="6.00803">
        <ele>713</ele>
        <time>2017-12-16T16:20:37Z</time>
      </trkpt>
      <trkpt lat="45.10861" lon="6.00715">
        <ele>711</ele>
        <time>2017-12-16T16:20:57Z</time>
      </trkpt>
      <trkpt lat="45.11053" lon="6.00669">
        <ele>712</ele>
        <time>2017-12-16T16:21:15Z</time>
      </trkpt>
      <trkpt lat="45.11242" lon="6.00621">
        <ele>714</ele>
        <time>2017-12-16T16:21:23Z</time>
      </trkpt>
      <trkpt lat="45.11322" lon="6.00604">
        <ele>719</ele>
        <time>2017-12-16T16:21:38Z</time>
      </trkpt>
      <trkpt lat="45.11362" lon="6.00592">
        <ele>718</ele>
        <time>2017-12-16T16:21:51Z</time>
      </trkpt>
      <trkpt lat="45.11401" lon="6.00577">
        <ele>719</ele>
        <time>2017-12-16T16:22:05Z</time>
      </trkpt>
      <trkpt lat="45.11423" lon="6.0056">
        <ele>713</ele>
        <time>2017-12-16T16:22:13Z</time>
      </trkpt>
      <trkpt lat="45.11437" lon="6.00539">
        <ele>714</ele>
        <time>2017-12-16T16:22:17Z</time>
      </trkpt>
      <trkpt lat="45.11455" lon="6.00498">
        <ele>717</ele>
        <time>2017-12-16T16:22:24Z</time>
      </trkpt>
      <trkpt lat="45.11462" lon="6.00459">
        <ele>717</ele>
        <time>2017-12-16T16:22:44Z</time>
      </trkpt>
      <trkpt lat="45.11464" lon="6.00406">
        <ele>722</ele>
        <time>2017-12-16T16:23:03Z</time>
      </trkpt>
      <trkpt lat="45.11463" lon="6.00335">
        <ele>723</ele>
        <time>2017-12-16T16:23:22Z</time>
      </trkpt>
      <trkpt lat="45.1147" lon="6.0027">
        <ele>730</ele>
        <time>2017-12-16T16:23:38Z</time>
      </trkpt>
      <trkpt lat="45.1162" lon="5.98994">
        <ele>713</ele>
        <time>2017-12-16T16:23:43Z</time>
      </trkpt>
      <trkpt lat="45.11712" lon="5.98207">
        <ele>720</ele>
        <time>2017-12-16T16:23:57Z</time>
      </trkpt>
      <trkpt lat="45.11815" lon="5.97305">
        <ele>727</ele>
        <time>2017-12-16T16:24:03Z</time>
      </trkpt>
      <trkpt lat="45.11816" lon="5.9725">
        <ele>723</ele>
        <time>2017-12-16T16:24:09Z</time>
      </trkpt>
      <trkpt lat="45.11809" lon="5.97192">
        <ele>724</ele>
        <time>2017-12-16T16:24:18Z</time>
      </trkpt>
      <trkpt lat="45.11791" lon="5.97119">
        <ele>721</ele>
        <time>2017-12-16T16:24:23Z</time>
      </trkpt>
      <trkpt lat="45.11744" lon="5.97016">
        <ele>721</ele>
        <time>2017-12-16T16:24:29Z</time>
      </trkpt>
      <trkpt lat="45.11682" lon="5.96899">
        <ele>718</ele>
        <time>2017-12-16T16:24:36Z</time>
      </trkpt>
      <trkpt lat="45.11666" lon="5.96865">
        <ele>729</ele>
        <time>2017-12-16T16:24:56Z</time>
      </trkpt>
      <trkpt lat="45.11651" lon="5.96823">
        <ele>729</ele>
        <time>2017-12-16T16:25:06Z</time>
      </trkpt>
      <trkpt lat="45.11645" lon="5.96778">
        <ele>733</ele>
        <time>2017-12-16T16:25:18Z</time>
      </trkpt>
      <trkpt lat="45.1165" lon="5.96436">
        <ele>725</ele>
        <time>2017-12-16T16:25:29Z</time>
      </trkpt>
      <trkpt lat="45.1165" lon="5.96338">
        <ele>722</ele>
        <time>2017-12-16T16:25:45Z</time>
      </trkpt>
      <trkpt lat="45.11648" lon="5.96318">
        <ele>720</ele>
        <time>2017-12-16T16:25:53Z</time>
      </trkpt>
      <trkpt lat="45.11645" lon="5.96294">
        <ele>720</ele>
        <time>2017-12-16T16:25:57Z</time>
      </trkpt>
      <trkpt lat="45.1163" lon="5.96251">
        <ele>719</ele>
        <time>2017-12-16T16:26:09Z</time>
      </trkpt>
      <trkpt lat="45.11613" lon="5.9622">
        <ele>717</ele>
        <time>2017-12-16T16:26:13Z</time>
      </trkpt>
      <trkpt lat="45.11592" lon="5.96191">
        <ele>717</ele>
        <time>2017-12-16T16:26:27Z</time>
      </trkpt>
      <trkpt lat="45.1154" lon="5.96117">
        <ele>714</ele>
        <time>2017-12-16T16:26:46Z</time>
      </trkpt>
      <trkpt lat="45.11472" lon="5.96021">
        <ele>712</ele>
        <time>2017-12-16T16:26:49Z</time>
      </trkpt>
      <trkpt lat="45.11401" lon="5.95931">
        <ele>717</ele>
        <time>2017-12-16T16:26:57Z</time>
      </trkpt>
      <trkpt lat="45.11387" lon="5.95911">
        <ele>715</ele>
        <time>2017-12-16T16:27:07Z</time>
      </trkpt>
      <trkpt lat="45.1138" lon="5.95881">
        <ele>715</ele>
        <time>2017-12-16T16:27:19Z</time>
      </trkpt>
      <trkpt lat="45.11381" lon="5.9586">
        <ele>715</ele>
        <time>2017-12-16T16:27:31Z</time>
      </trkpt>
      <trkpt lat="45.11386" lon="5.95844">
        <ele>714</ele>
        <time>2017-12-16T16:27:39Z</time>
      </trkpt>
      <trkpt lat="45.11413" lon="5.95808">
        <ele>712</ele>
        <time>2017-12-16T16:27:43Z</time>
      </trkpt>
      <trkpt lat="45.11419" lon="5.95789">
        <ele>718</ele>
        <time>2017-12-16T16:27:56Z</time>
      </trkpt>
      <trkpt lat="45.1142" lon="5.95772">
        <ele>718</ele>
        <time>2017-12-16T16:28:10Z</time>
      </trkpt>
      <trkpt lat="45.11415" lon="5.9575">
        <ele>717</ele>
        <time>2017-12-16T16:28:24Z</time>
      </trkpt>
      <trkpt lat="45.11397" lon="5.95716">
        <ele>716</ele>
        <time>2017-12-16T16:28:31Z</time>
      </trkpt>
      <trkpt lat="45.11374" lon="5.95676">
        <ele>716</ele>
        <time>2017-12-16T16:28:49Z</time>
      </trkpt>
      <trkpt lat="45.11366" lon="5.95651">
        <ele>717</ele>
        <time>2017-12-16T16:28:59Z</time>
      </trkpt>
      <trkpt lat="45.1136" lon="5.95618">
        <ele>716</ele>
        <time>2017-12-16T16:29:04Z</time>
      </trkpt>
      <trkpt lat="45.11354" lon="5.95541">
        <ele>715</ele>
        <time>2017-12-16T16:29:10Z</time>
      </trkpt>
      <trkpt lat="45.1135" lon="5.95493">
        <ele>714</ele>
        <time>2017-12-16T16:29:12Z</time>
      </trkpt>
      <trkpt lat="45.11348" lon="5.95376">
        <ele>715</ele>
        <time>2017-12-16T16:29:26Z</time>
      </trkpt>
      <trkpt lat="45.11345" lon="5.95293">
        <ele>713</ele>
        <time>2017-12-16T16:29:39Z</time>
      </trkpt>
      <trkpt lat="45.11341" lon="5.95251">
        <ele>709</ele>
        <time>2017-12-16T16:29:43Z</time>
      </trkpt>
      <trkpt lat="45.11328" lon="5.95087">
        <ele>703</ele>
        <time>2017-12-16T16:30:01Z</time>
      </trkpt>
      <trkpt lat="45.11316" lon="5.95">
        <ele>700</ele>
        <time>2017-12-16T16:30:11Z</time>
      </trkpt>
      <trkpt lat="45.11303" lon="5.94936">
        <ele>697</ele>
        <time>2017-12-16T16:30:20Z</time>
      </trkpt>
      <trkpt lat="45.11289" lon="5.94886">
        <ele>700</ele>
        <time>2017-12-16T16:30:26Z</time>
      </trkpt>
      <trkpt lat="45.11257" lon="5.94801">
        <ele>710</ele>
        <time>2017-12-16T16:30:28Z</time>
      </trkpt>
      <trkpt lat="45.1124" lon="5.94767">
        <ele>698</ele>
        <time>2017-12-16T16:30:45Z</time>
      </trkpt>
      <trkpt lat="45.11197" lon="5.94694">
        <ele>700</ele>
        <time>2017-12-16T16:30:52Z</time>
      </trkpt>
      <trkpt lat="45.11112" lon="5.94564">
        <ele>690</ele>
        <time>2017-12-16T16:31:11Z</time>
      </trkpt>
      <trkpt lat="45.11064" lon="5.94486">
        <ele>683</ele>
        <time>2017-12-16T16:31:15Z</time>
      </trkpt>
      <trkpt lat="45.11045" lon="5.94446">
        <ele>687</ele>
        <time>2017-12-16T16:31:19Z</time>
      </trkpt>
      <trkpt lat="45.11024" lon="5.94391">
        <ele>699</ele>
        <time>2017-12-16T16:31:26Z</time>
      </trkpt>
      <trkpt lat="45.11007" lon="5.94333">
        <ele>694</ele>
        <time>2017-12-16T16:31:29Z</time>
      </trkpt>
      <trkpt lat="45.10901" lon="5.94005">
        <ele>669</ele>
        <time>2017-12-16T16:31:33Z</time>
      </trkpt>
      <trkpt lat="45.10856" lon="5.93878">
        <ele>666</ele>
        <time>2017-12-16T16:31:46Z</time>
      </trkpt>
      <trkpt lat="45.10826" lon="5.93789">
        <ele>660</ele>
        <time>2017-12-16T16:32:01Z</time>
      </trkpt>
      <trkpt lat="45.10817" lon="5.93773">
        <ele>660</ele>
        <time>2017-12-16T16:32:05Z</time>
      </trkpt>
      <trkpt lat="45.10767" lon="5.93624">
        <ele>656</ele>
        <time>2017-12-16T16:32:22Z</time>
      </trkpt>
      <trkpt lat="45.10757" lon="5.93603">
        <ele>656</ele>
        <time>2017-12-16T16:32:41Z</time>
      </trkpt>
      <trkpt lat="45.10737" lon="5.93565">
        <ele>657</ele>
        <time>2017-12-16T16:32:53Z</time>
      </trkpt>
      <trkpt lat="45.10683" lon="5.93476">
        <ele>658</ele>
        <time>2017-12-16T16:32:56Z</time>
      </trkpt>
      <trkpt lat="45.10674" lon="5.93455">
        <ele>657</ele>
        <time>2017-12-16T16:33:11Z</time>
      </trkpt>
      <trkpt lat="45.10666" lon="5.93432">
        <ele>671</ele>
        <time>2017-12-16T16:33:23Z</time>
      </trkpt>
      <trkpt lat="45.10656" lon="5.93381">
        <ele>675</ele>
        <time>2017-12-16T16:33:42Z</time>
      </trkpt>
      <trkpt lat="45.10649" lon="5.93278">
        <ele>673</ele>
        <time>2017-12-16T16:33:49Z</time>
      </trkpt>
      <trkpt lat="45.10649" lon="5.93226">
        <ele>668</ele>
        <time>2017-12-16T16:33:59Z</time>
      </trkpt>
      <trkpt lat="45.10643" lon="5.93166">
        <ele>658</ele>
        <time>2017-12-16T16:34:15Z</time>
      </trkpt>
      <trkpt lat="45.10626" lon="5.93108">
        <ele>660</ele>
        <time>2017-12-16T16:34:17Z</time>
      </trkpt>
      <trkpt lat="45.10612" lon="5.9307">
        <ele>654</ele>
        <time>2017-12-16T16:34:36Z</time>
      </trkpt>
      <trkpt lat="45.10611" lon="5.93069">
        <ele>654</ele>
        <time>2017-12-16T16:34:40Z</time>
      </trkpt>
      <trkpt lat="45.10499" lon="5.92828">
        <ele>656</ele>
        <time>2017-12-16T16:34:54Z</time>
      </trkpt>
      <trkpt lat="45.10486" lon="5.92784">
        <ele>663</ele>
        <time>2017-12-16T16:34:58Z</time>
      </trkpt>
      <trkpt lat="45.10472" lon="5.92727">
        <ele>653</ele>
        <time>2017-12-16T16:35:08Z</time>
      </trkpt>
      <trkpt lat="45.10465" lon="5.92671">
        <ele>651</ele>
        <time>2017-12-16T16:35:13Z</time>
      </trkpt>
      <trkpt lat="45.10448" lon="5.92451">
        <ele>637</ele>
        <time>2017-12-16T16:35:23Z</time>
      </trkpt>
      <trkpt lat="45.10443" lon="5.92419">
        <ele>638</ele>
        <time>2017-12-16T16:35:36Z</time>
      </trkpt>
      <trkpt lat="45.10428" lon="5.92361">
        <ele>635</ele>
        <time>2017-12-16T16:35:53Z</time>
      </trkpt>
      <trkpt lat="45.10422" lon="5.9234">
        <ele>636</ele>
        <time>2017-12-16T16:36:07Z</time>
      </trkpt>
      <trkpt lat="45.10415" lon="5.92329">
        <ele>639</ele>
        <time>2017-12-16T16:36:12Z</time>
      </trkpt>
      <trkpt lat="45.10369" lon="5.92179">
        <ele>632</ele>
        <time>2017-12-16T16:36:20Z</time>
      </trkpt>
      <trkpt lat="45.10329" lon="5.92047">
        <ele>621</ele>
        <time>2017-12-16T16:36:25Z</time>
      </trkpt>
      <trkpt lat="45.10316" lon="5.92011">
        <ele>619</ele>
        <time>2017-12-16T16:36:38Z</time>
      </trkpt>
      <trkpt lat="45.10302" lon="5.91984">
        <ele>615</ele>
        <time>2017-12-16T16:36:51Z</time>
      </trkpt>
      <trkpt lat="45.10287" lon="5.91963">
        <ele>614</ele>
        <time>2017-12-16T16:36:56Z</time>
      </trkpt>
      <trkpt lat="45.10271" lon="5.91946">
        <ele>613</ele>
        <time>2017-12-16T16:37:02Z</time>
      </trkpt>
      <trkpt lat="45.10248" lon="5.91925">
        <ele>613</ele>
        <time>2017-12-16T16:37:19Z</time>
      </trkpt>
      <trkpt lat="45.0997" lon="5.91693">
        <ele>602</ele>
        <time>2017-12-16T16:37:33Z</time>
      </trkpt>
      <trkpt lat="45.09864" lon="5.91604">
        <ele>599</ele>
        <time>2017-12-16T16:37:49Z</time>
      </trkpt>
      <trkpt lat="45.09836" lon="5.91574">
        <ele>593</ele>
        <time>2017-12-16T16:38:03Z</time>
      </trkpt>
      <trkpt lat="45.09823" lon="5.91556">
        <ele>605</ele>
        <time>2017-12-16T16:38:12Z</time>
      </trkpt>
      <trkpt lat="45.0981" lon="5.91534">
        <ele>606</ele>
        <time>2017-12-16T16:38:18Z</time>
      </trkpt>
      <trkpt lat="45.09785" lon="5.91477">
        <ele>601</ele>
        <time>2017-12-16T16:38:35Z</time>
      </trkpt>
      <trkpt lat="45.09747" lon="5.91392">
        <ele>609</ele>
        <time>2017-12-16T16:38:54Z</time>
      </trkpt>
      <trkpt lat="45.09708" lon="5.91301">
        <ele>603</ele>
        <time>2017-12-16T16:38:56Z</time>
      </trkpt>
      <trkpt lat="45.09699" lon="5.91276">
        <ele>604</ele>
        <time>2017-12-16T16:39:11Z</time>
      </trkpt>
      <trkpt lat="45.09692" lon="5.91241">
        <ele>601</ele>
        <time>2017-12-16T16:39:28Z</time>
      </trkpt>
      <trkpt lat="45.09684" lon="5.9121">
        <ele>598</ele>
        <time>2017-12-16T16:39:37Z</time>
      </trkpt>
      <trkpt lat="45.09679" lon="5.91182">
        <ele>596</ele>
        <time>2017-12-16T16:39:55Z</time>
      </trkpt>
      <trkpt lat="45.09655" lon="5.90968">
        <ele>595</ele>
        <time>2017-12-16T16:39:58Z</time>
      </trkpt>
      <trkpt lat="45.09645" lon="5.90914">
        <ele>583</ele>
        <time>2017-12-16T16:40:01Z</time>
      </trkpt>
      <trkpt lat="45.09635" lon="5.90877">
        <ele>585</ele>
        <time>2017-12-16T16:40:10Z</time>
      </trkpt>
      <trkpt lat="45.09603" lon="5.90795">
        <ele>578</ele>
        <time>2017-12-16T16:40:14Z</time>
      </trkpt>
      <trkpt lat="45.09536" lon="5.90636">
        <ele>578</ele>
        <time>2017-12-16T16:40:17Z</time>
      </trkpt>
      <trkpt lat="45.09524" lon="5.90614">
        <ele>578</ele>
        <time>2017-12-16T16:40:35Z</time>
      </trkpt>
      <trkpt lat="45.09513" lon="5.90598">
        <ele>578</ele>
        <time>2017-12-16T16:40:45Z</time>
      </trkpt>
      <trkpt lat="45.09487" lon="5.90567">
        <ele>578</ele>
        <time>2017-12-16T16:40:51Z</time>
      </trkpt>
      <trkpt lat="45.09435" lon="5.90524">
        <ele>577</ele>
        <time>2017-12-16T16:41:10Z</time>
      </trkpt>
      <trkpt lat="45.09385" lon="5.90485">
        <ele>575</ele>
        <time>2017-12-16T16:41:19Z</time>
      </trkpt>
      <trkpt lat="45.09345" lon="5.90454">
        <ele>574</ele>
        <time>2017-12-16T16:41:22Z</time>
      </trkpt>
      <trkpt lat="45.09207" lon="5.90348">
        <ele>568</ele>
        <time>2017-12-16T16:41:26Z</time>
      </trkpt>
      <trkpt lat="45.09113" lon="5.9027">
        <ele>563</ele>
        <time>2017-12-16T16:41:43Z</time>
      </trkpt>
      <trkpt lat="45.09085" lon="5.90249">
        <ele>561</ele>
        <time>2017-12-16T16:41:52Z</time>
      </trkpt>
      <trkpt lat="45.09081" lon="5.90242">
        <ele>559</ele>
        <time>2017-12-16T16:41:59Z</time>
      </trkpt>
      <trkpt lat="45.09064" lon="5.90227">
        <ele>557</ele>
        <time>2017-12-16T16:42:08Z</time>
      </trkpt>
      <trkpt lat="45.09031" lon="5.902">
        <ele>554</ele>
        <time>2017-12-16T16:42:24Z</time>
      </trkpt>
      <trkpt lat="45.09011" lon="5.9019">
        <ele>553</ele>
        <time>2017-12-16T16:42:28Z</time>
      </trkpt>
      <trkpt lat="45.08969" lon="5.90182">
        <ele>555</ele>
        <time>2017-12-16T16:42:41Z</time>
      </trkpt>
      <trkpt lat="45.08955" lon="5.9018">
        <ele>555</ele>
        <time>2017-12-16T16:42:48Z</time>
      </trkpt>
      <trkpt lat="45.08949" lon="5.90181">
        <ele>555</ele>
        <time>2017-12-16T16:42:53Z</time>
      </trkpt>
      <trkpt lat="45.08823" lon="5.90157">
        <ele>548</ele>
        <time>2017-12-16T16:42:58Z</time>
      </trkpt>
      <trkpt lat="45.08758" lon="5.90139">
        <ele>549</ele>
        <time>2017-12-16T16:43:02Z</time>
      </trkpt>
      <trkpt lat="45.08633" lon="5.90087">
        <ele>552</ele>
        <time>2017-12-16T16:43:10Z</time>
      </trkpt>
      <trkpt lat="45.08565" lon="5.90058">
        <ele>541</ele>
        <time>2017-12-16T16:43:21Z</time>
      </trkpt>
      <trkpt lat="45.08533" lon="5.90042">
        <ele>541</ele>
        <time>2017-12-16T16:43:30Z</time>
      </trkpt>
      <trkpt lat="45.08495" lon="5.90015">
        <ele>546</ele>
        <time>2017-12-16T16:43:38Z</time>
      </trkpt>
      <trkpt lat="45.0839" lon="5.89915">
        <ele>537</ele>
        <time>2017-12-16T16:43:57Z</time>
      </trkpt>
      <trkpt lat="45.08329" lon="5.89848">
        <ele>545</ele>
        <time>2017-12-16T16:44:15Z</time>
      </trkpt>
      <trkpt lat="45.08285" lon="5.89794">
        <ele>537</ele>
        <time>2017-12-16T16:44:28Z</time>
      </trkpt>
      <trkpt lat="45.08273" lon="5.89775">
        <ele>537</ele>
        <time>2017-12-16T16:44:35Z</time>
      </trkpt>
      <trkpt lat="45.08236" lon="5.89689">
        <ele>544</ele>
        <time>2017-12-16T16:44:54Z</time>
      </trkpt>
      <trkpt lat="45.08231" lon="5.89676">
        <ele>543</ele>
        <time>2017-12-16T16:45:00Z</time>
      </trkpt>
      <trkpt lat="45.08225" lon="5.89652">
        <ele>542</ele>
        <time>2017-12-16T16:45:20Z</time>
      </trkpt>
      <trkpt lat="45.08223" lon="5.89631">
        <ele>543</ele>
        <time>2017-12-16T16:45:25Z</time>
      </trkpt>
      <trkpt lat="45.08224" lon="5.89612">
        <ele>541</ele>
        <time>2017-12-16T16:45:33Z</time>
      </trkpt>
      <trkpt lat="45.08231" lon="5.8956">
        <ele>534</ele>
        <time>2017-12-16T16:45:48Z</time>
      </trkpt>
      <trkpt lat="45.08232" lon="5.89539">
        <ele>534</ele>
        <time>2017-12-16T16:45:56Z</time>
      </trkpt>
      <trkpt lat="45.08229" lon="5.89517">
        <ele>531</ele>
        <time>2017-12-16T16:46:02Z</time>
      </trkpt>
      <trkpt lat="45.08222" lon="5.89497">
        <ele>524</ele>
        <time>2017-12-16T16:46:08Z</time>
      </trkpt>
      <trkpt lat="45.08211" lon="5.8947">
        <ele>526</ele>
        <time>2017-12-16T16:46:17Z</time>
      </trkpt>
      <trkpt lat="45.08195" lon="5.89439">
        <ele>526</ele>
        <time>2017-12-16T16:46:36Z</time>
      </trkpt>
      <trkpt lat="45.08178" lon="5.89413">
        <ele>523</ele>
        <time>2017-12-16T16:46:38Z</time>
      </trkpt>
      <trkpt lat="45.08113" lon="5.89333">
        <ele>520</ele>
        <time>2017-12-16T16:46:53Z</time>
      </trkpt>
      <trkpt lat="45.08077" lon="5.89286">
        <ele>531</ele>
        <time>2017-12-16T16:47:08Z</time>
      </trkpt>
      <trkpt lat="45.08047" lon="5.89238">
        <ele>518</ele>
        <time>2017-12-16T16:47:22Z</time>
      </trkpt>
      <trkpt lat="45.07985" lon="5.89133">
        <ele>526</ele>
        <time>2017-12-16T16:47:40Z</time>
      </trkpt>
      <trkpt lat="45.0793" lon="5.89036">
        <ele>514</ele>
        <time>2017-12-16T16:47:56Z</time>
      </trkpt>
      <trkpt lat="45.07917" lon="5.89009">
        <ele>512</ele>
        <time>2017-12-16T16:48:06Z</time>
      </trkpt>
      <trkpt lat="45.07869" lon="5.88873">
        <ele>517</ele>
        <time>2017-12-16T16:48:23Z</time>
      </trkpt>
      <trkpt lat="45.07843" lon="5.88801">
        <ele>506</ele>
        <time>2017-12-16T16:48:25Z</time>
      </trkpt>
      <trkpt lat="45.07817" lon="5.88747">
        <ele>510</ele>
        <time>2017-12-16T16:48:37Z</time>
      </trkpt>
      <trkpt lat="45.07782" lon="5.88683">
        <ele>510</ele>
        <time>2017-12-16T16:48:39Z</time>
      </trkpt>
      <trkpt lat="45.07699" lon="5.88552">
        <ele>510</ele>
        <time>2017-12-16T16:48:51Z</time>
      </trkpt>
      <trkpt lat="45.07672" lon="5.88508">
        <ele>506</ele>
        <time>2017-12-16T16:48:56Z</time>
      </trkpt>
      <trkpt lat="45.0767" lon="5.885">
        <ele>504</ele>
        <time>2017-12-16T16:49:05Z</time>
      </trkpt>
      <trkpt lat="45.07668" lon="5.88497">
        <ele>504</ele>
        <time>2017-12-16T16:49:20Z</time>
      </trkpt>
      <trkpt lat="45.07638" lon="5.88448">
        <ele>509</ele>
        <time>2017-12-16T16:49:28Z</time>
      </trkpt>
      <trkpt lat="45.07623" lon="5.88416">
        <ele>499</ele>
        <time>2017-12-16T16:49:37Z</time>
      </trkpt>
      <trkpt lat="45.07609" lon="5.88378">
        <ele>498</ele>
        <time>2017-12-16T16:49:55Z</time>
      </trkpt>
      <trkpt lat="45.07596" lon="5.88333">
        <ele>493</ele>
        <time>2017-12-16T16:50:01Z</time>
      </trkpt>
      <trkpt lat="45.07591" lon="5.88307">
        <ele>491</ele>
        <time>2017-12-16T16:50:14Z</time>
      </trkpt>
      <trkpt lat="45.07583" lon="5.88232">
        <ele>505</ele>
        <time>2017-12-16T16:50:21Z</time>
      </trkpt>
      <trkpt lat="45.07584" lon="5.88159">
        <ele>484</ele>
        <time>2017-12-16T16:50:41Z</time>
      </trkpt>
      <trkpt lat="45.07578" lon="5.88101">
        <ele>494</ele>
        <time>2017-12-16T16:50:56Z</time>
      </trkpt>
      <trkpt lat="45.07566" lon="5.88037">
        <ele>490</ele>
        <time>2017-12-16T16:51:10Z</time>
      </trkpt>
      <trkpt lat="45.07539" lon="5.87892">
        <ele>476</ele>
        <time>2017-12-16T16:51:29Z</time>
      </trkpt>
      <trkpt lat="45.07531" lon="5.87862">
        <ele>475</ele>
        <time>2017-12-16T16:51:35Z</time>
      </trkpt>
      <trkpt lat="45.07515" lon="5.87829">
        <ele>474</ele>
        <time>2017-12-16T16:51:43Z</time>
      </trkpt>
      <trkpt lat="45.07495" lon="5.87796">
        <ele>480</ele>
        <time>2017-12-16T16:51:55Z</time>
      </trkpt>
      <trkpt lat="45.07473" lon="5.87768">
        <ele>479</ele>
        <time>2017-12-16T16:52:02Z</time>
      </trkpt>
      <trkpt lat="45.07332" lon="5.87642">
        <ele>472</ele>
        <time>2017-12-16T16:52:10Z</time>
      </trkpt>
      <trkpt lat="45.07252" lon="5.8757">
        <ele>470</ele>
        <time>2017-12-16T16:52:18Z</time>
      </trkpt>
      <trkpt lat="45.07241" lon="5.87563">
        <ele>470</ele>
        <time>2017-12-16T16:52:22Z</time>
      </trkpt>
      <trkpt lat="45.07222" lon="5.87554">
        <ele>470</ele>
        <time>2017-12-16T16:52:33Z</time>
      </trkpt>
      <trkpt lat="45.0721" lon="5.87549">
        <ele>470</ele>
        <time>2017-12-16T16:52:51Z</time>
      </trkpt>
      <trkpt lat="45.07206" lon="5.87544">
        <ele>470</ele>
        <time>2017-12-16T16:52:58Z</time>
      </trkpt>
      <trkpt lat="45.07199" lon="5.87537">
        <ele>469</ele>
        <time>2017-12-16T16:53:03Z</time>
      </trkpt>
      <trkpt lat="45.07194" lon="5.87529">
        <ele>469</ele>
        <time>2017-12-16T16:53:21Z</time>
      </trkpt>
      <trkpt lat="45.07192" lon="5.87522">
        <ele>468</ele>
        <time>2017-12-16T16:53:30Z</time>
      </trkpt>
      <trkpt lat="45.0719" lon="5.87514">
        <ele>467</ele>
        <time>2017-12-16T16:53:37Z</time>
      </trkpt>
      <trkpt lat="45.07184" lon="5.87501">
        <ele>466</ele>
        <time>2017-12-16T16:53:43Z</time>
      </trkpt>
      <trkpt lat="45.07181" lon="5.87458">
        <ele>463</ele>
        <time>2017-12-16T16:53:53Z</time>
      </trkpt>
      <trkpt lat="45.07179" lon="5.87407">
        <ele>461</ele>
        <time>2017-12-16T16:54:10Z</time>
      </trkpt>
      <trkpt lat="45.07178" lon="5.87386">
        <ele>461</ele>
        <time>2017-12-16T16:54:21Z</time>
      </trkpt>
      <trkpt lat="45.0717" lon="5.87332">
        <ele>457</ele>
        <time>2017-12-16T16:54:41Z</time>
      </trkpt>
      <trkpt lat="45.07155" lon="5.87282">
        <ele>452</ele>
        <time>2017-12-16T16:54:45Z</time>
      </trkpt>
      <trkpt lat="45.0714" lon="5.87249">
        <ele>446</ele>
        <time>2017-12-16T16:54:48Z</time>
      </trkpt>
      <trkpt lat="45.07118" lon="5.87211">
        <ele>445</ele>
        <time>2017-12-16T16:54:57Z</time>
      </trkpt>
      <trkpt lat="45.07103" lon="5.87193">
        <ele>445</ele>
        <time>2017-12-16T16:55:00Z</time>
      </trkpt>
      <trkpt lat="45.07027" lon="5.87106">
        <ele>439</ele>
        <time>2017-12-16T16:55:11Z</time>
      </trkpt>
      <trkpt lat="45.06976" lon="5.87051">
        <ele>435</ele>
        <time>2017-12-16T16:55:15Z</time>
      </trkpt>
      <trkpt lat="45.06931" lon="5.87008">
        <ele>433</ele>
        <time>2017-12-16T16:55:30Z</time>
      </trkpt>
      <trkpt lat="45.0689" lon="5.86977">
        <ele>431</ele>
        <time>2017-12-16T16:55:36Z</time>
      </trkpt>
      <trkpt lat="45.06777" lon="5.86898">
        <ele>431</ele>
        <time>2017-12-16T16:55:47Z</time>
      </trkpt>
      <trkpt lat="45.06739" lon="5.86875">
        <ele>431</ele>
        <time>2017-12-16T16:56:03Z</time>
      </trkpt>
      <trkpt lat="45.06709" lon="5.86861">
        <ele>431</ele>
        <time>2017-12-16T16:56:07Z</time>
      </trkpt>
      <trkpt lat="45.06683" lon="5.86852">
        <ele>430</ele>
        <time>2017-12-16T16:56:20Z</time>
      </trkpt>
      <trkpt lat="45.0664" lon="5.86842">
        <ele>432</ele>
        <time>2017-12-16T16:56:33Z</time>
      </trkpt>
      <trkpt lat="45.0659" lon="5.86832">
        <ele>430</ele>
        <time>2017-12-16T16:56:42Z</time>
      </trkpt>
      <trkpt lat="45.06566" lon="5.86824">
        <ele>429</ele>
        <time>2017-12-16T16:56:59Z</time>
      </trkpt>
      <trkpt lat="45.06538" lon="5.86811">
        <ele>428</ele>
        <time>2017-12-16T16:57:07Z</time>
      </trkpt>
      <trkpt lat="45.0652" lon="5.86799">
        <ele>428</ele>
        <time>2017-12-16T16:57:18Z</time>
      </trkpt>
      <trkpt lat="45.06485" lon="5.86772">
        <ele>429</ele>
        <time>2017-12-16T16:57:28Z</time>
      </trkpt>
      <trkpt lat="45.0647" lon="5.86756">
        <ele>430</ele>
        <time>2017-12-16T16:57:35Z</time>
      </trkpt>
      <trkpt lat="45.06454" lon="5.86743">
        <ele>430</ele>
        <time>2017-12-16T16:57:45Z</time>
      </trkpt>
      <trkpt lat="45.06369" lon="5.86676">
        <ele>434</ele>
        <time>2017-12-16T16:58:03Z</time>
      </trkpt>
      <trkpt lat="45.06305" lon="5.8662">
        <ele>429</ele>
        <time>2017-12-16T16:58:14Z</time>
      </trkpt>
      <trkpt lat="45.06206" lon="5.86538">
        <ele>424</ele>
        <time>2017-12-16T16:58:16Z</time>
      </trkpt>
      <trkpt lat="45.0613" lon="5.86465">
        <ele>421</ele>
        <time>2017-12-16T16:58:22Z</time>
      </trkpt>
      <trkpt lat="45.06" lon="5.86327">
        <ele>416</ele>
        <time>2017-12-16T16:58:35Z</time>
      </trkpt>
      <trkpt lat="45.05528" lon="5.85838">
        <ele>403</ele>
        <time>2017-12-16T16:58:48Z</time>
      </trkpt>
      <trkpt lat="45.0551" lon="5.85816">
        <ele>401</ele>
        <time>2017-12-16T16:58:52Z</time>
      </trkpt>
      <trkpt lat="45.05494" lon="5.85791">
        <ele>403</ele>
        <time>2017-12-16T16:59:05Z</time>
      </trkpt>
      <trkpt lat="45.05484" lon="5.85772">
        <ele>403</ele>
        <time>2017-12-16T16:59:12Z</time>
      </trkpt>
      <trkpt lat="45.0547" lon="5.8574">
        <ele>401</ele>
        <time>2017-12-16T16:59:27Z</time>
      </trkpt>
      <trkpt lat="45.05454" lon="5.85687">
        <ele>401</ele>
        <time>2017-12-16T16:59:35Z</time>
      </trkpt>
      <trkpt lat="45.05439" lon="5.85619">
        <ele>398</ele>
        <time>2017-12-16T16:59:47Z</time>
      </trkpt>
      <trkpt lat="45.05401" lon="5.85458">
        <ele>395</ele>
        <time>2017-12-16T17:00:04Z</time>
      </trkpt>
      <trkpt lat="45.05349" lon="5.85256">
        <ele>394</ele>
        <time>2017-12-16T17:00:10Z</time>
      </trkpt>
      <trkpt lat="45.05341" lon="5.85225">
        <ele>393</ele>
        <time>2017-12-16T17:00:13Z</time>
      </trkpt>
      <trkpt lat="45.05336" lon="5.85193">
        <ele>392</ele>
        <time>2017-12-16T17:00:23Z</time>
      </trkpt>
      <trkpt lat="45.05337" lon="5.85157">
        <ele>392</ele>
        <time>2017-12-16T17:00:32Z</time>
      </trkpt>
      <trkpt lat="45.05346" lon="5.85124">
        <ele>390</ele>
        <time>2017-12-16T17:00:49Z</time>
      </trkpt>
      <trkpt lat="45.05358" lon="5.85097">
        <ele>390</ele>
        <time>2017-12-16T17:00:56Z</time>
      </trkpt>
      <trkpt lat="45.05374" lon="5.85072">
        <ele>388</ele>
        <time>2017-12-16T17:00:58Z</time>
      </trkpt>
      <trkpt lat="45.05426" lon="5.85021">
        <ele>392</ele>
        <time>2017-12-16T17:01:08Z</time>
      </trkpt>
      <trkpt lat="45.05443" lon="5.84999">
        <ele>389</ele>
        <time>2017-12-16T17:01:10Z</time>
      </trkpt>
      <trkpt lat="45.05455" lon="5.84972">
        <ele>390</ele>
        <time>2017-12-16T17:01:25Z</time>
      </trkpt>
      <trkpt lat="45.05461" lon="5.84947">
        <ele>389</ele>
        <time>2017-12-16T17:01:39Z</time>
      </trkpt>
      <trkpt lat="45.05463" lon="5.84901">
        <ele>386</ele>
        <time>2017-12-16T17:01:58Z</time>
      </trkpt>
      <trkpt lat="45.05464" lon="5.84804">
        <ele>386</ele>
        <time>2017-12-16T17:02:10Z</time>
      </trkpt>
      <trkpt lat="45.05469" lon="5.84493">
        <ele>407</ele>
        <time>2017-12-16T17:02:27Z</time>
      </trkpt>
      <trkpt lat="45.05469" lon="5.84445">
        <ele>427</ele>
        <time>2017-12-16T17:02:43Z</time>
      </trkpt>
      <trkpt lat="45.05466" lon="5.84418">
        <ele>434</ele>
        <time>2017-12-16T17:02:50Z</time>
      </trkpt>
      <trkpt lat="45.05458" lon="5.84371">
        <ele>448</ele>
        <time>2017-12-16T17:02:54Z</time>
      </trkpt>
      <trkpt lat="45.05435" lon="5.84231">
        <ele>438</ele>
        <time>2017-12-16T17:02:56Z</time>
      </trkpt>
      <trkpt lat="45.0542" lon="5.84131">
        <ele>408</ele>
        <time>2017-12-16T17:03:00Z</time>
      </trkpt>
      <trkpt lat="45.05401" lon="5.84063">
        <ele>383</ele>
        <time>2017-12-16T17:03:12Z</time>
      </trkpt>
      <trkpt lat="45.05393" lon="5.84025">
        <ele>380</ele>
        <time>2017-12-16T17:03:27Z</time>
      </trkpt>
      <trkpt lat="45.05388" lon="5.83991">
        <ele>375</ele>
        <time>2017-12-16T17:03:40Z</time>
      </trkpt>
      <trkpt lat="45.05386" lon="5.83958">
        <ele>373</ele>
        <time>2017-12-16T17:03:55Z</time>
      </trkpt>
      <trkpt lat="45.05383" lon="5.83905">
        <ele>370</ele>
        <time>2017-12-16T17:04:05Z</time>
      </trkpt>
      <trkpt lat="45.05383" lon="5.8389">
        <ele>370</ele>
        <time>2017-12-16T17:04:09Z</time>
      </trkpt>
      <trkpt lat="45.0538" lon="5.83874">
        <ele>370</ele>
        <time>2017-12-16T17:04:21Z</time>
      </trkpt>
      <trkpt lat="45.05382" lon="5.83846">
        <ele>370</ele>
        <time>2017-12-16T17:04:41Z</time>
      </trkpt>
      <trkpt lat="45.05382" lon="5.83808">
        <ele>371</ele>
        <time>2017-12-16T17:05:00Z</time>
      </trkpt>
      <trkpt lat="45.05371" lon="5.83641">
        <ele>368</ele>
        <time>2017-12-16T17:05:06Z</time>
      </trkpt>
      <trkpt lat="45.05366" lon="5.8355">
        <ele>367</ele>
        <time>2017-12-16T17:05:21Z</time>
      </trkpt>
      <trkpt lat="45.05361" lon="5.83525">
        <ele>367</ele>
        <time>2017-12-16T17:05:25Z</time>
      </trkpt>
      <trkpt lat="45.05365" lon="5.83516">
        <ele>367</ele>
        <time>2017-12-16T17:05:30Z</time>
      </trkpt>
      <trkpt lat="45.05365" lon="5.83495">
        <ele>366</ele>
        <time>2017-12-16T17:05:34Z</time>
      </trkpt>
      <trkpt lat="45.05365" lon="5.83516">
        <ele>367</ele>
        <time>2017-12-16T17:05:46Z</time>
      </trkpt>
      <trkpt lat="45.05361" lon="5.83525">
        <ele>367</ele>
        <time>2017-12-16T17:05:57Z</time>
      </trkpt>
      <trkpt lat="45.05336" lon="5.83538">
        <ele>367</ele>
        <time>2017-12-16T17:06:13Z</time>
      </trkpt>
      <trkpt lat="45.05307" lon="5.83556">
        <ele>367</ele>
        <time>2017-12-16T17:06:32Z</time>
      </trkpt>
      <trkpt lat="45.05274" lon="5.83584">
        <ele>368</ele>
        <time>2017-12-16T17:06:48Z</time>
      </trkpt>
      <trkpt lat="45.05232" lon="5.83627">
        <ele>366</ele>
        <time>2017-12-16T17:07:01Z</time>
      </trkpt>
      <trkpt lat="45.05217" lon="5.83644">
        <ele>365</ele>
        <time>2017-12-16T17:07:03Z</time>
      </trkpt>
      <trkpt lat="45.05198" lon="5.83663">
        <ele>365</ele>
        <time>2017-12-16T17:07:06Z</time>
      </trkpt>
      <trkpt lat="45.05161" lon="5.83696">
        <ele>372</ele>
        <time>2017-12-16T17:07:16Z</time>
      </trkpt>
      <trkpt lat="45.05138" lon="5.83713">
        <ele>375</ele>
        <time>2017-12-16T17:07:22Z</time>
      </trkpt>
      <trkpt lat="45.05122" lon="5.83714">
        <ele>378</ele>
        <time>2017-12-16T17:07:37Z</time>
      </trkpt>
      <trkpt lat="45.051" lon="5.83703">
        <ele>379</ele>
        <time>2017-12-16T17:07:44Z</time>
      </trkpt>
      <trkpt lat="45.0508" lon="5.83684">
        <ele>388</ele>
        <time>2017-12-16T17:08:02Z</time>
      </trkpt>
      <trkpt lat="45.04983" lon="5.8356">
        <ele>385</ele>
        <time>2017-12-16T17:08:06Z</time>
      </trkpt>
      <trkpt lat="45.04918" lon="5.8349">
        <ele>387</ele>
        <time>2017-12-16T17:08:11Z</time>
      </trkpt>
      <trkpt lat="45.04891" lon="5.83436">
        <ele>394</ele>
        <time>2017-12-16T17:08:14Z</time>
      </trkpt>
      <trkpt lat="45.04854" lon="5.83261">
        <ele>386</ele>
        <time>2017-12-16T17:08:30Z</time>
      </trkpt>
      <trkpt lat="45.04844" lon="5.83232">
        <ele>388</ele>
        <time>2017-12-16T17:08:37Z</time>
      </trkpt>
      <trkpt lat="45.04827" lon="5.83207">
        <ele>395</ele>
        <time>2017-12-16T17:08:52Z</time>
      </trkpt>
      <trkpt lat="45.04779" lon="5.83172">
        <ele>398</ele>
        <time>2017-12-16T17:09:08Z</time>
      </trkpt>
      <trkpt lat="45.04761" lon="5.83165">
        <ele>399</ele>
        <time>2017-12-16T17:09:11Z</time>
      </trkpt>
      <trkpt lat="45.04748" lon="5.83165">
        <ele>402</ele>
        <time>2017-12-16T17:09:18Z</time>
      </trkpt>
      <trkpt lat="45.04712" lon="5.83169">
        <ele>418</ele>
        <time>2017-12-16T17:09:28Z</time>
      </trkpt>
      <trkpt lat="45.04699" lon="5.8317">
        <ele>421</ele>
        <time>2017-12-16T17:09:31Z</time>
      </trkpt>
      <trkpt lat="45.0468" lon="5.83166">
        <ele>419</ele>
        <time>2017-12-16T17:09:46Z</time>
      </trkpt>
      <trkpt lat="45.04667" lon="5.83149">
        <ele>418</ele>
        <time>2017-12-16T17:09:58Z</time>
      </trkpt>
      <trkpt lat="45.04649" lon="5.83071">
        <ele>421</ele>
        <time>2017-12-16T17:10:11Z</time>
      </trkpt>
      <trkpt lat="45.04647" lon="5.83055">
        <ele>422</ele>
        <time>2017-12-16T17:10:22Z</time>
      </trkpt>
      <trkpt lat="45.04651" lon="5.83035">
        <ele>421</ele>
        <time>2017-12-16T17:10:33Z</time>
      </trkpt>
      <trkpt lat="45.04653" lon="5.82967">
        <ele>419</ele>
        <time>2017-12-16T17:10:47Z</time>
      </trkpt>
      <trkpt lat="45.0466" lon="5.82911">
        <ele>419</ele>
        <time>2017-12-16T17:11:07Z</time>
      </trkpt>
      <trkpt lat="45.04667" lon="5.82869">
        <ele>419</ele>
        <time>2017-12-16T17:11:09Z</time>
      </trkpt>
      <trkpt lat="45.04652" lon="5.82817">
        <ele>428</ele>
        <time>2017-12-16T17:11:16Z</time>
      </trkpt>
      <trkpt lat="45.04641" lon="5.82759">
        <ele>430</ele>
        <time>2017-12-16T17:11:35Z</time>
      </trkpt>
      <trkpt lat="45.04639" lon="5.82755">
        <ele>430</ele>
        <time>2017-12-16T17:11:49Z</time>
      </trkpt>
      <trkpt lat="45.04629" lon="5.8275">
        <ele>433</ele>
        <time>2017-12-16T17:12:02Z</time>
      </trkpt>
      <trkpt lat="45.04608" lon="5.82766">
        <ele>431</ele>
        <time>2017-12-16T17:12:21Z</time>
      </trkpt>
      <trkpt lat="45.04577" lon="5.8278">
        <ele>436</ele>
        <time>2017-12-16T17:12:29Z</time>
      </trkpt>
      <trkpt lat="45.04515" lon="5.82812">
        <ele>440</ele>
        <time>2017-12-16T17:12:39Z</time>
      </trkpt>
      <trkpt lat="45.04496" lon="5.82831">
        <ele>444</ele>
        <time>2017-12-16T17:12:56Z</time>
      </trkpt>
      <trkpt lat="45.0449" lon="5.82847">
        <ele>449</ele>
        <time>2017-12-16T17:13:05Z</time>
      </trkpt>
      <trkpt lat="45.04484" lon="5.82876">
        <ele>452</ele>
        <time>2017-12-16T17:13:25Z</time>
      </trkpt>
      <trkpt lat="45.04478" lon="5.82882">
        <ele>453</ele>
        <time>2017-12-16T17:13:32Z</time>
      </trkpt>
      <trkpt lat="45.04472" lon="5.82885">
        <ele>453</ele>
        <time>2017-12-16T17:13:50Z</time>
      </trkpt>
      <trkpt lat="45.04465" lon="5.82884">
        <ele>454</ele>
        <time>2017-12-16T17:13:56Z</time>
      </trkpt>
      <trkpt lat="45.04459" lon="5.82878">
        <ele>455</ele>
        <time>2017-12-16T17:14:12Z</time>
      </trkpt>
      <trkpt lat="45.04457" lon="5.82866">
        <ele>455</ele>
        <time>2017-12-16T17:14:14Z</time>
      </trkpt>
      <trkpt lat="45.04453" lon="5.82803">
        <ele>452</ele>
        <time>2017-12-16T17:14:29Z</time>
      </trkpt>
      <trkpt lat="45.0444" lon="5.82743">
        <ele>454</ele>
        <time>2017-12-16T17:14:37Z</time>
      </trkpt>
      <trkpt lat="45.04437" lon="5.82676">
        <ele>456</ele>
        <time>2017-12-16T17:14:50Z</time>
      </trkpt>
      <trkpt lat="45.04442" lon="5.8261">
        <ele>458</ele>
        <time>2017-12-16T17:14:59Z</time>
      </trkpt>
      <trkpt lat="45.04448" lon="5.82592">
        <ele>458</ele>
        <time>2017-12-16T17:15:03Z</time>
      </trkpt>
      <trkpt lat="45.0446" lon="5.82574">
        <ele>465</ele>
        <time>2017-12-16T17:15:21Z</time>
      </trkpt>
      <trkpt lat="45.04475" lon="5.82552">
        <ele>466</ele>
        <time>2017-12-16T17:15:30Z</time>
      </trkpt>
      <trkpt lat="45.04493" lon="5.8254">
        <ele>468</ele>
        <time>2017-12-16T17:15:45Z</time>
      </trkpt>
      <trkpt lat="45.04556" lon="5.82538">
        <ele>465</ele>
        <time>2017-12-16T17:16:00Z</time>
      </trkpt>
      <trkpt lat="45.0457" lon="5.82533">
        <ele>465</ele>
        <time>2017-12-16T17:16:08Z</time>
      </trkpt>
      <trkpt lat="45.04579" lon="5.82526">
        <ele>467</ele>
        <time>2017-12-16T17:16:11Z</time>
      </trkpt>
      <trkpt lat="45.0459" lon="5.82505">
        <ele>467</ele>
        <time>2017-12-16T17:16:29Z</time>
      </trkpt>
      <trkpt lat="45.0461" lon="5.8245">
        <ele>474</ele>
        <time>2017-12-16T17:16:36Z</time>
      </trkpt>
      <trkpt lat="45.0464" lon="5.82415">
        <ele>482</ele>
        <time>2017-12-16T17:16:56Z</time>
      </trkpt>
      <trkpt lat="45.04643" lon="5.82386">
        <ele>485</ele>
        <time>2017-12-16T17:17:02Z</time>
      </trkpt>
      <trkpt lat="45.04644" lon="5.82356">
        <ele>488</ele>
        <time>2017-12-16T17:17:18Z</time>
      </trkpt>
      <trkpt lat="45.04655" lon="5.8232">
        <ele>497</ele>
        <time>2017-12-16T17:17:29Z</time>
      </trkpt>
      <trkpt lat="45.04662" lon="5.82304">
        <ele>501</ele>
        <time>2017-12-16T17:17:36Z</time>
      </trkpt>
      <trkpt lat="45.04675" lon="5.82285">
        <ele>488</ele>
        <time>2017-12-16T17:17:55Z</time>
      </trkpt>
      <trkpt lat="45.04688" lon="5.82268">
        <ele>489</ele>
        <time>2017-12-16T17:18:10Z</time>
      </trkpt>
      <trkpt lat="45.04687" lon="5.82255">
        <ele>492</ele>
        <time>2017-12-16T17:18:19Z</time>
      </trkpt>
      <trkpt lat="45.04679" lon="5.82249">
        <ele>505</ele>
        <time>2017-12-16T17:18:38Z</time>
      </trkpt>
      <trkpt lat="45.04668" lon="5.82258">
        <ele>500</ele>
        <time>2017-12-16T17:18:46Z</time>
      </trkpt>
      <trkpt lat="45.04626" lon="5.82356">
        <ele>490</ele>
        <time>2017-12-16T17:18:50Z</time>
      </trkpt>
      <trkpt lat="45.04608" lon="5.8239">
        <ele>489</ele>
        <time>2017-12-16T17:18:54Z</time>
      </trkpt>
      <trkpt lat="45.0459" lon="5.8241">
        <ele>489</ele>
        <time>2017-12-16T17:19:13Z</time>
      </trkpt>
      <trkpt lat="45.0457" lon="5.82414">
        <ele>496</ele>
        <time>2017-12-16T17:19:33Z</time>
      </trkpt>
      <trkpt lat="45.04543" lon="5.82402">
        <ele>502</ele>
        <time>2017-12-16T17:19:35Z</time>
      </trkpt>
      <trkpt lat="45.04524" lon="5.82407">
        <ele>503</ele>
        <time>2017-12-16T17:19:49Z</time>
      </trkpt>
      <trkpt lat="45.04499" lon="5.82437">
        <ele>495</ele>
        <time>2017-12-16T17:19:54Z</time>
      </trkpt>
      <trkpt lat="45.04489" lon="5.82444">
        <ele>493</ele>
        <time>2017-12-16T17:20:06Z</time>
      </trkpt>
      <trkpt lat="45.04474" lon="5.82446">
        <ele>492</ele>
        <time>2017-12-16T17:20:14Z</time>
      </trkpt>
      <trkpt lat="45.04441" lon="5.82429">
        <ele>496</ele>
        <time>2017-12-16T17:20:30Z</time>
      </trkpt>
      <trkpt lat="45.04374" lon="5.82385">
        <ele>510</ele>
        <time>2017-12-16T17:20:44Z</time>
      </trkpt>
      <trkpt lat="45.04351" lon="5.82369">
        <ele>510</ele>
        <time>2017-12-16T17:21:04Z</time>
      </trkpt>
      <trkpt lat="45.04344" lon="5.82358">
        <ele>511</ele>
        <time>2017-12-16T17:21:23Z</time>
      </trkpt>
      <trkpt lat="45.04335" lon="5.82329">
        <ele>517</ele>
        <time>2017-12-16T17:21:31Z</time>
      </trkpt>
      <trkpt lat="45.0431" lon="5.82269">
        <ele>520</ele>
        <time>2017-12-16T17:21:49Z</time>
      </trkpt>
      <trkpt lat="45.04284" lon="5.82234">
        <ele>537</ele>
        <time>2017-12-16T17:21:58Z</time>
      </trkpt>
      <trkpt lat="45.04259" lon="5.82218">
        <ele>538</ele>
        <time>2017-12-16T17:22:17Z</time>
      </trkpt>
      <trkpt lat="45.04241" lon="5.82214">
        <ele>536</ele>
        <time>2017-12-16T17:22:35Z</time>
      </trkpt>
      <trkpt lat="45.04211" lon="5.82196">
        <ele>541</ele>
        <time>2017-12-16T17:22:55Z</time>
      </trkpt>
      <trkpt lat="45.04174" lon="5.82173">
        <ele>548</ele>
        <time>2017-12-16T17:23:06Z</time>
      </trkpt>
      <trkpt lat="45.04147" lon="5.82168">
        <ele>546</ele>
        <time>2017-12-16T17:23:20Z</time>
      </trkpt>
      <trkpt lat="45.04088" lon="5.82186">
        <ele>546</ele>
        <time>2017-12-16T17:23:39Z</time>
      </trkpt>
      <trkpt lat="45.04053" lon="5.82182">
        <ele>551</ele>
        <time>2017-12-16T17:23:57Z</time>
      </trkpt>
      <trkpt lat="45.04031" lon="5.8218">
        <ele>553</ele>
        <time>2017-12-16T17:24:05Z</time>
      </trkpt>
      <trkpt lat="45.04007" lon="5.82183">
        <ele>557</ele>
        <time>2017-12-16T17:24:25Z</time>
      </trkpt>
      <trkpt lat="45.03975" lon="5.82185">
        <ele>565</ele>
        <time>2017-12-16T17:24:35Z</time>
      </trkpt>
      <trkpt lat="45.03949" lon="5.82182">
        <ele>569</ele>
        <time>2017-12-16T17:24:38Z</time>
      </trkpt>
      <trkpt lat="45.03931" lon="5.82187">
        <ele>572</ele>
        <time>2017-12-16T17:24:48Z</time>
      </trkpt>
      <trkpt lat="45.0391" lon="5.82202">
        <ele>576</ele>
        <time>2017-12-16T17:25:01Z</time>
      </trkpt>
      <trkpt lat="45.03896" lon="5.82218">
        <ele>573</ele>
        <time>2017-12-16T17:25:14Z</time>
      </trkpt>
      <trkpt lat="45.03879" lon="5.82227">
        <ele>573</ele>
        <time>2017-12-16T17:25:28Z</time>
      </trkpt>
      <trkpt lat="45.03868" lon="5.82224">
        <ele>574</ele>
        <time>2017-12-16T17:25:40Z</time>
      </trkpt>
      <trkpt lat="45.03847" lon="5.82212">
        <ele>576</ele>
        <time>2017-12-16T17:25:50Z</time>
      </trkpt>
      <trkpt lat="45.03811" lon="5.822">
        <ele>582</ele>
        <time>2017-12-16T17:25:58Z</time>
      </trkpt>
      <trkpt lat="45.03798" lon="5.82191">
        <ele>583</ele>
        <time>2017-12-16T17:26:12Z</time>
      </trkpt>
      <trkpt lat="45.03787" lon="5.82184">
        <ele>583</ele>
        <time>2017-12-16T17:26:18Z</time>
      </trkpt>
      <trkpt lat="45.0377" lon="5.82188">
        <ele>582</ele>
        <time>2017-12-16T17:26:25Z</time>
      </trkpt>
      <trkpt lat="45.03742" lon="5.82221">
        <ele>585</ele>
        <time>2017-12-16T17:26:34Z</time>
      </trkpt>
      <trkpt lat="45.03733" lon="5.82244">
        <ele>584</ele>
        <time>2017-12-16T17:26:54Z</time>
      </trkpt>
      <trkpt lat="45.03735" lon="5.82253">
        <ele>592</ele>
        <time>2017-12-16T17:27:06Z</time>
      </trkpt>
      <trkpt lat="45.03746" lon="5.8227">
        <ele>596</ele>
        <time>2017-12-16T17:27:17Z</time>
      </trkpt>
      <trkpt lat="45.0379" lon="5.82316">
        <ele>591</ele>
        <time>2017-12-16T17:27:37Z</time>
      </trkpt>
      <trkpt lat="45.03825" lon="5.82328">
        <ele>585</ele>
        <time>2017-12-16T17:27:39Z</time>
      </trkpt>
      <trkpt lat="45.0386" lon="5.82344">
        <ele>589</ele>
        <time>2017-12-16T17:27:57Z</time>
      </trkpt>
      <trkpt lat="45.03887" lon="5.82366">
        <ele>591</ele>
        <time>2017-12-16T17:28:02Z</time>
      </trkpt>
      <trkpt lat="45.03901" lon="5.82372">
        <ele>590</ele>
        <time>2017-12-16T17:28:17Z</time>
      </trkpt>
      <trkpt lat="45.03917" lon="5.82369">
        <ele>580</ele>
        <time>2017-12-16T17:28:19Z</time>
      </trkpt>
      <trkpt lat="45.0394" lon="5.82365">
        <ele>579</ele>
        <time>2017-12-16T17:28:23Z</time>
      </trkpt>
      <trkpt lat="45.03957" lon="5.8237">
        <ele>578</ele>
        <time>2017-12-16T17:28:25Z</time>
      </trkpt>
      <trkpt lat="45.03972" lon="5.82383">
        <ele>579</ele>
        <time>2017-12-16T17:28:38Z</time>
      </trkpt>
      <trkpt lat="45.03972" lon="5.82401">
        <ele>580</ele>
        <time>2017-12-16T17:28:42Z</time>
      </trkpt>
      <trkpt lat="45.03965" lon="5.82409">
        <ele>581</ele>
        <time>2017-12-16T17:28:45Z</time>
      </trkpt>
      <trkpt lat="45.03956" lon="5.82413">
        <ele>582</ele>
        <time>2017-12-16T17:28:50Z</time>
      </trkpt>
      <trkpt lat="45.03924" lon="5.82431">
        <ele>588</ele>
        <time>2017-12-16T17:29:10Z</time>
      </trkpt>
      <trkpt lat="45.03851" lon="5.82487">
        <ele>611</ele>
        <time>2017-12-16T17:29:24Z</time>
      </trkpt>
      <trkpt lat="45.03841" lon="5.825">
        <ele>615</ele>
        <time>2017-12-16T17:29:38Z</time>
      </trkpt>
      <trkpt lat="45.03831" lon="5.82524">
        <ele>628</ele>
        <time>2017-12-16T17:29:55Z</time>
      </trkpt>
      <trkpt lat="45.03825" lon="5.82576">
        <ele>625</ele>
        <time>2017-12-16T17:30:03Z</time>
      </trkpt>
      <trkpt lat="45.03827" lon="5.82604">
        <ele>632</ele>
        <time>2017-12-16T17:30:05Z</time>
      </trkpt>
      <trkpt lat="45.03834" lon="5.82618">
        <ele>620</ele>
        <time>2017-12-16T17:30:17Z</time>
      </trkpt>
      <trkpt lat="45.03844" lon="5.82627">
        <ele>621</ele>
        <time>2017-12-16T17:30:25Z</time>
      </trkpt>
      <trkpt lat="45.03863" lon="5.82641">
        <ele>621</ele>
        <time>2017-12-16T17:30:37Z</time>
      </trkpt>
      <trkpt lat="45.03874" lon="5.82676">
        <ele>635</ele>
        <time>2017-12-16T17:30:40Z</time>
      </trkpt>
      <trkpt lat="45.03883" lon="5.82685">
        <ele>634</ele>
        <time>2017-12-16T17:30:58Z</time>
      </trkpt>
      <trkpt lat="45.03898" lon="5.82694">
        <ele>633</ele>
        <time>2017-12-16T17:31:07Z</time>
      </trkpt>
      <trkpt lat="45.03916" lon="5.82699">
        <ele>632</ele>
        <time>2017-12-16T17:31:26Z</time>
      </trkpt>
      <trkpt lat="45.03927" lon="5.8271">
        <ele>618</ele>
        <time>2017-12-16T17:31:46Z</time>
      </trkpt>
      <trkpt lat="45.03931" lon="5.82735">
        <ele>623</ele>
        <time>2017-12-16T17:32:02Z</time>
      </trkpt>
      <trkpt lat="45.03915" lon="5.82793">
        <ele>652</ele>
        <time>2017-12-16T17:32:20Z</time>
      </trkpt>
      <trkpt lat="45.03917" lon="5.82832">
        <ele>647</ele>
        <time>2017-12-16T17:32:33Z</time>
      </trkpt>
      <trkpt lat="45.03926" lon="5.82863">
        <ele>649</ele>
        <time>2017-12-16T17:32:44Z</time>
      </trkpt>
      <trkpt lat="45.03948" lon="5.82889">
        <ele>651</ele>
        <time>2017-12-16T17:33:00Z</time>
      </trkpt>
      <trkpt lat="45.03964" lon="5.82923">
        <ele>666</ele>
        <time>2017-12-16T17:33:20Z</time>
      </trkpt>
      <trkpt lat="45.03995" lon="5.82995">
        <ele>668</ele>
        <time>2017-12-16T17:33:29Z</time>
      </trkpt>
      <trkpt lat="45.04007" lon="5.83017">
        <ele>667</ele>
        <time>2017-12-16T17:33:37Z</time>
      </trkpt>
      <trkpt lat="45.04039" lon="5.8306">
        <ele>671</ele>
        <time>2017-12-16T17:33:42Z</time>
      </trkpt>
      <trkpt lat="45.04068" lon="5.83082">
        <ele>666</ele>
        <time>2017-12-16T17:33:54Z</time>
      </trkpt>
      <trkpt lat="45.04077" lon="5.83094">
        <ele>678</ele>
        <time>2017-12-16T17:34:13Z</time>
      </trkpt>
      <trkpt lat="45.04085" lon="5.83116">
        <ele>664</ele>
        <time>2017-12-16T17:34:27Z</time>
      </trkpt>
      <trkpt lat="45.04097" lon="5.83149">
        <ele>673</ele>
        <time>2017-12-16T17:34:37Z</time>
      </trkpt>
      <trkpt lat="45.04132" lon="5.83214">
        <ele>683</ele>
        <time>2017-12-16T17:34:47Z</time>
      </trkpt>
      <trkpt lat="45.04164" lon="5.83286">
        <ele>701</ele>
        <time>2017-12-16T17:35:00Z</time>
      </trkpt>
      <trkpt lat="45.04173" lon="5.833">
        <ele>682</ele>
        <time>2017-12-16T17:35:06Z</time>
      </trkpt>
      <trkpt lat="45.04195" lon="5.8332">
        <ele>683</ele>
        <time>2017-12-16T17:35:20Z</time>
      </trkpt>
      <trkpt lat="45.04219" lon="5.83336">
        <ele>696</ele>
        <time>2017-12-16T17:35:22Z</time>
      </trkpt>
      <trkpt lat="45.04238" lon="5.83359">
        <ele>694</ele>
        <time>2017-12-16T17:35:26Z</time>
      </trkpt>
      <trkpt lat="45.04247" lon="5.83376">
        <ele>698</ele>
        <time>2017-12-16T17:35:34Z</time>
      </trkpt>
      <trkpt lat="45.04252" lon="5.83399">
        <ele>682</ele>
        <time>2017-12-16T17:35:52Z</time>
      </trkpt>
      <trkpt lat="45.04263" lon="5.83444">
        <ele>694</ele>
        <time>2017-12-16T17:36:02Z</time>
      </trkpt>
      <trkpt lat="45.04311" lon="5.83532">
        <ele>717</ele>
        <time>2017-12-16T17:36:09Z</time>
      </trkpt>
      <trkpt lat="45.04328" lon="5.83547">
        <ele>720</ele>
        <time>2017-12-16T17:36:21Z</time>
      </trkpt>
      <trkpt lat="45.04347" lon="5.83551">
        <ele>704</ele>
        <time>2017-12-16T17:36:37Z</time>
      </trkpt>
      <trkpt lat="45.04369" lon="5.8354">
        <ele>698</ele>
        <time>2017-12-16T17:36:48Z</time>
      </trkpt>
      <trkpt lat="45.04386" lon="5.83541">
        <ele>697</ele>
        <time>2017-12-16T17:36:59Z</time>
      </trkpt>
      <trkpt lat="45.04391" lon="5.83551">
        <ele>699</ele>
        <time>2017-12-16T17:37:17Z</time>
      </trkpt>
      <trkpt lat="45.04385" lon="5.83561">
        <ele>702</ele>
        <time>2017-12-16T17:37:30Z</time>
      </trkpt>
      <trkpt lat="45.04366" lon="5.83561">
        <ele>704</ele>
        <time>2017-12-16T17:37:42Z</time>
      </trkpt>
      <trkpt lat="45.0432" lon="5.83572">
        <ele>726</ele>
        <time>2017-12-16T17:37:57Z</time>
      </trkpt>
      <trkpt lat="45.04307" lon="5.83566">
        <ele>727</ele>
        <time>2017-12-16T17:37:59Z</time>
      </trkpt>
      <trkpt lat="45.04292" lon="5.83545">
        <ele>725</ele>
        <time>2017-12-16T17:38:08Z</time>
      </trkpt>
      <trkpt lat="45.04258" lon="5.8351">
        <ele>724</ele>
        <time>2017-12-16T17:38:19Z</time>
      </trkpt>
      <trkpt lat="45.04214" lon="5.8345">
        <ele>731</ele>
        <time>2017-12-16T17:38:26Z</time>
      </trkpt>
      <trkpt lat="45.04188" lon="5.83417">
        <ele>735</ele>
        <time>2017-12-16T17:38:34Z</time>
      </trkpt>
      <trkpt lat="45.04165" lon="5.83401">
        <ele>740</ele>
        <time>2017-12-16T17:38:38Z</time>
      </trkpt>
      <trkpt lat="45.04123" lon="5.83381">
        <ele>744</ele>
        <time>2017-12-16T17:38:44Z</time>
      </trkpt>
      <trkpt lat="45.04108" lon="5.83366">
        <ele>744</ele>
        <time>2017-12-16T17:38:59Z</time>
      </trkpt>
      <trkpt lat="45.04093" lon="5.83342">
        <ele>744</ele>
        <time>2017-12-16T17:39:15Z</time>
      </trkpt>
      <trkpt lat="45.04042" lon="5.83293">
        <ele>756</ele>
        <time>2017-12-16T17:39:29Z</time>
      </trkpt>
      <trkpt lat="45.04027" lon="5.83271">
        <ele>758</ele>
        <time>2017-12-16T17:39:48Z</time>
      </trkpt>
      <trkpt lat="45.04014" lon="5.83235">
        <ele>747</ele>
        <time>2017-12-16T17:39:55Z</time>
      </trkpt>
      <trkpt lat="45.03997" lon="5.83217">
        <ele>767</ele>
        <time>2017-12-16T17:40:01Z</time>
      </trkpt>
      <trkpt lat="45.03924" lon="5.83182">
        <ele>772</ele>
        <time>2017-12-16T17:40:20Z</time>
      </trkpt>
      <trkpt lat="45.03875" lon="5.83148">
        <ele>776</ele>
        <time>2017-12-16T17:40:24Z</time>
      </trkpt>
      <trkpt lat="45.0383" lon="5.83091">
        <ele>783</ele>
        <time>2017-12-16T17:40:26Z</time>
      </trkpt>
      <trkpt lat="45.03763" lon="5.83056">
        <ele>785</ele>
        <time>2017-12-16T17:40:38Z</time>
      </trkpt>
      <trkpt lat="45.03711" lon="5.83017">
        <ele>803</ele>
        <time>2017-12-16T17:40:47Z</time>
      </trkpt>
      <trkpt lat="45.03667" lon="5.82988">
        <ele>798</ele>
        <time>2017-12-16T17:40:55Z</time>
      </trkpt>
      <trkpt lat="45.03651" lon="5.82966">
        <ele>806</ele>
        <time>2017-12-16T17:41:14Z</time>
      </trkpt>
      <trkpt lat="45.03631" lon="5.82947">
        <ele>805</ele>
        <time>2017-12-16T17:41:16Z</time>
      </trkpt>
      <trkpt lat="45.03603" lon="5.8293">
        <ele>807</ele>
        <time>2017-12-16T17:41:24Z</time>
      </trkpt>
      <trkpt lat="45.03569" lon="5.82914">
        <ele>806</ele>
        <time>2017-12-16T17:41:33Z</time>
      </trkpt>
      <trkpt lat="45.03548" lon="5.829">
        <ele>809</ele>
        <time>2017-12-16T17:41:51Z</time>
      </trkpt>
      <trkpt lat="45.03521" lon="5.82873">
        <ele>809</ele>
        <time>2017-12-16T17:41:58Z</time>
      </trkpt>
      <trkpt lat="45.03497" lon="5.8286">
        <ele>821</ele>
        <time>2017-12-16T17:42:15Z</time>
      </trkpt>
      <trkpt lat="45.03482" lon="5.82828">
        <ele>801</ele>
        <time>2017-12-16T17:42:27Z</time>
      </trkpt>
      <trkpt lat="45.03475" lon="5.82821">
        <ele>801</ele>
        <time>2017-12-16T17:42:39Z</time>
      </trkpt>
      <trkpt lat="45.03471" lon="5.82823">
        <ele>802</ele>
        <time>2017-12-16T17:42:57Z</time>
      </trkpt>
      <trkpt lat="45.03467" lon="5.82834">
        <ele>822</ele>
        <time>2017-12-16T17:43:05Z</time>
      </trkpt>
      <trkpt lat="45.03471" lon="5.82849">
        <ele>824</ele>
        <time>2017-12-16T17:43:22Z</time>
      </trkpt>
      <trkpt lat="45.03486" lon="5.82865">
        <ele>825</ele>
        <time>2017-12-16T17:43:40Z</time>
      </trkpt>
      <trkpt lat="45.03522" lon="5.82895">
        <ele>814</ele>
        <time>2017-12-16T17:43:43Z</time>
      </trkpt>
      <trkpt lat="45.03535" lon="5.82914">
        <ele>814</ele>
        <time>2017-12-16T17:44:00Z</time>
      </trkpt>
      <trkpt lat="45.03556" lon="5.82934">
        <ele>829</ele>
        <time>2017-12-16T17:44:16Z</time>
      </trkpt>
      <trkpt lat="45.03604" lon="5.82972">
        <ele>815</ele>
        <time>2017-12-16T17:44:28Z</time>
      </trkpt>
      <trkpt lat="45.03624" lon="5.83001">
        <ele>834</ele>
        <time>2017-12-16T17:44:48Z</time>
      </trkpt>
      <trkpt lat="45.0364" lon="5.83034">
        <ele>836</ele>
        <time>2017-12-16T17:44:51Z</time>
      </trkpt>
      <trkpt lat="45.03715" lon="5.83127">
        <ele>840</ele>
        <time>2017-12-16T17:45:09Z</time>
      </trkpt>
      <trkpt lat="45.03748" lon="5.8316">
        <ele>841</ele>
        <time>2017-12-16T17:45:12Z</time>
      </trkpt>
      <trkpt lat="45.03771" lon="5.83178">
        <ele>840</ele>
        <time>2017-12-16T17:45:31Z</time>
      </trkpt>
      <trkpt lat="45.03801" lon="5.83226">
        <ele>843</ele>
        <time>2017-12-16T17:45:36Z</time>
      </trkpt>
      <trkpt lat="45.03841" lon="5.83284">
        <ele>847</ele>
        <time>2017-12-16T17:45:40Z</time>
      </trkpt>
      <trkpt lat="45.03896" lon="5.83361">
        <ele>874</ele>
        <time>2017-12-16T17:45:47Z</time>
      </trkpt>
      <trkpt lat="45.0396" lon="5.83437">
        <ele>877</ele>
        <time>2017-12-16T17:45:59Z</time>
      </trkpt>
      <trkpt lat="45.03981" lon="5.83469">
        <ele>881</ele>
        <time>2017-12-16T17:46:19Z</time>
      </trkpt>
      <trkpt lat="45.04001" lon="5.83508">
        <ele>879</ele>
        <time>2017-12-16T17:46:27Z</time>
      </trkpt>
      <trkpt lat="45.04047" lon="5.83562">
        <ele>877</ele>
        <time>2017-12-16T17:46:43Z</time>
      </trkpt>
      <trkpt lat="45.04109" lon="5.83635">
        <ele>871</ele>
        <time>2017-12-16T17:46:45Z</time>
      </trkpt>
      <trkpt lat="45.04148" lon="5.83716">
        <ele>901</ele>
        <time>2017-12-16T17:46:50Z</time>
      </trkpt>
      <trkpt lat="45.04164" lon="5.83737">
        <ele>902</ele>
        <time>2017-12-16T17:47:07Z</time>
      </trkpt>
      <trkpt lat="45.04204" lon="5.83758">
        <ele>894</ele>
        <time>2017-12-16T17:47:11Z</time>
      </trkpt>
      <trkpt lat="45.04212" lon="5.83782">
        <ele>896</ele>
        <time>2017-12-16T17:47:20Z</time>
      </trkpt>
      <trkpt lat="45.04217" lon="5.83815">
        <ele>902</ele>
        <time>2017-12-16T17:47:38Z</time>
      </trkpt>
      <trkpt lat="45.04233" lon="5.83831">
        <ele>900</ele>
        <time>2017-12-16T17:47:45Z</time>
      </trkpt>
      <trkpt lat="45.0426" lon="5.83846">
        <ele>898</ele>
        <time>2017-12-16T17:48:02Z</time>
      </trkpt>
      <trkpt lat="45.04284" lon="5.83876">
        <ele>900</ele>
        <time>2017-12-16T17:48:07Z</time>
      </trkpt>
      <trkpt lat="45.04312" lon="5.8392">
        <ele>915</ele>
        <time>2017-12-16T17:48:23Z</time>
      </trkpt>
      <trkpt lat="45.04331" lon="5.83938">
        <ele>915</ele>
        <time>2017-12-16T17:48:38Z</time>
      </trkpt>
      <trkpt lat="45.04352" lon="5.83951">
        <ele>900</ele>
        <time>2017-12-16T17:48:45Z</time>
      </trkpt>
      <trkpt lat="45.04379" lon="5.83981">
        <ele>901</ele>
        <time>2017-12-16T17:48:48Z</time>
      </trkpt>
      <trkpt lat="45.04416" lon="5.84037">
        <ele>926</ele>
        <time>2017-12-16T17:49:03Z</time>
      </trkpt>
      <trkpt lat="45.0445" lon="5.8411">
        <ele>932</ele>
        <time>2017-12-16T17:49:12Z</time>
      </trkpt>
      <trkpt lat="45.04466" lon="5.84134">
        <ele>933</ele>
        <time>2017-12-16T17:49:21Z</time>
      </trkpt>
      <trkpt lat="45.04485" lon="5.84146">
        <ele>932</ele>
        <time>2017-12-16T17:49:41Z</time>
      </trkpt>
      <trkpt lat="45.04503" lon="5.84155">
        <ele>919</ele>
        <time>2017-12-16T17:50:01Z</time>
      </trkpt>
      <trkpt lat="45.04515" lon="5.84174">
        <ele>932</ele>
        <time>2017-12-16T17:50:18Z</time>
      </trkpt>
      <trkpt lat="45.04529" lon="5.842">
        <ele>934</ele>
        <time>2017-12-16T17:50:38Z</time>
      </trkpt>
      <trkpt lat="45.04549" lon="5.84216">
        <ele>934</ele>
        <time>2017-12-16T17:50:41Z</time>
      </trkpt>
      <trkpt lat="45.04573" lon="5.84226">
        <ele>933</ele>
        <time>2017-12-16T17:50:59Z</time>
      </trkpt>
      <trkpt lat="45.04582" lon="5.84235">
        <ele>934</ele>
        <time>2017-12-16T17:51:18Z</time>
      </trkpt>
      <trkpt lat="45.04606" lon="5.84286">
        <ele>935</ele>
        <time>2017-12-16T17:51:24Z</time>
      </trkpt>
      <trkpt lat="45.04669" lon="5.84401">
        <ele>940</ele>
        <time>2017-12-16T17:51:29Z</time>
      </trkpt>
      <trkpt lat="45.04688" lon="5.8442">
        <ele>948</ele>
        <time>2017-12-16T17:51:45Z</time>
      </trkpt>
      <trkpt lat="45.04715" lon="5.84421">
        <ele>946</ele>
        <time>2017-12-16T17:52:02Z</time>
      </trkpt>
      <trkpt lat="45.04736" lon="5.84426">
        <ele>943</ele>
        <time>2017-12-16T17:52:06Z</time>
      </trkpt>
      <trkpt lat="45.04763" lon="5.84428">
        <ele>939</ele>
        <time>2017-12-16T17:52:12Z</time>
      </trkpt>
      <trkpt lat="45.04779" lon="5.84448">
        <ele>941</ele>
        <time>2017-12-16T17:52:28Z</time>
      </trkpt>
      <trkpt lat="45.04792" lon="5.84481">
        <ele>943</ele>
        <time>2017-12-16T17:52:32Z</time>
      </trkpt>
      <trkpt lat="45.04844" lon="5.8458">
        <ele>950</ele>
        <time>2017-12-16T17:52:49Z</time>
      </trkpt>
      <trkpt lat="45.04842" lon="5.84598">
        <ele>952</ele>
        <time>2017-12-16T17:52:56Z</time>
      </trkpt>
      <trkpt lat="45.04834" lon="5.84602">
        <ele>953</ele>
        <time>2017-12-16T17:53:00Z</time>
      </trkpt>
      <trkpt lat="45.04827" lon="5.84597">
        <ele>963</ele>
        <time>2017-12-16T17:53:16Z</time>
      </trkpt>
      <trkpt lat="45.04816" lon="5.84565">
        <ele>955</ele>
        <time>2017-12-16T17:53:21Z</time>
      </trkpt>
      <trkpt lat="45.04799" lon="5.84532">
        <ele>954</ele>
        <time>2017-12-16T17:53:32Z</time>
      </trkpt>
      <trkpt lat="45.04783" lon="5.84527">
        <ele>954</ele>
        <time>2017-12-16T17:53:52Z</time>
      </trkpt>
      <trkpt lat="45.0476" lon="5.84541">
        <ele>957</ele>
        <time>2017-12-16T17:53:55Z</time>
      </trkpt>
      <trkpt lat="45.0474" lon="5.84547">
        <ele>969</ele>
        <time>2017-12-16T17:54:05Z</time>
      </trkpt>
      <trkpt lat="45.04732" lon="5.84547">
        <ele>969</ele>
        <time>2017-12-16T17:54:14Z</time>
      </trkpt>
      <trkpt lat="45.04704" lon="5.84534">
        <ele>971</ele>
        <time>2017-12-16T17:54:30Z</time>
      </trkpt>
      <trkpt lat="45.04674" lon="5.84515">
        <ele>970</ele>
        <time>2017-12-16T17:54:40Z</time>
      </trkpt>
      <trkpt lat="45.04644" lon="5.84506">
        <ele>985</ele>
        <time>2017-12-16T17:54:43Z</time>
      </trkpt>
      <trkpt lat="45.04623" lon="5.84485">
        <ele>975</ele>
        <time>2017-12-16T17:55:00Z</time>
      </trkpt>
      <trkpt lat="45.04608" lon="5.84463">
        <ele>975</ele>
        <time>2017-12-16T17:55:16Z</time>
      </trkpt>
      <trkpt lat="45.04579" lon="5.84434">
        <ele>988</ele>
        <time>2017-12-16T17:55:36Z</time>
      </trkpt>
      <trkpt lat="45.04565" lon="5.84408">
        <ele>978</ele>
        <time>2017-12-16T17:55:39Z</time>
      </trkpt>
      <trkpt lat="45.04541" lon="5.84389">
        <ele>981</ele>
        <time>2017-12-16T17:55:50Z</time>
      </trkpt>
      <trkpt lat="45.04504" lon="5.84375">
        <ele>984</ele>
        <time>2017-12-16T17:56:05Z</time>
      </trkpt>
      <trkpt lat="45.04497" lon="5.84365">
        <ele>1002</ele>
        <time>2017-12-16T17:56:18Z</time>
      </trkpt>
      <trkpt lat="45.04489" lon="5.84337">
        <ele>992</ele>
        <time>2017-12-16T17:56:37Z</time>
      </trkpt>
      <trkpt lat="45.04475" lon="5.84293">
        <ele>986</ele>
        <time>2017-12-16T17:56:55Z</time>
      </trkpt>
      <trkpt lat="45.04451" lon="5.84265">
        <ele>988</ele>
        <time>2017-12-16T17:57:01Z</time>
      </trkpt>
      <trkpt lat="45.0444" lon="5.84262">
        <ele>991</ele>
        <time>2017-12-16T17:57:07Z</time>
      </trkpt>
      <trkpt lat="45.04421" lon="5.84266">
        <ele>994</ele>
        <time>2017-12-16T17:57:10Z</time>
      </trkpt>
      <trkpt lat="45.04406" lon="5.84266">
        <ele>1011</ele>
        <time>2017-12-16T17:57:16Z</time>
      </trkpt>
      <trkpt lat="45.04394" lon="5.8426">
        <ele>1013</ele>
        <time>2017-12-16T17:57:23Z</time>
      </trkpt>
      <trkpt lat="45.04373" lon="5.84243">
        <ele>1004</ele>
        <time>2017-12-16T17:57:30Z</time>
      </trkpt>
      <trkpt lat="45.04353" lon="5.84228">
        <ele>1007</ele>
        <time>2017-12-16T17:57:34Z</time>
      </trkpt>
      <trkpt lat="45.04335" lon="5.84182">
        <ele>1002</ele>
        <time>2017-12-16T17:57:42Z</time>
      </trkpt>
      <trkpt lat="45.04327" lon="5.84171">
        <ele>1010</ele>
        <time>2017-12-16T17:57:51Z</time>
      </trkpt>
      <trkpt lat="45.04288" lon="5.84143">
        <ele>1003</ele>
        <time>2017-12-16T17:58:07Z</time>
      </trkpt>
      <trkpt lat="45.04266" lon="5.84125">
        <ele>1002</ele>
        <time>2017-12-16T17:58:18Z</time>
      </trkpt>
      <trkpt lat="45.04241" lon="5.84121">
        <ele>1018</ele>
        <time>2017-12-16T17:58:25Z</time>
      </trkpt>
      <trkpt lat="45.0423" lon="5.84119">
        <ele>1019</ele>
        <time>2017-12-16T17:58:40Z</time>
      </trkpt>
      <trkpt lat="45.04216" lon="5.84104">
        <ele>1018</ele>
        <time>2017-12-16T17:59:00Z</time>
      </trkpt>
      <trkpt lat="45.04198" lon="5.84077">
        <ele>1003</ele>
        <time>2017-12-16T17:59:07Z</time>
      </trkpt>
      <trkpt lat="45.0419" lon="5.84075">
        <ele>1006</ele>
        <time>2017-12-16T17:59:12Z</time>
      </trkpt>
      <trkpt lat="45.04181" lon="5.84086">
        <ele>1023</ele>
        <time>2017-12-16T17:59:28Z</time>
      </trkpt>
      <trkpt lat="45.04183" lon="5.84103">
        <ele>1023</ele>
        <time>2017-12-16T17:59:32Z</time>
      </trkpt>
      <trkpt lat="45.04199" lon="5.84118">
        <ele>1023</ele>
        <time>2017-12-16T17:59:46Z</time>
      </trkpt>
      <trkpt lat="45.04241" lon="5.84127">
        <ele>1019</ele>
        <time>2017-12-16T17:59:58Z</time>
      </trkpt>
      <trkpt lat="45.04256" lon="5.8413">
        <ele>1004</ele>
        <time>2017-12-16T18:00:09Z</time>
      </trkpt>
      <trkpt lat="45.04265" lon="5.84138">
        <ele>1006</ele>
        <time>2017-12-16T18:00:26Z</time>
      </trkpt>
      <trkpt lat="45.04281" lon="5.84165">
        <ele>1008</ele>
        <time>2017-12-16T18:00:41Z</time>
      </trkpt>
      <trkpt lat="45.04306" lon="5.84187">
        <ele>1022</ele>
        <time>2017-12-16T18:01:00Z</time>
      </trkpt>
      <trkpt lat="45.04316" lon="5.84207">
        <ele>1025</ele>
        <time>2017-12-16T18:01:15Z</time>
      </trkpt>
      <trkpt lat="45.04313" lon="5.84242">
        <ele>1029</ele>
        <time>2017-12-16T18:01:20Z</time>
      </trkpt>
      <trkpt lat="45.04321" lon="5.84269">
        <ele>1044</ele>
        <time>2017-12-16T18:01:29Z</time>
      </trkpt>
      <trkpt lat="45.04361" lon="5.84346">
        <ele>1046</ele>
        <time>2017-12-16T18:01:42Z</time>
      </trkpt>
      <trkpt lat="45.04394" lon="5.84396">
        <ele>1045</ele>
        <time>2017-12-16T18:01:56Z</time>
      </trkpt>
      <trkpt lat="45.04438" lon="5.84485">
        <ele>1043</ele>
        <time>2017-12-16T18:02:02Z</time>
      </trkpt>
      <trkpt lat="45.04481" lon="5.84581">
        <ele>1059</ele>
        <time>2017-12-16T18:02:09Z</time>
      </trkpt>
      <trkpt lat="45.04507" lon="5.84625">
        <ele>1062</ele>
        <time>2017-12-16T18:02:20Z</time>
      </trkpt>
      <trkpt lat="45.04524" lon="5.84639">
        <ele>1063</ele>
        <time>2017-12-16T18:02:22Z</time>
      </trkpt>
      <trkpt lat="45.04563" lon="5.84661">
        <ele>1059</ele>
        <time>2017-12-16T18:02:40Z</time>
      </trkpt>
      <trkpt lat="45.0459" lon="5.84666">
        <ele>1052</ele>
        <time>2017-12-16T18:02:45Z</time>
      </trkpt>
      <trkpt lat="45.046" lon="5.84669">
        <ele>1058</ele>
        <time>2017-12-16T18:02:49Z</time>
      </trkpt>
      <trkpt lat="45.04607" lon="5.84676">
        <ele>1057</ele>
        <time>2017-12-16T18:02:57Z</time>
      </trkpt>
      <trkpt lat="45.04617" lon="5.84709">
        <ele>1060</ele>
        <time>2017-12-16T18:03:05Z</time>
      </trkpt>
      <trkpt lat="45.04626" lon="5.84757">
        <ele>1080</ele>
        <time>2017-12-16T18:03:16Z</time>
      </trkpt>
      <trkpt lat="45.04633" lon="5.84771">
        <ele>1079</ele>
        <time>2017-12-16T18:03:22Z</time>
      </trkpt>
      <trkpt lat="45.04655" lon="5.848">
        <ele>1081</ele>
        <time>2017-12-16T18:03:24Z</time>
      </trkpt>
      <trkpt lat="45.04684" lon="5.84863">
        <ele>1076</ele>
        <time>2017-12-16T18:03:30Z</time>
      </trkpt>
      <trkpt lat="45.04703" lon="5.84898">
        <ele>1076</ele>
        <time>2017-12-16T18:03:48Z</time>
      </trkpt>
      <trkpt lat="45.04708" lon="5.84916">
        <ele>1076</ele>
        <time>2017-12-16T18:04:00Z</time>
      </trkpt>
      <trkpt lat="45.04705" lon="5.84926">
        <ele>1083</ele>
        <time>2017-12-16T18:04:14Z</time>
      </trkpt>
      <trkpt lat="45.04693" lon="5.84941">
        <ele>1086</ele>
        <time>2017-12-16T18:04:26Z</time>
      </trkpt>
      <trkpt lat="45.04687" lon="5.84942">
        <ele>1087</ele>
        <time>2017-12-16T18:04:36Z</time>
      </trkpt>
      <trkpt lat="45.04678" lon="5.84937">
        <ele>1088</ele>
        <time>2017-12-16T18:04:41Z</time>
      </trkpt>
      <trkpt lat="45.04652" lon="5.84893">
        <ele>1100</ele>
        <time>2017-12-16T18:04:50Z</time>
      </trkpt>
      <trkpt lat="45.0463" lon="5.84854">
        <ele>1102</ele>
        <time>2017-12-16T18:05:06Z</time>
      </trkpt>
      <trkpt lat="45.04595" lon="5.84805">
        <ele>1092</ele>
        <time>2017-12-16T18:05:19Z</time>
      </trkpt>
      <trkpt lat="45.04571" lon="5.84788">
        <ele>1108</ele>
        <time>2017-12-16T18:05:28Z</time>
      </trkpt>
      <trkpt lat="45.04496" lon="5.84758">
        <ele>1122</ele>
        <time>2017-12-16T18:05:42Z</time>
      </trkpt>
      <trkpt lat="45.04463" lon="5.84744">
        <ele>1120</ele>
        <time>2017-12-16T18:05:57Z</time>
      </trkpt>
      <trkpt lat="45.04443" lon="5.84725">
        <ele>1123</ele>
        <time>2017-12-16T18:06:12Z</time>
      </trkpt>
      <trkpt lat="45.04416" lon="5.84691">
        <ele>1137</ele>
        <time>2017-12-16T18:06:15Z</time>
      </trkpt>
      <trkpt lat="45.0438" lon="5.84662">
        <ele>1125</ele>
        <time>2017-12-16T18:06:32Z</time>
      </trkpt>
      <trkpt lat="45.04343" lon="5.8463">
        <ele>1127</ele>
        <time>2017-12-16T18:06:51Z</time>
      </trkpt>
      <trkpt lat="45.04289" lon="5.84598">
        <ele>1146</ele>
        <time>2017-12-16T18:06:54Z</time>
      </trkpt>
      <trkpt lat="45.0424" lon="5.84558">
        <ele>1148</ele>
        <time>2017-12-16T18:07:07Z</time>
      </trkpt>
      <trkpt lat="45.04184" lon="5.84511">
        <ele>1151</ele>
        <time>2017-12-16T18:07:14Z</time>
      </trkpt>
      <trkpt lat="45.04134" lon="5.84453">
        <ele>1156</ele>
        <time>2017-12-16T18:07:22Z</time>
      </trkpt>
      <trkpt lat="45.04106" lon="5.84403">
        <ele>1145</ele>
        <time>2017-12-16T18:07:36Z</time>
      </trkpt>
      <trkpt lat="45.04096" lon="5.84391">
        <ele>1144</ele>
        <time>2017-12-16T18:07:49Z</time>
      </trkpt>
      <trkpt lat="45.0409" lon="5.84391">
        <ele>1145</ele>
        <time>2017-12-16T18:07:54Z</time>
      </trkpt>
      <trkpt lat="45.04086" lon="5.84402">
        <ele>1150</ele>
        <time>2017-12-16T18:08:06Z</time>
      </trkpt>
      <trkpt lat="45.04093" lon="5.84417">
        <ele>1160</ele>
        <time>2017-12-16T18:08:20Z</time>
      </trkpt>
      <trkpt lat="45.04114" lon="5.84446">
        <ele>1158</ele>
        <time>2017-12-16T18:08:34Z</time>
      </trkpt>
      <trkpt lat="45.0412" lon="5.84481">
        <ele>1161</ele>
        <time>2017-12-16T18:08:47Z</time>
      </trkpt>
      <trkpt lat="45.04127" lon="5.845">
        <ele>1160</ele>
        <time>2017-12-16T18:08:51Z</time>
      </trkpt>
      <trkpt lat="45.04196" lon="5.84607">
        <ele>1178</ele>
        <time>2017-12-16T18:09:06Z</time>
      </trkpt>
      <trkpt lat="45.04214" lon="5.84632">
        <ele>1179</ele>
        <time>2017-12-16T18:09:08Z</time>
      </trkpt>
      <trkpt lat="45.04243" lon="5.84661">
        <ele>1179</ele>
        <time>2017-12-16T18:09:19Z</time>
      </trkpt>
      <trkpt lat="45.04269" lon="5.84678">
        <ele>1178</ele>
        <time>2017-12-16T18:09:33Z</time>
      </trkpt>
      <trkpt lat="45.04286" lon="5.84714">
        <ele>1180</ele>
        <time>2017-12-16T18:09:40Z</time>
      </trkpt>
      <trkpt lat="45.04319" lon="5.84752">
        <ele>1190</ele>
        <time>2017-12-16T18:09:50Z</time>
      </trkpt>
      <trkpt lat="45.04368" lon="5.84846">
        <ele>1202</ele>
        <time>2017-12-16T18:10:04Z</time>
      </trkpt>
      <trkpt lat="45.04376" lon="5.84867">
        <ele>1203</ele>
        <time>2017-12-16T18:10:17Z</time>
      </trkpt>
      <trkpt lat="45.0439" lon="5.84887">
        <ele>1203</ele>
        <time>2017-12-16T18:10:29Z</time>
      </trkpt>
      <trkpt lat="45.04405" lon="5.84901">
        <ele>1201</ele>
        <time>2017-12-16T18:10:43Z</time>
      </trkpt>
      <trkpt lat="45.04424" lon="5.8493">
        <ele>1198</ele>
        <time>2017-12-16T18:10:56Z</time>
      </trkpt>
      <trkpt lat="45.04498" lon="5.8505">
        <ele>1226</ele>
        <time>2017-12-16T18:11:07Z</time>
      </trkpt>
      <trkpt lat="45.04558" lon="5.8514">
        <ele>1219</ele>
        <time>2017-12-16T18:11:18Z</time>
      </trkpt>
      <trkpt lat="45.04587" lon="5.85171">
        <ele>1211</ele>
        <time>2017-12-16T18:11:21Z</time>
      </trkpt>
      <trkpt lat="45.04584" lon="5.85184">
        <ele>1209</ele>
        <time>2017-12-16T18:11:29Z</time>
      </trkpt>
      <trkpt lat="45.04577" lon="5.85187">
        <ele>1234</ele>
        <time>2017-12-16T18:11:42Z</time>
      </trkpt>
      <trkpt lat="45.04569" lon="5.8518">
        <ele>1234</ele>
        <time>2017-12-16T18:11:51Z</time>
      </trkpt>
      <trkpt lat="45.04554" lon="5.85153">
        <ele>1221</ele>
        <time>2017-12-16T18:12:00Z</time>
      </trkpt>
      <trkpt lat="45.04517" lon="5.85102">
        <ele>1223</ele>
        <time>2017-12-16T18:12:06Z</time>
      </trkpt>
      <trkpt lat="45.04474" lon="5.85055">
        <ele>1231</ele>
        <time>2017-12-16T18:12:18Z</time>
      </trkpt>
      <trkpt lat="45.04363" lon="5.84942">
        <ele>1237</ele>
        <time>2017-12-16T18:12:30Z</time>
      </trkpt>
      <trkpt lat="45.04337" lon="5.84926">
        <ele>1242</ele>
        <time>2017-12-16T18:12:42Z</time>
      </trkpt>
      <trkpt lat="45.04327" lon="5.84916">
        <ele>1245</ele>
        <time>2017-12-16T18:12:51Z</time>
      </trkpt>
      <trkpt lat="45.04312" lon="5.84878">
        <ele>1243</ele>
        <time>2017-12-16T18:13:00Z</time>
      </trkpt>
      <trkpt lat="45.043" lon="5.84865">
        <ele>1243</ele>
        <time>2017-12-16T18:13:11Z</time>
      </trkpt>
      <trkpt lat="45.04269" lon="5.84844">
        <ele>1246</ele>
        <time>2017-12-16T18:13:18Z</time>
      </trkpt>
      <trkpt lat="45.04251" lon="5.84829">
        <ele>1241</ele>
        <time>2017-12-16T18:13:38Z</time>
      </trkpt>
      <trkpt lat="45.04236" lon="5.84823">
        <ele>1246</ele>
        <time>2017-12-16T18:13:43Z</time>
      </trkpt>
      <trkpt lat="45.04201" lon="5.84821">
        <ele>1252</ele>
        <time>2017-12-16T18:13:55Z</time>
      </trkpt>
      <trkpt lat="45.0419" lon="5.84811">
        <ele>1253</ele>
        <time>2017-12-16T18:13:59Z</time>
      </trkpt>
      <trkpt lat="45.04166" lon="5.84771">
        <ele>1261</ele>
        <time>2017-12-16T18:14:09Z</time>
      </trkpt>
      <trkpt lat="45.04156" lon="5.84764">
        <ele>1260</ele>
        <time>2017-12-16T18:14:14Z</time>
      </trkpt>
      <trkpt lat="45.04074" lon="5.8473">
        <ele>1268</ele>
        <time>2017-12-16T18:14:33Z</time>
      </trkpt>
      <trkpt lat="45.04039" lon="5.84709">
        <ele>1267</ele>
        <time>2017-12-16T18:14:48Z</time>
      </trkpt>
      <trkpt lat="45.04004" lon="5.84696">
        <ele>1266</ele>
        <time>2017-12-16T18:14:55Z</time>
      </trkpt>
      <trkpt lat="45.0396" lon="5.84694">
        <ele>1287</ele>
        <time>2017-12-16T18:14:57Z</time>
      </trkpt>
      <trkpt lat="45.0395" lon="5.84688">
        <ele>1288</ele>
        <time>2017-12-16T18:15:17Z</time>
      </trkpt>
      <trkpt lat="45.03937" lon="5.84658">
        <ele>1272</ele>
        <time>2017-12-16T18:15:22Z</time>
      </trkpt>
      <trkpt lat="45.03919" lon="5.84621">
        <ele>1266</ele>
        <time>2017-12-16T18:15:33Z</time>
      </trkpt>
      <trkpt lat="45.03904" lon="5.84605">
        <ele>1277</ele>
        <time>2017-12-16T18:15:48Z</time>
      </trkpt>
      <trkpt lat="45.03879" lon="5.84598">
        <ele>1281</ele>
        <time>2017-12-16T18:15:56Z</time>
      </trkpt>
      <trkpt lat="45.03858" lon="5.84597">
        <ele>1282</ele>
        <time>2017-12-16T18:15:59Z</time>
      </trkpt>
      <trkpt lat="45.03833" lon="5.8458">
        <ele>1277</ele>
        <time>2017-12-16T18:16:14Z</time>
      </trkpt>
      <trkpt lat="45.03824" lon="5.84572">
        <ele>1271</ele>
        <time>2017-12-16T18:16:17Z</time>
      </trkpt>
      <trkpt lat="45.03809" lon="5.84571">
        <ele>1268</ele>
        <time>2017-12-16T18:16:26Z</time>
      </trkpt>
      <trkpt lat="45.03797" lon="5.84576">
        <ele>1267</ele>
        <time>2017-12-16T18:16:42Z</time>
      </trkpt>
      <trkpt lat="45.03754" lon="5.8461">
        <ele>1288</ele>
        <time>2017-12-16T18:16:53Z</time>
      </trkpt>
      <trkpt lat="45.03714" lon="5.84635">
        <ele>1289</ele>
        <time>2017-12-16T18:17:12Z</time>
      </trkpt>
      <trkpt lat="45.03674" lon="5.84667">
        <ele>1302</ele>
        <time>2017-12-16T18:17:30Z</time>
      </trkpt>
      <trkpt lat="45.03645" lon="5.84689">
        <ele>1304</ele>
        <time>2017-12-16T18:17:38Z</time>
      </trkpt>
      <trkpt lat="45.03615" lon="5.84723">
        <ele>1307</ele>
        <time>2017-12-16T18:17:44Z</time>
      </trkpt>
      <trkpt lat="45.0359" lon="5.84747">
        <ele>1309</ele>
        <time>2017-12-16T18:17:49Z</time>
      </trkpt>
      <trkpt lat="45.03549" lon="5.84777">
        <ele>1321</ele>
        <time>2017-12-16T18:18:04Z</time>
      </trkpt>
      <trkpt lat="45.03535" lon="5.84783">
        <ele>1322</ele>
        <time>2017-12-16T18:18:15Z</time>
      </trkpt>
      <trkpt lat="45.03523" lon="5.84782">
        <ele>1322</ele>
        <time>2017-12-16T18:18:33Z</time>
      </trkpt>
      <trkpt lat="45.03479" lon="5.84761">
        <ele>1318</ele>
        <time>2017-12-16T18:18:53Z</time>
      </trkpt>
      <trkpt lat="45.0345" lon="5.8475">
        <ele>1320</ele>
        <time>2017-12-16T18:19:07Z</time>
      </trkpt>
      <trkpt lat="45.03433" lon="5.84756">
        <ele>1319</ele>
        <time>2017-12-16T18:19:11Z</time>
      </trkpt>
      <trkpt lat="45.03419" lon="5.8477">
        <ele>1320</ele>
        <time>2017-12-16T18:19:22Z</time>
      </trkpt>
      <trkpt lat="45.03403" lon="5.84799">
        <ele>1327</ele>
        <time>2017-12-16T18:19:40Z</time>
      </trkpt>
      <trkpt lat="45.0339" lon="5.84844">
        <ele>1332</ele>
        <time>2017-12-16T18:19:50Z</time>
      </trkpt>
      <trkpt lat="45.03384" lon="5.84902">
        <ele>1335</ele>
        <time>2017-12-16T18:20:08Z</time>
      </trkpt>
      <trkpt lat="45.03373" lon="5.84931">
        <ele>1339</ele>
        <time>2017-12-16T18:20:27Z</time>
      </trkpt>
      <trkpt lat="45.0334" lon="5.84963">
        <ele>1339</ele>
        <time>2017-12-16T18:20:32Z</time>
      </trkpt>
      <trkpt lat="45.03281" lon="5.85009">
        <ele>1345</ele>
        <time>2017-12-16T18:20:34Z</time>
      </trkpt>
      <trkpt lat="45.03251" lon="5.8505">
        <ele>1346</ele>
        <time>2017-12-16T18:20:53Z</time>
      </trkpt>
      <trkpt lat="45.03207" lon="5.85108">
        <ele>1348</ele>
        <time>2017-12-16T18:21:07Z</time>
      </trkpt>
      <trkpt lat="45.03186" lon="5.85127">
        <ele>1348</ele>
        <time>2017-12-16T18:21:15Z</time>
      </trkpt>
      <trkpt lat="45.03175" lon="5.85156">
        <ele>1346</ele>
        <time>2017-12-16T18:21:34Z</time>
      </trkpt>
      <trkpt lat="45.03169" lon="5.8518">
        <ele>1348</ele>
        <time>2017-12-16T18:21:46Z</time>
      </trkpt>
      <trkpt lat="45.0317" lon="5.85203">
        <ele>1351</ele>
        <time>2017-12-16T18:21:53Z</time>
      </trkpt>
      <trkpt lat="45.03168" lon="5.8522">
        <ele>1352</ele>
        <time>2017-12-16T18:22:09Z</time>
      </trkpt>
      <trkpt lat="45.03159" lon="5.85256">
        <ele>1351</ele>
        <time>2017-12-16T18:22:23Z</time>
      </trkpt>
      <trkpt lat="45.03136" lon="5.85319">
        <ele>1356</ele>
        <time>2017-12-16T18:22:28Z</time>
      </trkpt>
      <trkpt lat="45.03103" lon="5.85392">
        <ele>1360</ele>
        <time>2017-12-16T18:22:40Z</time>
      </trkpt>
      <trkpt lat="45.03093" lon="5.85409">
        <ele>1359</ele>
        <time>2017-12-16T18:22:47Z</time>
      </trkpt>
      <trkpt lat="45.03079" lon="5.85425">
        <ele>1357</ele>
        <time>2017-12-16T18:22:51Z</time>
      </trkpt>
      <trkpt lat="45.03036" lon="5.85469">
        <ele>1356</ele>
        <time>2017-12-16T18:23:08Z</time>
      </trkpt>
      <trkpt lat="45.03014" lon="5.85502">
        <ele>1357</ele>
        <time>2017-12-16T18:23:22Z</time>
      </trkpt>
      <trkpt lat="45.02996" lon="5.85551">
        <ele>1355</ele>
        <time>2017-12-16T18:23:38Z</time>
      </trkpt>
      <trkpt lat="45.02986" lon="5.85574">
        <ele>1356</ele>
        <time>2017-12-16T18:23:48Z</time>
      </trkpt>
      <trkpt lat="45.0297" lon="5.85587">
        <ele>1358</ele>
        <time>2017-12-16T18:23:51Z</time>
      </trkpt>
      <trkpt lat="45.02948" lon="5.856">
        <ele>1358</ele>
        <time>2017-12-16T18:24:08Z</time>
      </trkpt>
      <trkpt lat="45.02902" lon="5.85634">
        <ele>1356</ele>
        <time>2017-12-16T18:24:28Z</time>
      </trkpt>
      <trkpt lat="45.02852" lon="5.85682">
        <ele>1358</ele>
        <time>2017-12-16T18:24:40Z</time>
      </trkpt>
      <trkpt lat="45.02832" lon="5.85709">
        <ele>1358</ele>
        <time>2017-12-16T18:24:57Z</time>
      </trkpt>
      <trkpt lat="45.02792" lon="5.85774">
        <ele>1360</ele>
        <time>2017-12-16T18:25:06Z</time>
      </trkpt>
      <trkpt lat="45.02774" lon="5.85798">
        <ele>1360</ele>
        <time>2017-12-16T18:25:09Z</time>
      </trkpt>
      <trkpt lat="45.02766" lon="5.85804">
        <ele>1360</ele>
        <time>2017-12-16T18:25:12Z</time>
      </trkpt>
      <trkpt lat="45.02758" lon="5.85804">
        <ele>1359</ele>
        <time>2017-12-16T18:25:29Z</time>
      </trkpt>
      <trkpt lat="45.02719" lon="5.85805">
        <ele>1361</ele>
        <time>2017-12-16T18:25:42Z</time>
      </trkpt>
      <trkpt lat="45.02705" lon="5.85808">
        <ele>1362</ele>
        <time>2017-12-16T18:25:47Z</time>
      </trkpt>
      <trkpt lat="45.02697" lon="5.85814">
        <ele>1362</ele>
        <time>2017-12-16T18:26:04Z</time>
      </trkpt>
      <trkpt lat="45.02665" lon="5.85846">
        <ele>1365</ele>
        <time>2017-12-16T18:26:24Z</time>
      </trkpt>
      <trkpt lat="45.0262" lon="5.85894">
        <ele>1366</ele>
        <time>2017-12-16T18:26:34Z</time>
      </trkpt>
      <trkpt lat="45.02554" lon="5.85968">
        <ele>1369</ele>
        <time>2017-12-16T18:26:45Z</time>
      </trkpt>
      <trkpt lat="45.02535" lon="5.85992">
        <ele>1369</ele>
        <time>2017-12-16T18:26:59Z</time>
      </trkpt>
      <trkpt lat="45.02522" lon="5.86013">
        <ele>1368</ele>
        <time>2017-12-16T18:27:03Z</time>
      </trkpt>
      <trkpt lat="45.0249" lon="5.86088">
        <ele>1370</ele>
        <time>2017-12-16T18:27:22Z</time>
      </trkpt>
      <trkpt lat="45.02468" lon="5.86121">
        <ele>1373</ele>
        <time>2017-12-16T18:27:30Z</time>
      </trkpt>
      <trkpt lat="45.02394" lon="5.86236">
        <ele>1374</ele>
        <time>2017-12-16T18:27:48Z</time>
      </trkpt>
      <trkpt lat="45.02366" lon="5.86273">
        <ele>1375</ele>
        <time>2017-12-16T18:28:07Z</time>
      </trkpt>
      <trkpt lat="45.02349" lon="5.86305">
        <ele>1375</ele>
        <time>2017-12-16T18:28:15Z</time>
      </trkpt>
      <trkpt lat="45.02338" lon="5.86325">
        <ele>1374</ele>
        <time>2017-12-16T18:28:22Z</time>
      </trkpt>
      <trkpt lat="45.02324" lon="5.86351">
        <ele>1373</ele>
        <time>2017-12-16T18:28:28Z</time>
      </trkpt>
      <trkpt lat="45.02308" lon="5.86373">
        <ele>1373</ele>
        <time>2017-12-16T18:28:37Z</time>
      </trkpt>
      <trkpt lat="45.023" lon="5.86386">
        <ele>1373</ele>
        <time>2017-12-16T18:28:47Z</time>
      </trkpt>
      <trkpt lat="45.02294" lon="5.86396">
        <ele>1372</ele>
        <time>2017-12-16T18:28:56Z</time>
      </trkpt>
      <trkpt lat="45.02247" lon="5.86424">
        <ele>1371</ele>
        <time>2017-12-16T18:29:07Z</time>
      </trkpt>
      <trkpt lat="45.02157" lon="5.86477">
        <ele>1366</ele>
        <time>2017-12-16T18:29:26Z</time>
      </trkpt>
      <trkpt lat="45.02129" lon="5.865">
        <ele>1365</ele>
        <time>2017-12-16T18:29:42Z</time>
      </trkpt>
      <trkpt lat="45.02114" lon="5.86519">
        <ele>1364</ele>
        <time>2017-12-16T18:29:54Z</time>
      </trkpt>
      <trkpt lat="45.02093" lon="5.8655">
        <ele>1363</ele>
        <time>2017-12-16T18:30:09Z</time>
      </trkpt>
      <trkpt lat="45.0203" lon="5.86648">
        <ele>1351</ele>
        <time>2017-12-16T18:30:14Z</time>
      </trkpt>
      <trkpt lat="45.02009" lon="5.86683">
        <ele>1349</ele>
        <time>2017-12-16T18:30:33Z</time>
      </trkpt>
      <trkpt lat="45.01998" lon="5.86715">
        <ele>1344</ele>
        <time>2017-12-16T18:30:38Z</time>
      </trkpt>
      <trkpt lat="45.01983" lon="5.86791">
        <ele>1340</ele>
        <time>2017-12-16T18:30:51Z</time>
      </trkpt>
      <trkpt lat="45.01963" lon="5.8686">
        <ele>1338</ele>
        <time>2017-12-16T18:31:03Z</time>
      </trkpt>
      <trkpt lat="45.01955" lon="5.8689">
        <ele>1337</ele>
        <time>2017-12-16T18:31:14Z</time>
      </trkpt>
      <trkpt lat="45.01954" lon="5.86906">
        <ele>1336</ele>
        <time>2017-12-16T18:31:16Z</time>
      </trkpt>
      <trkpt lat="45.01945" lon="5.86956">
        <ele>1339</ele>
        <time>2017-12-16T18:31:36Z</time>
      </trkpt>
      <trkpt lat="45.01926" lon="5.87021">
        <ele>1340</ele>
        <time>2017-12-16T18:31:56Z</time>
      </trkpt>
      <trkpt lat="45.01914" lon="5.87055">
        <ele>1328</ele>
        <time>2017-12-16T18:32:08Z</time>
      </trkpt>
      <trkpt lat="45.01906" lon="5.87069">
        <ele>1329</ele>
        <time>2017-12-16T18:32:22Z</time>
      </trkpt>
      <trkpt lat="45.01895" lon="5.8708">
        <ele>1328</ele>
        <time>2017-12-16T18:32:40Z</time>
      </trkpt>
      <trkpt lat="45.01886" lon="5.87085">
        <ele>1331</ele>
        <time>2017-12-16T18:32:51Z</time>
      </trkpt>
      <trkpt lat="45.01855" lon="5.87086">
        <ele>1326</ele>
        <time>2017-12-16T18:32:55Z</time>
      </trkpt>
      <trkpt lat="45.01781" lon="5.87085">
        <ele>1313</ele>
        <time>2017-12-16T18:33:01Z</time>
      </trkpt>
      <trkpt lat="45.01775" lon="5.87085">
        <ele>1312</ele>
        <time>2017-12-16T18:33:09Z</time>
      </trkpt>
      <trkpt lat="45.01748" lon="5.87099">
        <ele>1308</ele>
        <time>2017-12-16T18:33:23Z</time>
      </trkpt>
      <trkpt lat="45.01725" lon="5.87122">
        <ele>1308</ele>
        <time>2017-12-16T18:33:29Z</time>
      </trkpt>
      <trkpt lat="45.01699" lon="5.87156">
        <ele>1307</ele>
        <time>2017-12-16T18:33:31Z</time>
      </trkpt>
      <trkpt lat="45.01659" lon="5.87207">
        <ele>1299</ele>
        <time>2017-12-16T18:33:41Z</time>
      </trkpt>
      <trkpt lat="45.01636" lon="5.8723">
        <ele>1298</ele>
        <time>2017-12-16T18:33:47Z</time>
      </trkpt>
      <trkpt lat="45.01623" lon="5.87236">
        <ele>1297</ele>
        <time>2017-12-16T18:33:50Z</time>
      </trkpt>
      <trkpt lat="45.01598" lon="5.87242">
        <ele>1296</ele>
        <time>2017-12-16T18:33:53Z</time>
      </trkpt>
      <trkpt lat="45.01565" lon="5.87243">
        <ele>1298</ele>
        <time>2017-12-16T18:34:03Z</time>
      </trkpt>
      <trkpt lat="45.01544" lon="5.87249">
        <ele>1299</ele>
        <time>2017-12-16T18:34:07Z</time>
      </trkpt>
      <trkpt lat="45.01482" lon="5.87279">
        <ele>1284</ele>
        <time>2017-12-16T18:34:21Z</time>
      </trkpt>
      <trkpt lat="45.0145" lon="5.87291">
        <ele>1281</ele>
        <time>2017-12-16T18:34:25Z</time>
      </trkpt>
      <trkpt lat="45.01406" lon="5.87296">
        <ele>1281</ele>
        <time>2017-12-16T18:34:33Z</time>
      </trkpt>
      <trkpt lat="45.01382" lon="5.873">
        <ele>1281</ele>
        <time>2017-12-16T18:34:49Z</time>
      </trkpt>
      <trkpt lat="45.01339" lon="5.87311">
        <ele>1278</ele>
        <time>2017-12-16T18:34:59Z</time>
      </trkpt>
      <trkpt lat="45.01327" lon="5.87319">
        <ele>1280</ele>
        <time>2017-12-16T18:35:03Z</time>
      </trkpt>
      <trkpt lat="45.01325" lon="5.87325">
        <ele>1277</ele>
        <time>2017-12-16T18:35:09Z</time>
      </trkpt>
      <trkpt lat="45.01324" lon="5.87331">
        <ele>1276</ele>
        <time>2017-12-16T18:35:13Z</time>
      </trkpt>
      <trkpt lat="45.01326" lon="5.87336">
        <ele>1266</ele>
        <time>2017-12-16T18:35:18Z</time>
      </trkpt>
      <trkpt lat="45.0133" lon="5.87338">
        <ele>1266</ele>
        <time>2017-12-16T18:35:23Z</time>
      </trkpt>
      <trkpt lat="45.01339" lon="5.87339">
        <ele>1264</ele>
        <time>2017-12-16T18:35:28Z</time>
      </trkpt>
      <trkpt lat="45.0136" lon="5.87336">
        <ele>1260</ele>
        <time>2017-12-16T18:35:44Z</time>
      </trkpt>
      <trkpt lat="45.01372" lon="5.87337">
        <ele>1259</ele>
        <time>2017-12-16T18:36:01Z</time>
      </trkpt>
      <trkpt lat="45.01383" lon="5.87345">
        <ele>1258</ele>
        <time>2017-12-16T18:36:16Z</time>
      </trkpt>
      <trkpt lat="45.01395" lon="5.87362">
        <ele>1257</ele>
        <time>2017-12-16T18:36:20Z</time>
      </trkpt>
      <trkpt lat="45.01435" lon="5.87412">
        <ele>1252</ele>
        <time>2017-12-16T18:36:40Z</time>
      </trkpt>
      <trkpt lat="45.01443" lon="5.87421">
        <ele>1245</ele>
        <time>2017-12-16T18:36:49Z</time>
      </trkpt>
      <trkpt lat="45.01457" lon="5.87435">
        <ele>1245</ele>
        <time>2017-12-16T18:36:59Z</time>
      </trkpt>
      <trkpt lat="45.01462" lon="5.87445">
        <ele>1245</ele>
        <time>2017-12-16T18:37:17Z</time>
      </trkpt>
      <trkpt lat="45.01462" lon="5.87453">
        <ele>1245</ele>
        <time>2017-12-16T18:37:32Z</time>
      </trkpt>
      <trkpt lat="45.01458" lon="5.8746">
        <ele>1244</ele>
        <time>2017-12-16T18:37:37Z</time>
      </trkpt>
      <trkpt lat="45.0145" lon="5.87462">
        <ele>1243</ele>
        <time>2017-12-16T18:37:45Z</time>
      </trkpt>
      <trkpt lat="45.01415" lon="5.87454">
        <ele>1239</ele>
        <time>2017-12-16T18:37:48Z</time>
      </trkpt>
      <trkpt lat="45.01401" lon="5.8745">
        <ele>1239</ele>
        <time>2017-12-16T18:38:06Z</time>
      </trkpt>
      <trkpt lat="45.01393" lon="5.87451">
        <ele>1238</ele>
        <time>2017-12-16T18:38:14Z</time>
      </trkpt>
      <trkpt lat="45.01382" lon="5.87453">
        <ele>1238</ele>
        <time>2017-12-16T18:38:24Z</time>
      </trkpt>
      <trkpt lat="45.01366" lon="5.8746">
        <ele>1237</ele>
        <time>2017-12-16T18:38:31Z</time>
      </trkpt>
      <trkpt lat="45.0133" lon="5.87484">
        <ele>1233</ele>
        <time>2017-12-16T18:38:47Z</time>
      </trkpt>
      <trkpt lat="45.01312" lon="5.87492">
        <ele>1233</ele>
        <time>2017-12-16T18:38:49Z</time>
      </trkpt>
      <trkpt lat="45.01273" lon="5.87502">
        <ele>1224</ele>
        <time>2017-12-16T18:39:09Z</time>
      </trkpt>
      <trkpt lat="45.01256" lon="5.87506">
        <ele>1226</ele>
        <time>2017-12-16T18:39:18Z</time>
      </trkpt>
      <trkpt lat="45.01229" lon="5.87517">
        <ele>1221</ele>
        <time>2017-12-16T18:39:21Z</time>
      </trkpt>
      <trkpt lat="45.0118" lon="5.87536">
        <ele>1217</ele>
        <time>2017-12-16T18:39:39Z</time>
      </trkpt>
      <trkpt lat="45.01157" lon="5.87539">
        <ele>1210</ele>
        <time>2017-12-16T18:39:42Z</time>
      </trkpt>
      <trkpt lat="45.01138" lon="5.87536">
        <ele>1209</ele>
        <time>2017-12-16T18:39:45Z</time>
      </trkpt>
      <trkpt lat="45.01086" lon="5.87507">
        <ele>1211</ele>
        <time>2017-12-16T18:39:54Z</time>
      </trkpt>
      <trkpt lat="45.01006" lon="5.87468">
        <ele>1210</ele>
        <time>2017-12-16T18:40:12Z</time>
      </trkpt>
      <trkpt lat="45.00976" lon="5.87451">
        <ele>1196</ele>
        <time>2017-12-16T18:40:21Z</time>
      </trkpt>
      <trkpt lat="45.00954" lon="5.87435">
        <ele>1195</ele>
        <time>2017-12-16T18:40:38Z</time>
      </trkpt>
      <trkpt lat="45.00928" lon="5.87413">
        <ele>1206</ele>
        <time>2017-12-16T18:40:49Z</time>
      </trkpt>
      <trkpt lat="45.00914" lon="5.87405">
        <ele>1198</ele>
        <time>2017-12-16T18:41:00Z</time>
      </trkpt>
      <trkpt lat="45.00909" lon="5.87407">
        <ele>1197</ele>
        <time>2017-12-16T18:41:18Z</time>
      </trkpt>
      <trkpt lat="45.00907" lon="5.87411">
        <ele>1197</ele>
        <time>2017-12-16T18:41:30Z</time>
      </trkpt>
      <trkpt lat="45.00907" lon="5.87419">
        <ele>1187</ele>
        <time>2017-12-16T18:41:43Z</time>
      </trkpt>
      <trkpt lat="45.00911" lon="5.87427">
        <ele>1186</ele>
        <time>2017-12-16T18:41:58Z</time>
      </trkpt>
      <trkpt lat="45.00939" lon="5.87455">
        <ele>1191</ele>
        <time>2017-12-16T18:42:07Z</time>
      </trkpt>
      <trkpt lat="45.00964" lon="5.87498">
        <ele>1189</ele>
        <time>2017-12-16T18:42:19Z</time>
      </trkpt>
      <trkpt lat="45.00996" lon="5.87575">
        <ele>1172</ele>
        <time>2017-12-16T18:42:28Z</time>
      </trkpt>
      <trkpt lat="45.01005" lon="5.876">
        <ele>1172</ele>
        <time>2017-12-16T18:42:35Z</time>
      </trkpt>
      <trkpt lat="45.01009" lon="5.87616">
        <ele>1171</ele>
        <time>2017-12-16T18:42:43Z</time>
      </trkpt>
      <trkpt lat="45.0101" lon="5.87639">
        <ele>1169</ele>
        <time>2017-12-16T18:42:46Z</time>
      </trkpt>
      <trkpt lat="45.01005" lon="5.87691">
        <ele>1160</ele>
        <time>2017-12-16T18:42:58Z</time>
      </trkpt>
      <trkpt lat="45.01004" lon="5.87712">
        <ele>1158</ele>
        <time>2017-12-16T18:43:14Z</time>
      </trkpt>
      <trkpt lat="45.01007" lon="5.87748">
        <ele>1152</ele>
        <time>2017-12-16T18:43:21Z</time>
      </trkpt>
      <trkpt lat="45.01012" lon="5.87776">
        <ele>1150</ele>
        <time>2017-12-16T18:43:37Z</time>
      </trkpt>
      <trkpt lat="45.01011" lon="5.87786">
        <ele>1149</ele>
        <time>2017-12-16T18:43:51Z</time>
      </trkpt>
      <trkpt lat="45.01009" lon="5.87791">
        <ele>1149</ele>
        <time>2017-12-16T18:43:56Z</time>
      </trkpt>
      <trkpt lat="45.01003" lon="5.87793">
        <ele>1148</ele>
        <time>2017-12-16T18:44:07Z</time>
      </trkpt>
      <trkpt lat="45.00998" lon="5.87791">
        <ele>1140</ele>
        <time>2017-12-16T18:44:27Z</time>
      </trkpt>
      <trkpt lat="45.0098" lon="5.87777">
        <ele>1140</ele>
        <time>2017-12-16T18:44:33Z</time>
      </trkpt>
      <trkpt lat="45.00934" lon="5.87728">
        <ele>1141</ele>
        <time>2017-12-16T18:44:37Z</time>
      </trkpt>
      <trkpt lat="45.00906" lon="5.87692">
        <ele>1133</ele>
        <time>2017-12-16T18:44:52Z</time>
      </trkpt>
      <trkpt lat="45.00853" lon="5.87611">
        <ele>1136</ele>
        <time>2017-12-16T18:45:08Z</time>
      </trkpt>
      <trkpt lat="45.00841" lon="5.87597">
        <ele>1135</ele>
        <time>2017-12-16T18:45:21Z</time>
      </trkpt>
      <trkpt lat="45.00837" lon="5.87595">
        <ele>1134</ele>
        <time>2017-12-16T18:45:25Z</time>
      </trkpt>
      <trkpt lat="45.00814" lon="5.87581">
        <ele>1132</ele>
        <time>2017-12-16T18:45:41Z</time>
      </trkpt>
      <trkpt lat="45.00787" lon="5.87559">
        <ele>1131</ele>
        <time>2017-12-16T18:45:43Z</time>
      </trkpt>
      <trkpt lat="45.00771" lon="5.87552">
        <ele>1130</ele>
        <time>2017-12-16T18:46:02Z</time>
      </trkpt>
      <trkpt lat="45.00739" lon="5.87543">
        <ele>1122</ele>
        <time>2017-12-16T18:46:06Z</time>
      </trkpt>
      <trkpt lat="45.00711" lon="5.87532">
        <ele>1120</ele>
        <time>2017-12-16T18:46:18Z</time>
      </trkpt>
      <trkpt lat="45.00663" lon="5.87514">
        <ele>1115</ele>
        <time>2017-12-16T18:46:33Z</time>
      </trkpt>
      <trkpt lat="45.00651" lon="5.8751">
        <ele>1114</ele>
        <time>2017-12-16T18:46:52Z</time>
      </trkpt>
      <trkpt lat="45.00644" lon="5.8751">
        <ele>1113</ele>
        <time>2017-12-16T18:47:05Z</time>
      </trkpt>
      <trkpt lat="45.0064" lon="5.87513">
        <ele>1112</ele>
        <time>2017-12-16T18:47:25Z</time>
      </trkpt>
      <trkpt lat="45.00638" lon="5.87517">
        <ele>1112</ele>
        <time>2017-12-16T18:47:41Z</time>
      </trkpt>
      <trkpt lat="45.0064" lon="5.87528">
        <ele>1111</ele>
        <time>2017-12-16T18:47:46Z</time>
      </trkpt>
      <trkpt lat="45.00649" lon="5.87539">
        <ele>1110</ele>
        <time>2017-12-16T18:47:53Z</time>
      </trkpt>
      <trkpt lat="45.00665" lon="5.87574">
        <ele>1107</ele>
        <time>2017-12-16T18:48:08Z</time>
      </trkpt>
      <trkpt lat="45.00698" lon="5.87628">
        <ele>1108</ele>
        <time>2017-12-16T18:48:19Z</time>
      </trkpt>
      <trkpt lat="45.00701" lon="5.87649">
        <ele>1107</ele>
        <time>2017-12-16T18:48:21Z</time>
      </trkpt>
      <trkpt lat="45.007" lon="5.87661">
        <ele>1106</ele>
        <time>2017-12-16T18:48:36Z</time>
      </trkpt>
      <trkpt lat="45.00695" lon="5.87669">
        <ele>1102</ele>
        <time>2017-12-16T18:48:48Z</time>
      </trkpt>
      <trkpt lat="45.00653" lon="5.87721">
        <ele>1097</ele>
        <time>2017-12-16T18:49:08Z</time>
      </trkpt>
      <trkpt lat="45.00648" lon="5.87727">
        <ele>1097</ele>
        <time>2017-12-16T18:49:13Z</time>
      </trkpt>
      <trkpt lat="45.00486" lon="5.87898">
        <ele>1093</ele>
        <time>2017-12-16T18:49:26Z</time>
      </trkpt>
      <trkpt lat="45.00389" lon="5.87999">
        <ele>1092</ele>
        <time>2017-12-16T18:49:32Z</time>
      </trkpt>
      <trkpt lat="45.00373" lon="5.88012">
        <ele>1093</ele>
        <time>2017-12-16T18:49:46Z</time>
      </trkpt>
      <trkpt lat="45.00282" lon="5.88057">
        <ele>1094</ele>
        <time>2017-12-16T18:50:03Z</time>
      </trkpt>
      <trkpt lat="45.0025" lon="5.88072">
        <ele>1097</ele>
        <time>2017-12-16T18:50:19Z</time>
      </trkpt>
      <trkpt lat="45.00223" lon="5.88076">
        <ele>1096</ele>
        <time>2017-12-16T18:50:27Z</time>
      </trkpt>
      <trkpt lat="45.00148" lon="5.88059">
        <ele>1096</ele>
        <time>2017-12-16T18:50:46Z</time>
      </trkpt>
      <trkpt lat="44.99986" lon="5.88041">
        <ele>1090</ele>
        <time>2017-12-16T18:50:58Z</time>
      </trkpt>
      <trkpt lat="44.99955" lon="5.88042">
        <ele>1090</ele>
        <time>2017-12-16T18:51:02Z</time>
      </trkpt>
      <trkpt lat="44.99866" lon="5.88053">
        <ele>1088</ele>
        <time>2017-12-16T18:51:10Z</time>
      </trkpt>
      <trkpt lat="44.99697" lon="5.88069">
        <ele>1080</ele>
        <time>2017-12-16T18:51:24Z</time>
      </trkpt>
      <trkpt lat="44.99667" lon="5.88075">
        <ele>1080</ele>
        <time>2017-12-16T18:51:42Z</time>
      </trkpt>
      <trkpt lat="44.99655" lon="5.88079">
        <ele>1079</ele>
        <time>2017-12-16T18:51:46Z</time>
      </trkpt>
      <trkpt lat="44.99636" lon="5.88091">
        <ele>1082</ele>
        <time>2017-12-16T18:52:00Z</time>
      </trkpt>
      <trkpt lat="44.99568" lon="5.88149">
        <ele>1075</ele>
        <time>2017-12-16T18:52:13Z</time>
      </trkpt>
      <trkpt lat="44.99423" lon="5.88256">
        <ele>1071</ele>
        <time>2017-12-16T18:52:24Z</time>
      </trkpt>
      <trkpt lat="44.99364" lon="5.88301">
        <ele>1068</ele>
        <time>2017-12-16T18:52:28Z</time>
      </trkpt>
      <trkpt lat="44.99344" lon="5.88315">
        <ele>1067</ele>
        <time>2017-12-16T18:52:43Z</time>
      </trkpt>
      <trkpt lat="44.99329" lon="5.8832">
        <ele>1067</ele>
        <time>2017-12-16T18:52:55Z</time>
      </trkpt>
      <trkpt lat="44.993" lon="5.88323">
        <ele>1067</ele>
        <time>2017-12-16T18:53:12Z</time>
      </trkpt>
      <trkpt lat="44.99258" lon="5.88306">
        <ele>1067</ele>
        <time>2017-12-16T18:53:26Z</time>
      </trkpt>
      <trkpt lat="44.99245" lon="5.88301">
        <ele>1067</ele>
        <time>2017-12-16T18:53:38Z</time>
      </trkpt>
      <trkpt lat="44.99223" lon="5.88298">
        <ele>1067</ele>
        <time>2017-12-16T18:53:56Z</time>
      </trkpt>
      <trkpt lat="44.99204" lon="5.883">
        <ele>1068</ele>
        <time>2017-12-16T18:54:09Z</time>
      </trkpt>
      <trkpt lat="44.99125" lon="5.88328">
        <ele>1069</ele>
        <time>2017-12-16T18:54:20Z</time>
      </trkpt>
      <trkpt lat="44.99068" lon="5.88343">
        <ele>1070</ele>
        <time>2017-12-16T18:54:31Z</time>
      </trkpt>
      <trkpt lat="44.99034" lon="5.88348">
        <ele>1069</ele>
        <time>2017-12-16T18:54:36Z</time>
      </trkpt>
      <trkpt lat="44.98988" lon="5.88354">
        <ele>1063</ele>
        <time>2017-12-16T18:54:50Z</time>
      </trkpt>
      <trkpt lat="44.98979" lon="5.88356">
        <ele>1063</ele>
        <time>2017-12-16T18:54:53Z</time>
      </trkpt>
      <trkpt lat="44.9896" lon="5.88366">
        <ele>1063</ele>
        <time>2017-12-16T18:55:12Z</time>
      </trkpt>
      <trkpt lat="44.98928" lon="5.88392">
        <ele>1062</ele>
        <time>2017-12-16T18:55:20Z</time>
      </trkpt>
      <trkpt lat="44.98864" lon="5.88463">
        <ele>1059</ele>
        <time>2017-12-16T18:55:28Z</time>
      </trkpt>
      <trkpt lat="44.98835" lon="5.88487">
        <ele>1057</ele>
        <time>2017-12-16T18:55:32Z</time>
      </trkpt>
      <trkpt lat="44.9881" lon="5.88506">
        <ele>1060</ele>
        <time>2017-12-16T18:55:37Z</time>
      </trkpt>
      <trkpt lat="44.98793" lon="5.88515">
        <ele>1061</ele>
        <time>2017-12-16T18:55:55Z</time>
      </trkpt>
      <trkpt lat="44.98769" lon="5.88522">
        <ele>1060</ele>
        <time>2017-12-16T18:56:12Z</time>
      </trkpt>
      <trkpt lat="44.98724" lon="5.8853">
        <ele>1059</ele>
        <time>2017-12-16T18:56:24Z</time>
      </trkpt>
      <trkpt lat="44.98689" lon="5.88536">
        <ele>1059</ele>
        <time>2017-12-16T18:56:32Z</time>
      </trkpt>
      <trkpt lat="44.98665" lon="5.88543">
        <ele>1059</ele>
        <time>2017-12-16T18:56:47Z</time>
      </trkpt>
      <trkpt lat="44.98623" lon="5.88561">
        <ele>1059</ele>
        <time>2017-12-16T18:56:50Z</time>
      </trkpt>
      <trkpt lat="44.98496" lon="5.8862">
        <ele>1063</ele>
        <time>2017-12-16T18:57:07Z</time>
      </trkpt>
      <trkpt lat="44.98404" lon="5.88661">
        <ele>1064</ele>
        <time>2017-12-16T18:57:15Z</time>
      </trkpt>
      <trkpt lat="44.98339" lon="5.88687">
        <ele>1070</ele>
        <time>2017-12-16T18:57:24Z</time>
      </trkpt>
      <trkpt lat="44.98329" lon="5.88698">
        <ele>1072</ele>
        <time>2017-12-16T18:57:39Z</time>
      </trkpt>
      <trkpt lat="44.9832" lon="5.8872">
        <ele>1074</ele>
        <time>2017-12-16T18:57:45Z</time>
      </trkpt>
      <trkpt lat="44.98316" lon="5.88726">
        <ele>1074</ele>
        <time>2017-12-16T18:58:00Z</time>
      </trkpt>
      <trkpt lat="44.98309" lon="5.8873">
        <ele>1074</ele>
        <time>2017-12-16T18:58:09Z</time>
      </trkpt>
      <trkpt lat="44.98297" lon="5.88734">
        <ele>1074</ele>
        <time>2017-12-16T18:58:27Z</time>
      </trkpt>
      <trkpt lat="44.98283" lon="5.88734">
        <ele>1074</ele>
        <time>2017-12-16T18:58:42Z</time>
      </trkpt>
      <trkpt lat="44.98262" lon="5.8873">
        <ele>1074</ele>
        <time>2017-12-16T18:58:53Z</time>
      </trkpt>
      <trkpt lat="44.98245" lon="5.88719">
        <ele>1074</ele>
        <time>2017-12-16T18:59:13Z</time>
      </trkpt>
      <trkpt lat="44.98211" lon="5.88682">
        <ele>1072</ele>
        <time>2017-12-16T18:59:21Z</time>
      </trkpt>
      <trkpt lat="44.982" lon="5.88674">
        <ele>1071</ele>
        <time>2017-12-16T18:59:33Z</time>
      </trkpt>
      <trkpt lat="44.98173" lon="5.88663">
        <ele>1067</ele>
        <time>2017-12-16T18:59:38Z</time>
      </trkpt>
      <trkpt lat="44.98077" lon="5.88631">
        <ele>1062</ele>
        <time>2017-12-16T18:59:44Z</time>
      </trkpt>
      <trkpt lat="44.97947" lon="5.88586">
        <ele>1061</ele>
        <time>2017-12-16T19:00:02Z</time>
      </trkpt>
      <trkpt lat="44.97915" lon="5.88572">
        <ele>1054</ele>
        <time>2017-12-16T19:00:09Z</time>
      </trkpt>
      <trkpt lat="44.9789" lon="5.88557">
        <ele>1053</ele>
        <time>2017-12-16T19:00:16Z</time>
      </trkpt>
      <trkpt lat="44.97857" lon="5.88534">
        <ele>1052</ele>
        <time>2017-12-16T19:00:29Z</time>
      </trkpt>
      <trkpt lat="44.97802" lon="5.88488">
        <ele>1047</ele>
        <time>2017-12-16T19:00:45Z</time>
      </trkpt>
      <trkpt lat="44.9778" lon="5.88468">
        <ele>1047</ele>
        <time>2017-12-16T19:00:55Z</time>
      </trkpt>
      <trkpt lat="44.97749" lon="5.88429">
        <ele>1045</ele>
        <time>2017-12-16T19:01:02Z</time>
      </trkpt>
      <trkpt lat="44.97706" lon="5.88365">
        <ele>1038</ele>
        <time>2017-12-16T19:01:04Z</time>
      </trkpt>
      <trkpt lat="44.97661" lon="5.8832">
        <ele>1034</ele>
        <time>2017-12-16T19:01:07Z</time>
      </trkpt>
      <trkpt lat="44.97612" lon="5.88287">
        <ele>1033</ele>
        <time>2017-12-16T19:01:22Z</time>
      </trkpt>
      <trkpt lat="44.97527" lon="5.88237">
        <ele>1031</ele>
        <time>2017-12-16T19:01:26Z</time>
      </trkpt>
      <trkpt lat="44.97429" lon="5.88178">
        <ele>1027</ele>
        <time>2017-12-16T19:01:34Z</time>
      </trkpt>
      <trkpt lat="44.9738" lon="5.88151">
        <ele>1023</ele>
        <time>2017-12-16T19:01:36Z</time>
      </trkpt>
      <trkpt lat="44.97353" lon="5.88138">
        <ele>1022</ele>
        <time>2017-12-16T19:01:42Z</time>
      </trkpt>
      <trkpt lat="44.97325" lon="5.8813">
        <ele>1022</ele>
        <time>2017-12-16T19:01:51Z</time>
      </trkpt>
      <trkpt lat="44.97295" lon="5.8812">
        <ele>1022</ele>
        <time>2017-12-16T19:02:10Z</time>
      </trkpt>
      <trkpt lat="44.97276" lon="5.8811">
        <ele>1022</ele>
        <time>2017-12-16T19:02:28Z</time>
      </trkpt>
      <trkpt lat="44.97238" lon="5.88083">
        <ele>1022</ele>
        <time>2017-12-16T19:02:37Z</time>
      </trkpt>
      <trkpt lat="44.97155" lon="5.88006">
        <ele>1016</ele>
        <time>2017-12-16T19:02:56Z</time>
      </trkpt>
      <trkpt lat="44.97043" lon="5.87898">
        <ele>1013</ele>
        <time>2017-12-16T19:03:03Z</time>
      </trkpt>
      <trkpt lat="44.96972" lon="5.87833">
        <ele>1011</ele>
        <time>2017-12-16T19:03:23Z</time>
      </trkpt>
      <trkpt lat="44.96882" lon="5.87772">
        <ele>1010</ele>
        <time>2017-12-16T19:03:33Z</time>
      </trkpt>
      <trkpt lat="44.96833" lon="5.87741">
        <ele>1011</ele>
        <time>2017-12-16T19:03:46Z</time>
      </trkpt>
      <trkpt lat="44.96808" lon="5.87731">
        <ele>1012</ele>
        <time>2017-12-16T19:03:55Z</time>
      </trkpt>
      <trkpt lat="44.96765" lon="5.87721">
        <ele>1012</ele>
        <time>2017-12-16T19:04:03Z</time>
      </trkpt>
      <trkpt lat="44.96689" lon="5.877">
        <ele>1010</ele>
        <time>2017-12-16T19:04:06Z</time>
      </trkpt>
      <trkpt lat="44.96667" lon="5.8769">
        <ele>1010</ele>
        <time>2017-12-16T19:04:21Z</time>
      </trkpt>
      <trkpt lat="44.96635" lon="5.8767">
        <ele>1009</ele>
        <time>2017-12-16T19:04:27Z</time>
      </trkpt>
      <trkpt lat="44.96555" lon="5.87614">
        <ele>1006</ele>
        <time>2017-12-16T19:04:33Z</time>
      </trkpt>
      <trkpt lat="44.96522" lon="5.87583">
        <ele>1008</ele>
        <time>2017-12-16T19:04:50Z</time>
      </trkpt>
      <trkpt lat="44.96418" lon="5.87451">
        <ele>1007</ele>
        <time>2017-12-16T19:05:06Z</time>
      </trkpt>
      <trkpt lat="44.96381" lon="5.87415">
        <ele>1004</ele>
        <time>2017-12-16T19:05:13Z</time>
      </trkpt>
      <trkpt lat="44.96336" lon="5.87385">
        <ele>1002</ele>
        <time>2017-12-16T19:05:20Z</time>
      </trkpt>
      <trkpt lat="44.96314" lon="5.87374">
        <ele>997</ele>
        <time>2017-12-16T19:05:29Z</time>
      </trkpt>
      <trkpt lat="44.9628" lon="5.87357">
        <ele>996</ele>
        <time>2017-12-16T19:05:38Z</time>
      </trkpt>
      <trkpt lat="44.96242" lon="5.87331">
        <ele>993</ele>
        <time>2017-12-16T19:05:52Z</time>
      </trkpt>
      <trkpt lat="44.96208" lon="5.87304">
        <ele>993</ele>
        <time>2017-12-16T19:06:11Z</time>
      </trkpt>
      <trkpt lat="44.96178" lon="5.87284">
        <ele>993</ele>
        <time>2017-12-16T19:06:30Z</time>
      </trkpt>
      <trkpt lat="44.96158" lon="5.87275">
        <ele>990</ele>
        <time>2017-12-16T19:06:38Z</time>
      </trkpt>
      <trkpt lat="44.96146" lon="5.87273">
        <ele>990</ele>
        <time>2017-12-16T19:06:45Z</time>
      </trkpt>
      <trkpt lat="44.96134" lon="5.87275">
        <ele>989</ele>
        <time>2017-12-16T19:07:05Z</time>
      </trkpt>
      <trkpt lat="44.96119" lon="5.87279">
        <ele>989</ele>
        <time>2017-12-16T19:07:07Z</time>
      </trkpt>
      <trkpt lat="44.96092" lon="5.87291">
        <ele>988</ele>
        <time>2017-12-16T19:07:11Z</time>
      </trkpt>
      <trkpt lat="44.96056" lon="5.87305">
        <ele>986</ele>
        <time>2017-12-16T19:07:31Z</time>
      </trkpt>
      <trkpt lat="44.96029" lon="5.87309">
        <ele>985</ele>
        <time>2017-12-16T19:07:33Z</time>
      </trkpt>
      <trkpt lat="44.95982" lon="5.87307">
        <ele>984</ele>
        <time>2017-12-16T19:07:41Z</time>
      </trkpt>
      <trkpt lat="44.95962" lon="5.87306">
        <ele>984</ele>
        <time>2017-12-16T19:07:51Z</time>
      </trkpt>
      <trkpt lat="44.95939" lon="5.873">
        <ele>984</ele>
        <time>2017-12-16T19:07:57Z</time>
      </trkpt>
      <trkpt lat="44.95899" lon="5.87283">
        <ele>983</ele>
        <time>2017-12-16T19:08:02Z</time>
      </trkpt>
      <trkpt lat="44.95895" lon="5.8728">
        <ele>983</ele>
        <time>2017-12-16T19:08:20Z</time>
      </trkpt>
      <trkpt lat="44.95859" lon="5.87243">
        <ele>983</ele>
        <time>2017-12-16T19:08:26Z</time>
      </trkpt>
      <trkpt lat="44.95832" lon="5.87216">
        <ele>981</ele>
        <time>2017-12-16T19:08:33Z</time>
      </trkpt>
      <trkpt lat="44.95792" lon="5.87188">
        <ele>981</ele>
        <time>2017-12-16T19:08:39Z</time>
      </trkpt>
      <trkpt lat="44.95776" lon="5.8717">
        <ele>980</ele>
        <time>2017-12-16T19:08:41Z</time>
      </trkpt>
      <trkpt lat="44.95763" lon="5.8714">
        <ele>979</ele>
        <time>2017-12-16T19:08:52Z</time>
      </trkpt>
      <trkpt lat="44.95749" lon="5.8708">
        <ele>973</ele>
        <time>2017-12-16T19:08:56Z</time>
      </trkpt>
      <trkpt lat="44.9574" lon="5.8706">
        <ele>974</ele>
        <time>2017-12-16T19:09:14Z</time>
      </trkpt>
      <trkpt lat="44.95726" lon="5.87038">
        <ele>975</ele>
        <time>2017-12-16T19:09:20Z</time>
      </trkpt>
      <trkpt lat="44.95695" lon="5.87008">
        <ele>973</ele>
        <time>2017-12-16T19:09:27Z</time>
      </trkpt>
      <trkpt lat="44.9567" lon="5.86994">
        <ele>975</ele>
        <time>2017-12-16T19:09:40Z</time>
      </trkpt>
      <trkpt lat="44.95622" lon="5.86973">
        <ele>978</ele>
        <time>2017-12-16T19:09:53Z</time>
      </trkpt>
      <trkpt lat="44.95597" lon="5.86966">
        <ele>978</ele>
        <time>2017-12-16T19:09:58Z</time>
      </trkpt>
      <trkpt lat="44.95576" lon="5.86963">
        <ele>972</ele>
        <time>2017-12-16T19:10:00Z</time>
      </trkpt>
      <trkpt lat="44.95525" lon="5.86959">
        <ele>971</ele>
        <time>2017-12-16T19:10:09Z</time>
      </trkpt>
      <trkpt lat="44.95489" lon="5.86948">
        <ele>966</ele>
        <time>2017-12-16T19:10:20Z</time>
      </trkpt>
      <trkpt lat="44.95461" lon="5.86936">
        <ele>965</ele>
        <time>2017-12-16T19:10:30Z</time>
      </trkpt>
      <trkpt lat="44.95434" lon="5.86918">
        <ele>965</ele>
        <time>2017-12-16T19:10:50Z</time>
      </trkpt>
      <trkpt lat="44.95385" lon="5.86878">
        <ele>973</ele>
        <time>2017-12-16T19:11:07Z</time>
      </trkpt>
      <trkpt lat="44.9534" lon="5.86846">
        <ele>974</ele>
        <time>2017-12-16T19:11:24Z</time>
      </trkpt>
      <trkpt lat="44.95316" lon="5.86833">
        <ele>980</ele>
        <time>2017-12-16T19:11:44Z</time>
      </trkpt>
      <trkpt lat="44.95295" lon="5.86824">
        <ele>981</ele>
        <time>2017-12-16T19:11:59Z</time>
      </trkpt>
      <trkpt lat="44.95276" lon="5.8682">
        <ele>979</ele>
        <time>2017-12-16T19:12:14Z</time>
      </trkpt>
      <trkpt lat="44.95245" lon="5.86817">
        <ele>971</ele>
        <time>2017-12-16T19:12:19Z</time>
      </trkpt>
      <trkpt lat="44.9521" lon="5.86819">
        <ele>972</ele>
        <time>2017-12-16T19:12:27Z</time>
      </trkpt>
      <trkpt lat="44.95189" lon="5.86818">
        <ele>969</ele>
        <time>2017-12-16T19:12:37Z</time>
      </trkpt>
      <trkpt lat="44.95171" lon="5.86812">
        <ele>968</ele>
        <time>2017-12-16T19:12:46Z</time>
      </trkpt>
      <trkpt lat="44.95126" lon="5.86789">
        <ele>966</ele>
        <time>2017-12-16T19:13:04Z</time>
      </trkpt>
      <trkpt lat="44.9507" lon="5.86738">
        <ele>969</ele>
        <time>2017-12-16T19:13:18Z</time>
      </trkpt>
      <trkpt lat="44.95002" lon="5.8669">
        <ele>971</ele>
        <time>2017-12-16T19:13:36Z</time>
      </trkpt>
      <trkpt lat="44.94964" lon="5.86666">
        <ele>975</ele>
        <time>2017-12-16T19:13:40Z</time>
      </trkpt>
      <trkpt lat="44.94934" lon="5.86651">
        <ele>969</ele>
        <time>2017-12-16T19:13:42Z</time>
      </trkpt>
      <trkpt lat="44.94884" lon="5.86632">
        <ele>960</ele>
        <time>2017-12-16T19:13:59Z</time>
      </trkpt>
      <trkpt lat="44.94832" lon="5.86619">
        <ele>952</ele>
        <time>2017-12-16T19:14:01Z</time>
      </trkpt>
      <trkpt lat="44.94796" lon="5.86607">
        <ele>952</ele>
        <time>2017-12-16T19:14:03Z</time>
      </trkpt>
      <trkpt lat="44.94757" lon="5.86587">
        <ele>952</ele>
        <time>2017-12-16T19:14:15Z</time>
      </trkpt>
      <trkpt lat="44.94705" lon="5.86552">
        <ele>955</ele>
        <time>2017-12-16T19:14:18Z</time>
      </trkpt>
      <trkpt lat="44.94663" lon="5.8652">
        <ele>948</ele>
        <time>2017-12-16T19:14:34Z</time>
      </trkpt>
      <trkpt lat="44.94635" lon="5.86494">
        <ele>956</ele>
        <time>2017-12-16T19:14:51Z</time>
      </trkpt>
      <trkpt lat="44.94603" lon="5.86456">
        <ele>955</ele>
        <time>2017-12-16T19:14:56Z</time>
      </trkpt>
      <trkpt lat="44.94573" lon="5.86414">
        <ele>954</ele>
        <time>2017-12-16T19:15:00Z</time>
      </trkpt>
      <trkpt lat="44.94536" lon="5.86375">
        <ele>952</ele>
        <time>2017-12-16T19:15:12Z</time>
      </trkpt>
      <trkpt lat="44.94526" lon="5.86359">
        <ele>951</ele>
        <time>2017-12-16T19:15:15Z</time>
      </trkpt>
      <trkpt lat="44.94514" lon="5.86327">
        <ele>956</ele>
        <time>2017-12-16T19:15:31Z</time>
      </trkpt>
      <trkpt lat="44.94501" lon="5.86301">
        <ele>962</ele>
        <time>2017-12-16T19:15:48Z</time>
      </trkpt>
      <trkpt lat="44.9448" lon="5.86271">
        <ele>951</ele>
        <time>2017-12-16T19:15:54Z</time>
      </trkpt>
      <trkpt lat="44.94455" lon="5.86244">
        <ele>959</ele>
        <time>2017-12-16T19:16:06Z</time>
      </trkpt>
      <trkpt lat="44.94428" lon="5.8621">
        <ele>959</ele>
        <time>2017-12-16T19:16:20Z</time>
      </trkpt>
      <trkpt lat="44.94415" lon="5.8619">
        <ele>950</ele>
        <time>2017-12-16T19:16:39Z</time>
      </trkpt>
      <trkpt lat="44.9439" lon="5.86145">
        <ele>958</ele>
        <time>2017-12-16T19:16:47Z</time>
      </trkpt>
      <trkpt lat="44.9438" lon="5.86124">
        <ele>958</ele>
        <time>2017-12-16T19:16:58Z</time>
      </trkpt>
      <trkpt lat="44.94378" lon="5.86127">
        <ele>957</ele>
        <time>2017-12-16T19:17:16Z</time>
      </trkpt>
      <trkpt lat="44.94375" lon="5.86125">
        <ele>957</ele>
        <time>2017-12-16T19:17:31Z</time>
      </trkpt>
      <trkpt lat="44.94362" lon="5.86104">
        <ele>956</ele>
        <time>2017-12-16T19:17:35Z</time>
      </trkpt>
      <trkpt lat="44.94343" lon="5.86072">
        <ele>959</ele>
        <time>2017-12-16T19:17:49Z</time>
      </trkpt>
      <trkpt lat="44.94341" lon="5.86077">
        <ele>956</ele>
        <time>2017-12-16T19:17:53Z</time>
      </trkpt>
      <trkpt lat="44.94338" lon="5.86078">
        <ele>954</ele>
        <time>2017-12-16T19:17:57Z</time>
      </trkpt>
      <trkpt lat="44.94333" lon="5.86076">
        <ele>949</ele>
        <time>2017-12-16T19:18:13Z</time>
      </trkpt>
      <trkpt lat="44.94321" lon="5.86064">
        <ele>948</ele>
        <time>2017-12-16T19:18:24Z</time>
      </trkpt>
      <trkpt lat="44.94312" lon="5.86056">
        <ele>948</ele>
        <time>2017-12-16T19:18:43Z</time>
      </trkpt>
      <trkpt lat="44.94295" lon="5.86049">
        <ele>946</ele>
        <time>2017-12-16T19:18:53Z</time>
      </trkpt>
      <trkpt lat="44.94282" lon="5.86042">
        <ele>945</ele>
        <time>2017-12-16T19:19:11Z</time>
      </trkpt>
      <trkpt lat="44.94274" lon="5.86031">
        <ele>945</ele>
        <time>2017-12-16T19:19:21Z</time>
      </trkpt>
      <trkpt lat="44.94259" lon="5.86003">
        <ele>944</ele>
        <time>2017-12-16T19:19:24Z</time>
      </trkpt>
      <trkpt lat="44.94253" lon="5.85995">
        <ele>947</ele>
        <time>2017-12-16T19:19:31Z</time>
      </trkpt>
      <trkpt lat="44.94248" lon="5.85993">
        <ele>941</ele>
        <time>2017-12-16T19:19:41Z</time>
      </trkpt>
      <trkpt lat="44.94245" lon="5.85995">
        <ele>941</ele>
        <time>2017-12-16T19:19:48Z</time>
      </trkpt>
      <trkpt lat="44.94242" lon="5.86002">
        <ele>936</ele>
        <time>2017-12-16T19:20:07Z</time>
      </trkpt>
      <trkpt lat="44.94243" lon="5.8601">
        <ele>934</ele>
        <time>2017-12-16T19:20:10Z</time>
      </trkpt>
      <trkpt lat="44.94274" lon="5.86124">
        <ele>932</ele>
        <time>2017-12-16T19:20:25Z</time>
      </trkpt>
      <trkpt lat="44.94275" lon="5.86133">
        <ele>932</ele>
        <time>2017-12-16T19:20:40Z</time>
      </trkpt>
      <trkpt lat="44.94274" lon="5.86139">
        <ele>931</ele>
        <time>2017-12-16T19:20:57Z</time>
      </trkpt>
      <trkpt lat="44.94272" lon="5.86143">
        <ele>931</ele>
        <time>2017-12-16T19:21:08Z</time>
      </trkpt>
      <trkpt lat="44.94268" lon="5.86143">
        <ele>930</ele>
        <time>2017-12-16T19:21:18Z</time>
      </trkpt>
      <trkpt lat="44.94265" lon="5.86141">
        <ele>930</ele>
        <time>2017-12-16T19:21:21Z</time>
      </trkpt>
      <trkpt lat="44.94261" lon="5.86135">
        <ele>930</ele>
        <time>2017-12-16T19:21:35Z</time>
      </trkpt>
      <trkpt lat="44.94214" lon="5.86035">
        <ele>924</ele>
        <time>2017-12-16T19:21:45Z</time>
      </trkpt>
      <trkpt lat="44.94196" lon="5.86003">
        <ele>921</ele>
        <time>2017-12-16T19:21:56Z</time>
      </trkpt>
      <trkpt lat="44.94165" lon="5.8596">
        <ele>913</ele>
        <time>2017-12-16T19:22:00Z</time>
      </trkpt>
      <trkpt lat="44.94139" lon="5.85919">
        <ele>914</ele>
        <time>2017-12-16T19:22:20Z</time>
      </trkpt>
      <trkpt lat="44.94125" lon="5.85899">
        <ele>920</ele>
        <time>2017-12-16T19:22:33Z</time>
      </trkpt>
      <trkpt lat="44.94105" lon="5.85872">
        <ele>920</ele>
        <time>2017-12-16T19:22:52Z</time>
      </trkpt>
      <trkpt lat="44.94091" lon="5.85853">
        <ele>919</ele>
        <time>2017-12-16T19:23:02Z</time>
      </trkpt>
      <trkpt lat="44.94078" lon="5.85835">
        <ele>913</ele>
        <time>2017-12-16T19:23:12Z</time>
      </trkpt>
      <trkpt lat="44.94069" lon="5.85825">
        <ele>914</ele>
        <time>2017-12-16T19:23:16Z</time>
      </trkpt>
      <trkpt lat="44.94063" lon="5.85822">
        <ele>913</ele>
        <time>2017-12-16T19:23:19Z</time>
      </trkpt>
      <trkpt lat="44.94059" lon="5.85823">
        <ele>913</ele>
        <time>2017-12-16T19:23:28Z</time>
      </trkpt>
      <trkpt lat="44.94056" lon="5.85826">
        <ele>912</ele>
        <time>2017-12-16T19:23:42Z</time>
      </trkpt>
      <trkpt lat="44.94053" lon="5.85833">
        <ele>912</ele>
        <time>2017-12-16T19:23:47Z</time>
      </trkpt>
      <trkpt lat="44.94054" lon="5.85844">
        <ele>906</ele>
        <time>2017-12-16T19:24:02Z</time>
      </trkpt>
      <trkpt lat="44.9406" lon="5.85869">
        <ele>904</ele>
        <time>2017-12-16T19:24:12Z</time>
      </trkpt>
      <trkpt lat="44.94063" lon="5.8589">
        <ele>902</ele>
        <time>2017-12-16T19:24:25Z</time>
      </trkpt>
      <trkpt lat="44.94063" lon="5.85903">
        <ele>901</ele>
        <time>2017-12-16T19:24:32Z</time>
      </trkpt>
      <trkpt lat="44.9406" lon="5.85916">
        <ele>901</ele>
        <time>2017-12-16T19:24:45Z</time>
      </trkpt>
      <trkpt lat="44.94023" lon="5.86012">
        <ele>900</ele>
        <time>2017-12-16T19:24:50Z</time>
      </trkpt>
      <trkpt lat="44.9401" lon="5.86043">
        <ele>903</ele>
        <time>2017-12-16T19:24:55Z</time>
      </trkpt>
      <trkpt lat="44.94008" lon="5.86056">
        <ele>905</ele>
        <time>2017-12-16T19:25:09Z</time>
      </trkpt>
      <trkpt lat="44.9401" lon="5.86076">
        <ele>908</ele>
        <time>2017-12-16T19:25:21Z</time>
      </trkpt>
      <trkpt lat="44.94016" lon="5.86117">
        <ele>914</ele>
        <time>2017-12-16T19:25:36Z</time>
      </trkpt>
      <trkpt lat="44.94031" lon="5.86161">
        <ele>917</ele>
        <time>2017-12-16T19:25:43Z</time>
      </trkpt>
      <trkpt lat="44.94056" lon="5.86221">
        <ele>925</ele>
        <time>2017-12-16T19:26:02Z</time>
      </trkpt>
      <trkpt lat="44.94076" lon="5.86255">
        <ele>926</ele>
        <time>2017-12-16T19:26:13Z</time>
      </trkpt>
      <trkpt lat="44.94084" lon="5.86265">
        <ele>920</ele>
        <time>2017-12-16T19:26:21Z</time>
      </trkpt>
      <trkpt lat="44.94095" lon="5.86273">
        <ele>922</ele>
        <time>2017-12-16T19:26:29Z</time>
      </trkpt>
      <trkpt lat="44.94103" lon="5.86279">
        <ele>923</ele>
        <time>2017-12-16T19:26:45Z</time>
      </trkpt>
      <trkpt lat="44.94105" lon="5.86284">
        <ele>923</ele>
        <time>2017-12-16T19:26:47Z</time>
      </trkpt>
      <trkpt lat="44.94106" lon="5.86293">
        <ele>925</ele>
        <time>2017-12-16T19:26:51Z</time>
      </trkpt>
      <trkpt lat="44.941" lon="5.86298">
        <ele>926</ele>
        <time>2017-12-16T19:27:09Z</time>
      </trkpt>
      <trkpt lat="44.94095" lon="5.86296">
        <ele>926</ele>
        <time>2017-12-16T19:27:12Z</time>
      </trkpt>
      <trkpt lat="44.94075" lon="5.86272">
        <ele>936</ele>
        <time>2017-12-16T19:27:29Z</time>
      </trkpt>
      <trkpt lat="44.94035" lon="5.86227">
        <ele>930</ele>
        <time>2017-12-16T19:27:42Z</time>
      </trkpt>
      <trkpt lat="44.94" lon="5.86184">
        <ele>947</ele>
        <time>2017-12-16T19:27:45Z</time>
      </trkpt>
      <trkpt lat="44.93978" lon="5.8615">
        <ele>940</ele>
        <time>2017-12-16T19:28:00Z</time>
      </trkpt>
      <trkpt lat="44.93961" lon="5.86124">
        <ele>942</ele>
        <time>2017-12-16T19:28:02Z</time>
      </trkpt>
      <trkpt lat="44.93931" lon="5.86087">
        <ele>948</ele>
        <time>2017-12-16T19:28:09Z</time>
      </trkpt>
      <trkpt lat="44.93895" lon="5.86043">
        <ele>955</ele>
        <time>2017-12-16T19:28:23Z</time>
      </trkpt>
      <trkpt lat="44.93857" lon="5.86005">
        <ele>959</ele>
        <time>2017-12-16T19:28:25Z</time>
      </trkpt>
      <trkpt lat="44.93811" lon="5.85964">
        <ele>959</ele>
        <time>2017-12-16T19:28:35Z</time>
      </trkpt>
      <trkpt lat="44.938" lon="5.85956">
        <ele>958</ele>
        <time>2017-12-16T19:28:41Z</time>
      </trkpt>
      <trkpt lat="44.93784" lon="5.8595">
        <ele>959</ele>
        <time>2017-12-16T19:28:47Z</time>
      </trkpt>
      <trkpt lat="44.93758" lon="5.85944">
        <ele>959</ele>
        <time>2017-12-16T19:28:57Z</time>
      </trkpt>
      <trkpt lat="44.93718" lon="5.8594">
        <ele>966</ele>
        <time>2017-12-16T19:29:08Z</time>
      </trkpt>
      <trkpt lat="44.93693" lon="5.85935">
        <ele>966</ele>
        <time>2017-12-16T19:29:24Z</time>
      </trkpt>
      <trkpt lat="44.93676" lon="5.85935">
        <ele>965</ele>
        <time>2017-12-16T19:29:37Z</time>
      </trkpt>
      <trkpt lat="44.93666" lon="5.8594">
        <ele>967</ele>
        <time>2017-12-16T19:29:46Z</time>
      </trkpt>
      <trkpt lat="44.93661" lon="5.85947">
        <ele>968</ele>
        <time>2017-12-16T19:29:54Z</time>
      </trkpt>
      <trkpt lat="44.93658" lon="5.85965">
        <ele>970</ele>
        <time>2017-12-16T19:30:07Z</time>
      </trkpt>
      <trkpt lat="44.93658" lon="5.86012">
        <ele>982</ele>
        <time>2017-12-16T19:30:27Z</time>
      </trkpt>
      <trkpt lat="44.93656" lon="5.86027">
        <ele>985</ele>
        <time>2017-12-16T19:30:47Z</time>
      </trkpt>
      <trkpt lat="44.93647" lon="5.8604">
        <ele>987</ele>
        <time>2017-12-16T19:30:49Z</time>
      </trkpt>
      <trkpt lat="44.93632" lon="5.86047">
        <ele>988</ele>
        <time>2017-12-16T19:31:05Z</time>
      </trkpt>
      <trkpt lat="44.93609" lon="5.86049">
        <ele>988</ele>
        <time>2017-12-16T19:31:24Z</time>
      </trkpt>
      <trkpt lat="44.93598" lon="5.86049">
        <ele>988</ele>
        <time>2017-12-16T19:31:28Z</time>
      </trkpt>
      <trkpt lat="44.93528" lon="5.86033">
        <ele>987</ele>
        <time>2017-12-16T19:31:38Z</time>
      </trkpt>
      <trkpt lat="44.93484" lon="5.86025">
        <ele>986</ele>
        <time>2017-12-16T19:31:42Z</time>
      </trkpt>
      <trkpt lat="44.93426" lon="5.86019">
        <ele>984</ele>
        <time>2017-12-16T19:31:48Z</time>
      </trkpt>
      <trkpt lat="44.93389" lon="5.8601">
        <ele>986</ele>
        <time>2017-12-16T19:31:54Z</time>
      </trkpt>
      <trkpt lat="44.93319" lon="5.85996">
        <ele>975</ele>
        <time>2017-12-16T19:32:09Z</time>
      </trkpt>
      <trkpt lat="44.93218" lon="5.85982">
        <ele>977</ele>
        <time>2017-12-16T19:32:19Z</time>
      </trkpt>
      <trkpt lat="44.9317" lon="5.85977">
        <ele>981</ele>
        <time>2017-12-16T19:32:27Z</time>
      </trkpt>
      <trkpt lat="44.93135" lon="5.8598">
        <ele>982</ele>
        <time>2017-12-16T19:32:46Z</time>
      </trkpt>
      <trkpt lat="44.93099" lon="5.85987">
        <ele>984</ele>
        <time>2017-12-16T19:32:49Z</time>
      </trkpt>
      <trkpt lat="44.93064" lon="5.85987">
        <ele>984</ele>
        <time>2017-12-16T19:33:05Z</time>
      </trkpt>
      <trkpt lat="44.93007" lon="5.85981">
        <ele>984</ele>
        <time>2017-12-16T19:33:10Z</time>
      </trkpt>
      <trkpt lat="44.92978" lon="5.8598">
        <ele>983</ele>
        <time>2017-12-16T19:33:22Z</time>
      </trkpt>
      <trkpt lat="44.92954" lon="5.85987">
        <ele>983</ele>
        <time>2017-12-16T19:33:41Z</time>
      </trkpt>
      <trkpt lat="44.92939" lon="5.85993">
        <ele>983</ele>
        <time>2017-12-16T19:33:55Z</time>
      </trkpt>
      <trkpt lat="44.92922" lon="5.86006">
        <ele>988</ele>
        <time>2017-12-16T19:34:04Z</time>
      </trkpt>
      <trkpt lat="44.92887" lon="5.86034">
        <ele>991</ele>
        <time>2017-12-16T19:34:14Z</time>
      </trkpt>
      <trkpt lat="44.92866" lon="5.86043">
        <ele>991</ele>
        <time>2017-12-16T19:34:19Z</time>
      </trkpt>
      <trkpt lat="44.92836" lon="5.86049">
        <ele>991</ele>
        <time>2017-12-16T19:34:37Z</time>
      </trkpt>
      <trkpt lat="44.92819" lon="5.86056">
        <ele>988</ele>
        <time>2017-12-16T19:34:49Z</time>
      </trkpt>
      <trkpt lat="44.92803" lon="5.86066">
        <ele>987</ele>
        <time>2017-12-16T19:34:59Z</time>
      </trkpt>
      <trkpt lat="44.92779" lon="5.86086">
        <ele>999</ele>
        <time>2017-12-16T19:35:10Z</time>
      </trkpt>
      <trkpt lat="44.9276" lon="5.86099">
        <ele>997</ele>
        <time>2017-12-16T19:35:12Z</time>
      </trkpt>
      <trkpt lat="44.92642" lon="5.86156">
        <ele>996</ele>
        <time>2017-12-16T19:35:18Z</time>
      </trkpt>
      <trkpt lat="44.92618" lon="5.86171">
        <ele>1008</ele>
        <time>2017-12-16T19:35:34Z</time>
      </trkpt>
      <trkpt lat="44.92593" lon="5.86191">
        <ele>1006</ele>
        <time>2017-12-16T19:35:38Z</time>
      </trkpt>
      <trkpt lat="44.92551" lon="5.86225">
        <ele>991</ele>
        <time>2017-12-16T19:35:46Z</time>
      </trkpt>
      <trkpt lat="44.9253" lon="5.86244">
        <ele>987</ele>
        <time>2017-12-16T19:36:01Z</time>
      </trkpt>
      <trkpt lat="44.92523" lon="5.86256">
        <ele>995</ele>
        <time>2017-12-16T19:36:03Z</time>
      </trkpt>
      <trkpt lat="44.92521" lon="5.86278">
        <ele>998</ele>
        <time>2017-12-16T19:36:08Z</time>
      </trkpt>
      <trkpt lat="44.92523" lon="5.86323">
        <ele>1002</ele>
        <time>2017-12-16T19:36:14Z</time>
      </trkpt>
      <trkpt lat="44.92522" lon="5.86341">
        <ele>1014</ele>
        <time>2017-12-16T19:36:30Z</time>
      </trkpt>
      <trkpt lat="44.92518" lon="5.86353">
        <ele>1015</ele>
        <time>2017-12-16T19:36:45Z</time>
      </trkpt>
      <trkpt lat="44.92511" lon="5.86363">
        <ele>1017</ele>
        <time>2017-12-16T19:36:59Z</time>
      </trkpt>
      <trkpt lat="44.92494" lon="5.86373">
        <ele>999</ele>
        <time>2017-12-16T19:37:10Z</time>
      </trkpt>
      <trkpt lat="44.92469" lon="5.86387">
        <ele>999</ele>
        <time>2017-12-16T19:37:19Z</time>
      </trkpt>
      <trkpt lat="44.92434" lon="5.86416">
        <ele>997</ele>
        <time>2017-12-16T19:37:27Z</time>
      </trkpt>
      <trkpt lat="44.924" lon="5.86448">
        <ele>1001</ele>
        <time>2017-12-16T19:37:38Z</time>
      </trkpt>
      <trkpt lat="44.92387" lon="5.86461">
        <ele>1002</ele>
        <time>2017-12-16T19:37:43Z</time>
      </trkpt>
      <trkpt lat="44.92361" lon="5.86494">
        <ele>1002</ele>
        <time>2017-12-16T19:37:56Z</time>
      </trkpt>
      <trkpt lat="44.92331" lon="5.86531">
        <ele>1001</ele>
        <time>2017-12-16T19:38:12Z</time>
      </trkpt>
      <trkpt lat="44.92305" lon="5.86559">
        <ele>1002</ele>
        <time>2017-12-16T19:38:18Z</time>
      </trkpt>
      <trkpt lat="44.92253" lon="5.86608">
        <ele>1006</ele>
        <time>2017-12-16T19:38:36Z</time>
      </trkpt>
      <trkpt lat="44.92244" lon="5.86624">
        <ele>989</ele>
        <time>2017-12-16T19:38:45Z</time>
      </trkpt>
      <trkpt lat="44.92242" lon="5.86633">
        <ele>990</ele>
        <time>2017-12-16T19:38:48Z</time>
      </trkpt>
      <trkpt lat="44.92248" lon="5.86659">
        <ele>998</ele>
        <time>2017-12-16T19:38:50Z</time>
      </trkpt>
      <trkpt lat="44.92283" lon="5.86731">
        <ele>1019</ele>
        <time>2017-12-16T19:39:02Z</time>
      </trkpt>
      <trkpt lat="44.92285" lon="5.86741">
        <ele>1019</ele>
        <time>2017-12-16T19:39:19Z</time>
      </trkpt>
      <trkpt lat="44.92288" lon="5.86759">
        <ele>1017</ele>
        <time>2017-12-16T19:39:32Z</time>
      </trkpt>
      <trkpt lat="44.92287" lon="5.86774">
        <ele>1016</ele>
        <time>2017-12-16T19:39:49Z</time>
      </trkpt>
      <trkpt lat="44.92278" lon="5.86878">
        <ele>1012</ele>
        <time>2017-12-16T19:40:03Z</time>
      </trkpt>
      <trkpt lat="44.92272" lon="5.86943">
        <ele>1013</ele>
        <time>2017-12-16T19:40:18Z</time>
      </trkpt>
      <trkpt lat="44.92274" lon="5.8696">
        <ele>1015</ele>
        <time>2017-12-16T19:40:24Z</time>
      </trkpt>
      <trkpt lat="44.92279" lon="5.86972">
        <ele>1016</ele>
        <time>2017-12-16T19:40:36Z</time>
      </trkpt>
      <trkpt lat="44.9229" lon="5.86986">
        <ele>1018</ele>
        <time>2017-12-16T19:40:53Z</time>
      </trkpt>
      <trkpt lat="44.92293" lon="5.86993">
        <ele>1018</ele>
        <time>2017-12-16T19:41:13Z</time>
      </trkpt>
      <trkpt lat="44.92295" lon="5.87003">
        <ele>1023</ele>
        <time>2017-12-16T19:41:25Z</time>
      </trkpt>
      <trkpt lat="44.92293" lon="5.87014">
        <ele>1023</ele>
        <time>2017-12-16T19:41:28Z</time>
      </trkpt>
      <trkpt lat="44.92287" lon="5.87023">
        <ele>1023</ele>
        <time>2017-12-16T19:41:46Z</time>
      </trkpt>
      <trkpt lat="44.92273" lon="5.87033">
        <ele>1022</ele>
        <time>2017-12-16T19:42:03Z</time>
      </trkpt>
      <trkpt lat="44.92258" lon="5.87034">
        <ele>1021</ele>
        <time>2017-12-16T19:42:14Z</time>
      </trkpt>
      <trkpt lat="44.9225" lon="5.87032">
        <ele>1015</ele>
        <time>2017-12-16T19:42:26Z</time>
      </trkpt>
      <trkpt lat="44.92225" lon="5.87008">
        <ele>1013</ele>
        <time>2017-12-16T19:42:42Z</time>
      </trkpt>
      <trkpt lat="44.92205" lon="5.86999">
        <ele>1005</ele>
        <time>2017-12-16T19:43:00Z</time>
      </trkpt>
      <trkpt lat="44.92188" lon="5.86997">
        <ele>1006</ele>
        <time>2017-12-16T19:43:07Z</time>
      </trkpt>
      <trkpt lat="44.92174" lon="5.87002">
        <ele>1010</ele>
        <time>2017-12-16T19:43:26Z</time>
      </trkpt>
      <trkpt lat="44.92145" lon="5.8703">
        <ele>1009</ele>
        <time>2017-12-16T19:43:32Z</time>
      </trkpt>
      <trkpt lat="44.92084" lon="5.87091">
        <ele>1013</ele>
        <time>2017-12-16T19:43:34Z</time>
      </trkpt>
      <trkpt lat="44.92065" lon="5.87109">
        <ele>1015</ele>
        <time>2017-12-16T19:43:39Z</time>
      </trkpt>
      <trkpt lat="44.92047" lon="5.87118">
        <ele>1016</ele>
        <time>2017-12-16T19:43:42Z</time>
      </trkpt>
      <trkpt lat="44.92015" lon="5.87125">
        <ele>1015</ele>
        <time>2017-12-16T19:43:58Z</time>
      </trkpt>
      <trkpt lat="44.91955" lon="5.87127">
        <ele>1008</ele>
        <time>2017-12-16T19:44:11Z</time>
      </trkpt>
      <trkpt lat="44.91937" lon="5.87129">
        <ele>1007</ele>
        <time>2017-12-16T19:44:18Z</time>
      </trkpt>
      <trkpt lat="44.91911" lon="5.87139">
        <ele>1005</ele>
        <time>2017-12-16T19:44:33Z</time>
      </trkpt>
      <trkpt lat="44.91876" lon="5.87163">
        <ele>1005</ele>
        <time>2017-12-16T19:44:38Z</time>
      </trkpt>
      <trkpt lat="44.91848" lon="5.87176">
        <ele>1013</ele>
        <time>2017-12-16T19:44:58Z</time>
      </trkpt>
      <trkpt lat="44.9182" lon="5.87178">
        <ele>1007</ele>
        <time>2017-12-16T19:45:03Z</time>
      </trkpt>
      <trkpt lat="44.91806" lon="5.87175">
        <ele>1007</ele>
        <time>2017-12-16T19:45:21Z</time>
      </trkpt>
      <trkpt lat="44.91788" lon="5.87167">
        <ele>1007</ele>
        <time>2017-12-16T19:45:26Z</time>
      </trkpt>
      <trkpt lat="44.9175" lon="5.87145">
        <ele>997</ele>
        <time>2017-12-16T19:45:39Z</time>
      </trkpt>
      <trkpt lat="44.91738" lon="5.87148">
        <ele>998</ele>
        <time>2017-12-16T19:45:50Z</time>
      </trkpt>
      <trkpt lat="44.91731" lon="5.87152">
        <ele>998</ele>
        <time>2017-12-16T19:45:54Z</time>
      </trkpt>
      <trkpt lat="44.91727" lon="5.87159">
        <ele>998</ele>
        <time>2017-12-16T19:46:04Z</time>
      </trkpt>
      <trkpt lat="44.91721" lon="5.87173">
        <ele>1003</ele>
        <time>2017-12-16T19:46:24Z</time>
      </trkpt>
      <trkpt lat="44.91715" lon="5.87202">
        <ele>1005</ele>
        <time>2017-12-16T19:46:29Z</time>
      </trkpt>
      <trkpt lat="44.91711" lon="5.87211">
        <ele>1006</ele>
        <time>2017-12-16T19:46:42Z</time>
      </trkpt>
      <trkpt lat="44.91703" lon="5.8722">
        <ele>1006</ele>
        <time>2017-12-16T19:46:51Z</time>
      </trkpt>
      <trkpt lat="44.91678" lon="5.87228">
        <ele>1007</ele>
        <time>2017-12-16T19:47:02Z</time>
      </trkpt>
      <trkpt lat="44.91668" lon="5.87229">
        <ele>1007</ele>
        <time>2017-12-16T19:47:15Z</time>
      </trkpt>
      <trkpt lat="44.91662" lon="5.87226">
        <ele>1010</ele>
        <time>2017-12-16T19:47:27Z</time>
      </trkpt>
      <trkpt lat="44.91658" lon="5.8722">
        <ele>1009</ele>
        <time>2017-12-16T19:47:38Z</time>
      </trkpt>
      <trkpt lat="44.91656" lon="5.87212">
        <ele>1009</ele>
        <time>2017-12-16T19:47:40Z</time>
      </trkpt>
      <trkpt lat="44.91662" lon="5.87189">
        <ele>1006</ele>
        <time>2017-12-16T19:47:59Z</time>
      </trkpt>
      <trkpt lat="44.91662" lon="5.8717">
        <ele>1002</ele>
        <time>2017-12-16T19:48:15Z</time>
      </trkpt>
      <trkpt lat="44.91659" lon="5.87163">
        <ele>1001</ele>
        <time>2017-12-16T19:48:30Z</time>
      </trkpt>
      <trkpt lat="44.91651" lon="5.87154">
        <ele>1001</ele>
        <time>2017-12-16T19:48:40Z</time>
      </trkpt>
      <trkpt lat="44.91627" lon="5.8714">
        <ele>1003</ele>
        <time>2017-12-16T19:48:57Z</time>
      </trkpt>
      <trkpt lat="44.91608" lon="5.87129">
        <ele>1003</ele>
        <time>2017-12-16T19:49:07Z</time>
      </trkpt>
      <trkpt lat="44.91598" lon="5.87119">
        <ele>1003</ele>
        <time>2017-12-16T19:49:20Z</time>
      </trkpt>
      <trkpt lat="44.91586" lon="5.87098">
        <ele>1002</ele>
        <time>2017-12-16T19:49:32Z</time>
      </trkpt>
      <trkpt lat="44.91578" lon="5.87078">
        <ele>1006</ele>
        <time>2017-12-16T19:49:50Z</time>
      </trkpt>
      <trkpt lat="44.91573" lon="5.8706">
        <ele>1011</ele>
        <time>2017-12-16T19:50:09Z</time>
      </trkpt>
      <trkpt lat="44.91566" lon="5.87009">
        <ele>1008</ele>
        <time>2017-12-16T19:50:23Z</time>
      </trkpt>
      <trkpt lat="44.91556" lon="5.86952">
        <ele>1009</ele>
        <time>2017-12-16T19:50:29Z</time>
      </trkpt>
      <trkpt lat="44.91539" lon="5.86857">
        <ele>1011</ele>
        <time>2017-12-16T19:50:38Z</time>
      </trkpt>
      <trkpt lat="44.91538" lon="5.86833">
        <ele>1013</ele>
        <time>2017-12-16T19:50:42Z</time>
      </trkpt>
      <trkpt lat="44.9154" lon="5.86809">
        <ele>1013</ele>
        <time>2017-12-16T19:50:58Z</time>
      </trkpt>
      <trkpt lat="44.91549" lon="5.86764">
        <ele>1010</ele>
        <time>2017-12-16T19:51:15Z</time>
      </trkpt>
      <trkpt lat="44.91576" lon="5.86687">
        <ele>1010</ele>
        <time>2017-12-16T19:51:22Z</time>
      </trkpt>
      <trkpt lat="44.91592" lon="5.86651">
        <ele>992</ele>
        <time>2017-12-16T19:51:37Z</time>
      </trkpt>
      <trkpt lat="44.91612" lon="5.86619">
        <ele>984</ele>
        <time>2017-12-16T19:51:56Z</time>
      </trkpt>
      <trkpt lat="44.91616" lon="5.86607">
        <ele>984</ele>
        <time>2017-12-16T19:52:16Z</time>
      </trkpt>
      <trkpt lat="44.91617" lon="5.86593">
        <ele>984</ele>
        <time>2017-12-16T19:52:23Z</time>
      </trkpt>
      <trkpt lat="44.91614" lon="5.86581">
        <ele>979</ele>
        <time>2017-12-16T19:52:25Z</time>
      </trkpt>
      <trkpt lat="44.91606" lon="5.8657">
        <ele>980</ele>
        <time>2017-12-16T19:52:39Z</time>
      </trkpt>
      <trkpt lat="44.9159" lon="5.86558">
        <ele>981</ele>
        <time>2017-12-16T19:52:52Z</time>
      </trkpt>
      <trkpt lat="44.91556" lon="5.86541">
        <ele>989</ele>
        <time>2017-12-16T19:53:05Z</time>
      </trkpt>
      <trkpt lat="44.91524" lon="5.86523">
        <ele>988</ele>
        <time>2017-12-16T19:53:09Z</time>
      </trkpt>
      <trkpt lat="44.91505" lon="5.8651">
        <ele>986</ele>
        <time>2017-12-16T19:53:15Z</time>
      </trkpt>
      <trkpt lat="44.91487" lon="5.86503">
        <ele>989</ele>
        <time>2017-12-16T19:53:27Z</time>
      </trkpt>
      <trkpt lat="44.91465" lon="5.86503">
        <ele>992</ele>
        <time>2017-12-16T19:53:35Z</time>
      </trkpt>
      <trkpt lat="44.91446" lon="5.86503">
        <ele>992</ele>
        <time>2017-12-16T19:53:44Z</time>
      </trkpt>
      <trkpt lat="44.9143" lon="5.86493">
        <ele>978</ele>
        <time>2017-12-16T19:53:55Z</time>
      </trkpt>
      <trkpt lat="44.91409" lon="5.86491">
        <ele>981</ele>
        <time>2017-12-16T19:54:12Z</time>
      </trkpt>
      <trkpt lat="44.91395" lon="5.86488">
        <ele>978</ele>
        <time>2017-12-16T19:54:26Z</time>
      </trkpt>
      <trkpt lat="44.9138" lon="5.86479">
        <ele>977</ele>
        <time>2017-12-16T19:54:38Z</time>
      </trkpt>
      <trkpt lat="44.91366" lon="5.86471">
        <ele>976</ele>
        <time>2017-12-16T19:54:51Z</time>
      </trkpt>
      <trkpt lat="44.91349" lon="5.86469">
        <ele>976</ele>
        <time>2017-12-16T19:55:11Z</time>
      </trkpt>
      <trkpt lat="44.91299" lon="5.8647">
        <ele>977</ele>
        <time>2017-12-16T19:55:27Z</time>
      </trkpt>
      <trkpt lat="44.91274" lon="5.86473">
        <ele>977</ele>
        <time>2017-12-16T19:55:34Z</time>
      </trkpt>
      <trkpt lat="44.91249" lon="5.86481">
        <ele>981</ele>
        <time>2017-12-16T19:55:46Z</time>
      </trkpt>
      <trkpt lat="44.91233" lon="5.86485">
        <ele>982</ele>
        <time>2017-12-16T19:55:55Z</time>
      </trkpt>
      <trkpt lat="44.91218" lon="5.86483">
        <ele>982</ele>
        <time>2017-12-16T19:55:57Z</time>
      </trkpt>
      <trkpt lat="44.91199" lon="5.86474">
        <ele>982</ele>
        <time>2017-12-16T19:56:05Z</time>
      </trkpt>
      <trkpt lat="44.91154" lon="5.86443">
        <ele>986</ele>
        <time>2017-12-16T19:56:23Z</time>
      </trkpt>
      <trkpt lat="44.91129" lon="5.86423">
        <ele>987</ele>
        <time>2017-12-16T19:56:43Z</time>
      </trkpt>
      <trkpt lat="44.91097" lon="5.86386">
        <ele>976</ele>
        <time>2017-12-16T19:56:51Z</time>
      </trkpt>
      <trkpt lat="44.91074" lon="5.86352">
        <ele>983</ele>
        <time>2017-12-16T19:57:10Z</time>
      </trkpt>
      <trkpt lat="44.91059" lon="5.86311">
        <ele>974</ele>
        <time>2017-12-16T19:57:15Z</time>
      </trkpt>
      <trkpt lat="44.91042" lon="5.86265">
        <ele>972</ele>
        <time>2017-12-16T19:57:17Z</time>
      </trkpt>
      <trkpt lat="44.91026" lon="5.86233">
        <ele>965</ele>
        <time>2017-12-16T19:57:28Z</time>
      </trkpt>
      <trkpt lat="44.9102" lon="5.86205">
        <ele>963</ele>
        <time>2017-12-16T19:57:32Z</time>
      </trkpt>
      <trkpt lat="44.91025" lon="5.86102">
        <ele>955</ele>
        <time>2017-12-16T19:57:49Z</time>
      </trkpt>
      <trkpt lat="44.91031" lon="5.85957">
        <ele>947</ele>
        <time>2017-12-16T19:58:09Z</time>
      </trkpt>
      <trkpt lat="44.91029" lon="5.85932">
        <ele>947</ele>
        <time>2017-12-16T19:58:18Z</time>
      </trkpt>
      <trkpt lat="44.91009" lon="5.85839">
        <ele>946</ele>
        <time>2017-12-16T19:58:32Z</time>
      </trkpt>
      <trkpt lat="44.90999" lon="5.85767">
        <ele>942</ele>
        <time>2017-12-16T19:58:50Z</time>
      </trkpt>
      <trkpt lat="44.90986" lon="5.85666">
        <ele>940</ele>
        <time>2017-12-16T19:59:03Z</time>
      </trkpt>
      <trkpt lat="44.90968" lon="5.85611">
        <ele>937</ele>
        <time>2017-12-16T19:59:06Z</time>
      </trkpt>
      <trkpt lat="44.90954" lon="5.85565">
        <ele>933</ele>
        <time>2017-12-16T19:59:18Z</time>
      </trkpt>
      <trkpt lat="44.90943" lon="5.85542">
        <ele>932</ele>
        <time>2017-12-16T19:59:35Z</time>
      </trkpt>
      <trkpt lat="44.90925" lon="5.85518">
        <ele>929</ele>
        <time>2017-12-16T19:59:50Z</time>
      </trkpt>
      <trkpt lat="44.90899" lon="5.85496">
        <ele>920</ele>
        <time>2017-12-16T20:00:09Z</time>
      </trkpt>
      <trkpt lat="44.90873" lon="5.8548">
        <ele>917</ele>
        <time>2017-12-16T20:00:25Z</time>
      </trkpt>
      <trkpt lat="44.90824" lon="5.85461">
        <ele>912</ele>
        <time>2017-12-16T20:00:42Z</time>
      </trkpt>
      <trkpt lat="44.90793" lon="5.85454">
        <ele>910</ele>
        <time>2017-12-16T20:00:52Z</time>
      </trkpt>
      <trkpt lat="44.9078" lon="5.85462">
        <ele>910</ele>
        <time>2017-12-16T20:01:09Z</time>
      </trkpt>
      <trkpt lat="44.90778" lon="5.85488">
        <ele>911</ele>
        <time>2017-12-16T20:01:22Z</time>
      </trkpt>
      <trkpt lat="44.90793" lon="5.85548">
        <ele>914</ele>
        <time>2017-12-16T20:01:30Z</time>
      </trkpt>
      <trkpt lat="44.90792" lon="5.85559">
        <ele>914</ele>
        <time>2017-12-16T20:01:32Z</time>
      </trkpt>
      <trkpt lat="44.90787" lon="5.85571">
        <ele>914</ele>
        <time>2017-12-16T20:01:43Z</time>
      </trkpt>
      <trkpt lat="44.90778" lon="5.85576">
        <ele>913</ele>
        <time>2017-12-16T20:01:56Z</time>
      </trkpt>
      <trkpt lat="44.90771" lon="5.85576">
        <ele>913</ele>
        <time>2017-12-16T20:02:08Z</time>
      </trkpt>
      <trkpt lat="44.90759" lon="5.8557">
        <ele>912</ele>
        <time>2017-12-16T20:02:14Z</time>
      </trkpt>
      <trkpt lat="44.90731" lon="5.8555">
        <ele>911</ele>
        <time>2017-12-16T20:02:21Z</time>
      </trkpt>
      <trkpt lat="44.907" lon="5.85521">
        <ele>911</ele>
        <time>2017-12-16T20:02:29Z</time>
      </trkpt>
      <trkpt lat="44.90692" lon="5.8551">
        <ele>910</ele>
        <time>2017-12-16T20:02:41Z</time>
      </trkpt>
      <trkpt lat="44.90685" lon="5.85494">
        <ele>907</ele>
        <time>2017-12-16T20:02:49Z</time>
      </trkpt>
      <trkpt lat="44.90683" lon="5.85467">
        <ele>906</ele>
        <time>2017-12-16T20:02:58Z</time>
      </trkpt>
      <trkpt lat="44.90684" lon="5.8544">
        <ele>904</ele>
        <time>2017-12-16T20:03:13Z</time>
      </trkpt>
      <trkpt lat="44.90691" lon="5.85401">
        <ele>899</ele>
        <time>2017-12-16T20:03:26Z</time>
      </trkpt>
      <trkpt lat="44.90703" lon="5.8536">
        <ele>896</ele>
        <time>2017-12-16T20:03:33Z</time>
      </trkpt>
      <trkpt lat="44.90721" lon="5.85311">
        <ele>891</ele>
        <time>2017-12-16T20:03:52Z</time>
      </trkpt>
      <trkpt lat="44.90724" lon="5.85279">
        <ele>890</ele>
        <time>2017-12-16T20:03:56Z</time>
      </trkpt>
      <trkpt lat="44.90719" lon="5.85248">
        <ele>887</ele>
        <time>2017-12-16T20:04:13Z</time>
      </trkpt>
      <trkpt lat="44.9071" lon="5.85226">
        <ele>886</ele>
        <time>2017-12-16T20:04:16Z</time>
      </trkpt>
      <trkpt lat="44.90678" lon="5.85175">
        <ele>884</ele>
        <time>2017-12-16T20:04:36Z</time>
      </trkpt>
      <trkpt lat="44.9067" lon="5.85159">
        <ele>882</ele>
        <time>2017-12-16T20:04:53Z</time>
      </trkpt>
      <trkpt lat="44.90665" lon="5.85144">
        <ele>879</ele>
        <time>2017-12-16T20:04:57Z</time>
      </trkpt>
      <trkpt lat="44.90666" lon="5.85125">
        <ele>878</ele>
        <time>2017-12-16T20:05:07Z</time>
      </trkpt>
      <trkpt lat="44.90682" lon="5.85066">
        <ele>879</ele>
        <time>2017-12-16T20:05:16Z</time>
      </trkpt>
      <trkpt lat="44.90697" lon="5.84998">
        <ele>872</ele>
        <time>2017-12-16T20:05:36Z</time>
      </trkpt>
      <trkpt lat="44.90697" lon="5.8498">
        <ele>872</ele>
        <time>2017-12-16T20:05:49Z</time>
      </trkpt>
      <trkpt lat="44.90696" lon="5.84962">
        <ele>871</ele>
        <time>2017-12-16T20:05:59Z</time>
      </trkpt>
      <trkpt lat="44.90658" lon="5.84791">
        <ele>860</ele>
        <time>2017-12-16T20:06:11Z</time>
      </trkpt>
      <trkpt lat="44.90637" lon="5.84688">
        <ele>857</ele>
        <time>2017-12-16T20:06:14Z</time>
      </trkpt>
      <trkpt lat="44.90629" lon="5.84629">
        <ele>852</ele>
        <time>2017-12-16T20:06:17Z</time>
      </trkpt>
      <trkpt lat="44.90623" lon="5.84622">
        <ele>851</ele>
        <time>2017-12-16T20:06:23Z</time>
      </trkpt>
      <trkpt lat="44.90615" lon="5.8462">
        <ele>851</ele>
        <time>2017-12-16T20:06:30Z</time>
      </trkpt>
      <trkpt lat="44.90605" lon="5.8463">
        <ele>850</ele>
        <time>2017-12-16T20:06:39Z</time>
      </trkpt>
      <trkpt lat="44.90577" lon="5.84674">
        <ele>847</ele>
        <time>2017-12-16T20:06:42Z</time>
      </trkpt>
      <trkpt lat="44.90557" lon="5.84703">
        <ele>844</ele>
        <time>2017-12-16T20:06:56Z</time>
      </trkpt>
      <trkpt lat="44.90543" lon="5.84728">
        <ele>843</ele>
        <time>2017-12-16T20:07:14Z</time>
      </trkpt>
      <trkpt lat="44.90536" lon="5.84755">
        <ele>844</ele>
        <time>2017-12-16T20:07:24Z</time>
      </trkpt>
      <trkpt lat="44.90529" lon="5.84767">
        <ele>843</ele>
        <time>2017-12-16T20:07:33Z</time>
      </trkpt>
      <trkpt lat="44.90516" lon="5.84773">
        <ele>842</ele>
        <time>2017-12-16T20:07:53Z</time>
      </trkpt>
      <trkpt lat="44.90484" lon="5.84781">
        <ele>829</ele>
        <time>2017-12-16T20:08:00Z</time>
      </trkpt>
      <trkpt lat="44.9047" lon="5.84789">
        <ele>827</ele>
        <time>2017-12-16T20:08:06Z</time>
      </trkpt>
      <trkpt lat="44.90458" lon="5.84805">
        <ele>825</ele>
        <time>2017-12-16T20:08:17Z</time>
      </trkpt>
      <trkpt lat="44.90452" lon="5.84824">
        <ele>824</ele>
        <time>2017-12-16T20:08:31Z</time>
      </trkpt>
      <trkpt lat="44.90447" lon="5.84896">
        <ele>828</ele>
        <time>2017-12-16T20:08:46Z</time>
      </trkpt>
      <trkpt lat="44.90439" lon="5.85015">
        <ele>831</ele>
        <time>2017-12-16T20:08:58Z</time>
      </trkpt>
      <trkpt lat="44.90435" lon="5.85039">
        <ele>832</ele>
        <time>2017-12-16T20:09:17Z</time>
      </trkpt>
      <trkpt lat="44.90428" lon="5.85055">
        <ele>832</ele>
        <time>2017-12-16T20:09:27Z</time>
      </trkpt>
      <trkpt lat="44.90416" lon="5.85065">
        <ele>824</ele>
        <time>2017-12-16T20:09:41Z</time>
      </trkpt>
      <trkpt lat="44.90403" lon="5.85069">
        <ele>824</ele>
        <time>2017-12-16T20:09:44Z</time>
      </trkpt>
      <trkpt lat="44.90363" lon="5.8507">
        <ele>822</ele>
        <time>2017-12-16T20:09:46Z</time>
      </trkpt>
      <trkpt lat="44.90354" lon="5.85066">
        <ele>822</ele>
        <time>2017-12-16T20:09:50Z</time>
      </trkpt>
      <trkpt lat="44.90349" lon="5.85056">
        <ele>821</ele>
        <time>2017-12-16T20:09:56Z</time>
      </trkpt>
      <trkpt lat="44.90348" lon="5.85046">
        <ele>820</ele>
        <time>2017-12-16T20:10:07Z</time>
      </trkpt>
      <trkpt lat="44.90352" lon="5.85038">
        <ele>819</ele>
        <time>2017-12-16T20:10:09Z</time>
      </trkpt>
      <trkpt lat="44.90378" lon="5.85023">
        <ele>820</ele>
        <time>2017-12-16T20:10:20Z</time>
      </trkpt>
      <trkpt lat="44.9039" lon="5.85013">
        <ele>820</ele>
        <time>2017-12-16T20:10:24Z</time>
      </trkpt>
      <trkpt lat="44.90396" lon="5.84996">
        <ele>815</ele>
        <time>2017-12-16T20:10:35Z</time>
      </trkpt>
      <trkpt lat="44.90396" lon="5.84976">
        <ele>814</ele>
        <time>2017-12-16T20:10:41Z</time>
      </trkpt>
      <trkpt lat="44.90387" lon="5.84911">
        <ele>806</ele>
        <time>2017-12-16T20:10:49Z</time>
      </trkpt>
      <trkpt lat="44.90385" lon="5.84879">
        <ele>803</ele>
        <time>2017-12-16T20:10:56Z</time>
      </trkpt>
      <trkpt lat="44.90387" lon="5.84849">
        <ele>803</ele>
        <time>2017-12-16T20:11:09Z</time>
      </trkpt>
      <trkpt lat="44.90392" lon="5.84811">
        <ele>799</ele>
        <time>2017-12-16T20:11:13Z</time>
      </trkpt>
      <trkpt lat="44.90401" lon="5.84789">
        <ele>800</ele>
        <time>2017-12-16T20:11:33Z</time>
      </trkpt>
      <trkpt lat="44.90413" lon="5.84767">
        <ele>804</ele>
        <time>2017-12-16T20:11:39Z</time>
      </trkpt>
      <trkpt lat="44.90414" lon="5.84754">
        <ele>808</ele>
        <time>2017-12-16T20:11:45Z</time>
      </trkpt>
      <trkpt lat="44.90412" lon="5.84744">
        <ele>807</ele>
        <time>2017-12-16T20:11:50Z</time>
      </trkpt>
      <trkpt lat="44.90404" lon="5.84732">
        <ele>803</ele>
        <time>2017-12-16T20:12:07Z</time>
      </trkpt>
      <trkpt lat="44.90377" lon="5.84719">
        <ele>797</ele>
        <time>2017-12-16T20:12:24Z</time>
      </trkpt>
      <trkpt lat="44.90365" lon="5.84709">
        <ele>795</ele>
        <time>2017-12-16T20:12:35Z</time>
      </trkpt>
      <trkpt lat="44.90357" lon="5.8469">
        <ele>794</ele>
        <time>2017-12-16T20:12:52Z</time>
      </trkpt>
      <trkpt lat="44.90352" lon="5.84664">
        <ele>792</ele>
        <time>2017-12-16T20:13:07Z</time>
      </trkpt>
      <trkpt lat="44.90352" lon="5.84597">
        <ele>792</ele>
        <time>2017-12-16T20:13:16Z</time>
      </trkpt>
      <trkpt lat="44.90362" lon="5.84545">
        <ele>793</ele>
        <time>2017-12-16T20:13:35Z</time>
      </trkpt>
      <trkpt lat="44.90373" lon="5.84465">
        <ele>792</ele>
        <time>2017-12-16T20:13:40Z</time>
      </trkpt>
      <trkpt lat="44.90375" lon="5.84439">
        <ele>792</ele>
        <time>2017-12-16T20:14:00Z</time>
      </trkpt>
      <trkpt lat="44.9037" lon="5.84404">
        <ele>788</ele>
        <time>2017-12-16T20:14:07Z</time>
      </trkpt>
      <trkpt lat="44.90361" lon="5.84356">
        <ele>786</ele>
        <time>2017-12-16T20:14:09Z</time>
      </trkpt>
      <trkpt lat="44.90333" lon="5.84287">
        <ele>764</ele>
        <time>2017-12-16T20:14:26Z</time>
      </trkpt>
      <trkpt lat="44.90315" lon="5.84207">
        <ele>765</ele>
        <time>2017-12-16T20:14:36Z</time>
      </trkpt>
      <trkpt lat="44.90301" lon="5.84172">
        <ele>765</ele>
        <time>2017-12-16T20:14:53Z</time>
      </trkpt>
      <trkpt lat="44.9028" lon="5.84128">
        <ele>761</ele>
        <time>2017-12-16T20:15:08Z</time>
      </trkpt>
      <trkpt lat="44.90274" lon="5.84101">
        <ele>759</ele>
        <time>2017-12-16T20:15:19Z</time>
      </trkpt>
      <trkpt lat="44.90273" lon="5.84088">
        <ele>759</ele>
        <time>2017-12-16T20:15:35Z</time>
      </trkpt>
      <trkpt lat="44.90275" lon="5.84062">
        <ele>756</ele>
        <time>2017-12-16T20:15:53Z</time>
      </trkpt>
      <trkpt lat="44.90282" lon="5.84037">
        <ele>755</ele>
        <time>2017-12-16T20:16:05Z</time>
      </trkpt>
      <trkpt lat="44.903" lon="5.84005">
        <ele>756</ele>
        <time>2017-12-16T20:16:25Z</time>
      </trkpt>
      <trkpt lat="44.90305" lon="5.83988">
        <ele>753</ele>
        <time>2017-12-16T20:16:33Z</time>
      </trkpt>
      <trkpt lat="44.90303" lon="5.83979">
        <ele>753</ele>
        <time>2017-12-16T20:16:39Z</time>
      </trkpt>
      <trkpt lat="44.90297" lon="5.83978">
        <ele>752</ele>
        <time>2017-12-16T20:16:42Z</time>
      </trkpt>
      <trkpt lat="44.90287" lon="5.83987">
        <ele>751</ele>
        <time>2017-12-16T20:16:57Z</time>
      </trkpt>
      <trkpt lat="44.90274" lon="5.84008">
        <ele>753</ele>
        <time>2017-12-16T20:17:00Z</time>
      </trkpt>
      <trkpt lat="44.90259" lon="5.84021">
        <ele>752</ele>
        <time>2017-12-16T20:17:06Z</time>
      </trkpt>
      <trkpt lat="44.90221" lon="5.84041">
        <ele>743</ele>
        <time>2017-12-16T20:17:10Z</time>
      </trkpt>
      <trkpt lat="44.90211" lon="5.84051">
        <ele>742</ele>
        <time>2017-12-16T20:17:25Z</time>
      </trkpt>
      <trkpt lat="44.90201" lon="5.84065">
        <ele>741</ele>
        <time>2017-12-16T20:17:27Z</time>
      </trkpt>
      <trkpt lat="44.90178" lon="5.84125">
        <ele>740</ele>
        <time>2017-12-16T20:17:43Z</time>
      </trkpt>
      <trkpt lat="44.90175" lon="5.84147">
        <ele>738</ele>
        <time>2017-12-16T20:17:50Z</time>
      </trkpt>
      <trkpt lat="44.90178" lon="5.84171">
        <ele>735</ele>
        <time>2017-12-16T20:18:01Z</time>
      </trkpt>
      <trkpt lat="44.90184" lon="5.84188">
        <ele>737</ele>
        <time>2017-12-16T20:18:14Z</time>
      </trkpt>
      <trkpt lat="44.90201" lon="5.8422">
        <ele>738</ele>
        <time>2017-12-16T20:18:20Z</time>
      </trkpt>
      <trkpt lat="44.90202" lon="5.84229">
        <ele>738</ele>
        <time>2017-12-16T20:18:36Z</time>
      </trkpt>
      <trkpt lat="44.90198" lon="5.84239">
        <ele>737</ele>
        <time>2017-12-16T20:18:43Z</time>
      </trkpt>
      <trkpt lat="44.90191" lon="5.84244">
        <ele>735</ele>
        <time>2017-12-16T20:18:56Z</time>
      </trkpt>
      <trkpt lat="44.90189" lon="5.84236">
        <ele>736</ele>
        <time>2017-12-16T20:19:02Z</time>
      </trkpt>
      <trkpt lat="44.90168" lon="5.84168">
        <ele>733</ele>
        <time>2017-12-16T20:19:10Z</time>
      </trkpt>
      <trkpt lat="44.90167" lon="5.84144">
        <ele>738</ele>
        <time>2017-12-16T20:19:22Z</time>
      </trkpt>
      <trkpt lat="44.90167" lon="5.84122">
        <ele>740</ele>
        <time>2017-12-16T20:19:41Z</time>
      </trkpt>
      <trkpt lat="44.90177" lon="5.84082">
        <ele>737</ele>
        <time>2017-12-16T20:19:52Z</time>
      </trkpt>
      <trkpt lat="44.9023" lon="5.8391">
        <ele>738</ele>
        <time>2017-12-16T20:20:05Z</time>
      </trkpt>
      <trkpt lat="44.90257" lon="5.83826">
        <ele>743</ele>
        <time>2017-12-16T20:20:13Z</time>
      </trkpt>
      <trkpt lat="44.90299" lon="5.83685">
        <ele>746</ele>
        <time>2017-12-16T20:20:25Z</time>
      </trkpt>
      <trkpt lat="44.90313" lon="5.83625">
        <ele>747</ele>
        <time>2017-12-16T20:20:35Z</time>
      </trkpt>
      <trkpt lat="44.90315" lon="5.83601">
        <ele>748</ele>
        <time>2017-12-16T20:20:50Z</time>
      </trkpt>
      <trkpt lat="44.90313" lon="5.83556">
        <ele>748</ele>
        <time>2017-12-16T20:21:02Z</time>
      </trkpt>
      <trkpt lat="44.90304" lon="5.83485">
        <ele>744</ele>
        <time>2017-12-16T20:21:17Z</time>
      </trkpt>
      <trkpt lat="44.90303" lon="5.83459">
        <ele>742</ele>
        <time>2017-12-16T20:21:28Z</time>
      </trkpt>
      <trkpt lat="44.90308" lon="5.83433">
        <ele>743</ele>
        <time>2017-12-16T20:21:30Z</time>
      </trkpt>
      <trkpt lat="44.90323" lon="5.83406">
        <ele>741</ele>
        <time>2017-12-16T20:21:45Z</time>
      </trkpt>
      <trkpt lat="44.90374" lon="5.83343">
        <ele>753</ele>
        <time>2017-12-16T20:21:50Z</time>
      </trkpt>
      <trkpt lat="44.90386" lon="5.83319">
        <ele>752</ele>
        <time>2017-12-16T20:21:58Z</time>
      </trkpt>
      <trkpt lat="44.90398" lon="5.83275">
        <ele>753</ele>
        <time>2017-12-16T20:22:04Z</time>
      </trkpt>
      <trkpt lat="44.90408" lon="5.83219">
        <ele>753</ele>
        <time>2017-12-16T20:22:06Z</time>
      </trkpt>
      <trkpt lat="44.90417" lon="5.83186">
        <ele>763</ele>
        <time>2017-12-16T20:22:08Z</time>
      </trkpt>
      <trkpt lat="44.9043" lon="5.83159">
        <ele>760</ele>
        <time>2017-12-16T20:22:16Z</time>
      </trkpt>
      <trkpt lat="44.90455" lon="5.83132">
        <ele>761</ele>
        <time>2017-12-16T20:22:31Z</time>
      </trkpt>
      <trkpt lat="44.90484" lon="5.8311">
        <ele>762</ele>
        <time>2017-12-16T20:22:46Z</time>
      </trkpt>
      <trkpt lat="44.90502" lon="5.83093">
        <ele>768</ele>
        <time>2017-12-16T20:22:54Z</time>
      </trkpt>
      <trkpt lat="44.90604" lon="5.82959">
        <ele>780</ele>
        <time>2017-12-16T20:23:10Z</time>
      </trkpt>
      <trkpt lat="44.9062" lon="5.82936">
        <ele>781</ele>
        <time>2017-12-16T20:23:20Z</time>
      </trkpt>
      <trkpt lat="44.90638" lon="5.82903">
        <ele>782</ele>
        <time>2017-12-16T20:23:38Z</time>
      </trkpt>
      <trkpt lat="44.90681" lon="5.82822">
        <ele>785</ele>
        <time>2017-12-16T20:23:56Z</time>
      </trkpt>
      <trkpt lat="44.90697" lon="5.82797">
        <ele>785</ele>
        <time>2017-12-16T20:24:09Z</time>
      </trkpt>
      <trkpt lat="44.90716" lon="5.82781">
        <ele>785</ele>
        <time>2017-12-16T20:24:11Z</time>
      </trkpt>
      <trkpt lat="44.90727" lon="5.82775">
        <ele>784</ele>
        <time>2017-12-16T20:24:13Z</time>
      </trkpt>
      <trkpt lat="44.90737" lon="5.82773">
        <ele>784</ele>
        <time>2017-12-16T20:24:27Z</time>
      </trkpt>
      <trkpt lat="44.90744" lon="5.82773">
        <ele>784</ele>
        <time>2017-12-16T20:24:32Z</time>
      </trkpt>
      <trkpt lat="44.90756" lon="5.82778">
        <ele>778</ele>
        <time>2017-12-16T20:24:42Z</time>
      </trkpt>
      <trkpt lat="44.90781" lon="5.82795">
        <ele>775</ele>
        <time>2017-12-16T20:24:49Z</time>
      </trkpt>
      <trkpt lat="44.90783" lon="5.82798">
        <ele>775</ele>
        <time>2017-12-16T20:24:55Z</time>
      </trkpt>
      <trkpt lat="44.90796" lon="5.82826">
        <ele>774</ele>
        <time>2017-12-16T20:25:04Z</time>
      </trkpt>
      <trkpt lat="44.90808" lon="5.82875">
        <ele>779</ele>
        <time>2017-12-16T20:25:24Z</time>
      </trkpt>
      <trkpt lat="44.90818" lon="5.82918">
        <ele>781</ele>
        <time>2017-12-16T20:25:30Z</time>
      </trkpt>
      <trkpt lat="44.90839" lon="5.82954">
        <ele>776</ele>
        <time>2017-12-16T20:25:40Z</time>
      </trkpt>
      <trkpt lat="44.90866" lon="5.82976">
        <ele>775</ele>
        <time>2017-12-16T20:25:52Z</time>
      </trkpt>
      <trkpt lat="44.90939" lon="5.8302">
        <ele>767</ele>
        <time>2017-12-16T20:26:12Z</time>
      </trkpt>
      <trkpt lat="44.91018" lon="5.83063">
        <ele>762</ele>
        <time>2017-12-16T20:26:24Z</time>
      </trkpt>
      <trkpt lat="44.91038" lon="5.83067">
        <ele>761</ele>
        <time>2017-12-16T20:26:41Z</time>
      </trkpt>
      <trkpt lat="44.91065" lon="5.83062">
        <ele>760</ele>
        <time>2017-12-16T20:26:47Z</time>
      </trkpt>
      <trkpt lat="44.91122" lon="5.83047">
        <ele>752</ele>
        <time>2017-12-16T20:26:52Z</time>
      </trkpt>
      <trkpt lat="44.91162" lon="5.83035">
        <ele>750</ele>
        <time>2017-12-16T20:27:11Z</time>
      </trkpt>
      <trkpt lat="44.91196" lon="5.83021">
        <ele>745</ele>
        <time>2017-12-16T20:27:25Z</time>
      </trkpt>
      <trkpt lat="44.91243" lon="5.83005">
        <ele>745</ele>
        <time>2017-12-16T20:27:43Z</time>
      </trkpt>
      <trkpt lat="44.91259" lon="5.83002">
        <ele>742</ele>
        <time>2017-12-16T20:27:51Z</time>
      </trkpt>
      <trkpt lat="44.9131" lon="5.83005">
        <ele>737</ele>
        <time>2017-12-16T20:28:00Z</time>
      </trkpt>
      <trkpt lat="44.91335" lon="5.83001">
        <ele>735</ele>
        <time>2017-12-16T20:28:19Z</time>
      </trkpt>
      <trkpt lat="44.91357" lon="5.8299">
        <ele>724</ele>
        <time>2017-12-16T20:28:37Z</time>
      </trkpt>
      <trkpt lat="44.91374" lon="5.82973">
        <ele>718</ele>
        <time>2017-12-16T20:28:47Z</time>
      </trkpt>
      <trkpt lat="44.91396" lon="5.82943">
        <ele>717</ele>
        <time>2017-12-16T20:29:03Z</time>
      </trkpt>
      <trkpt lat="44.91443" lon="5.8287">
        <ele>734</ele>
        <time>2017-12-16T20:29:17Z</time>
      </trkpt>
      <trkpt lat="44.91454" lon="5.82847">
        <ele>738</ele>
        <time>2017-12-16T20:29:23Z</time>
      </trkpt>
      <trkpt lat="44.91464" lon="5.82819">
        <ele>749</ele>
        <time>2017-12-16T20:29:31Z</time>
      </trkpt>
      <trkpt lat="44.91468" lon="5.82793">
        <ele>750</ele>
        <time>2017-12-16T20:29:39Z</time>
      </trkpt>
      <trkpt lat="44.91464" lon="5.82757">
        <ele>752</ele>
        <time>2017-12-16T20:29:53Z</time>
      </trkpt>
      <trkpt lat="44.91451" lon="5.82727">
        <ele>755</ele>
        <time>2017-12-16T20:30:06Z</time>
      </trkpt>
      <trkpt lat="44.9144" lon="5.82691">
        <ele>755</ele>
        <time>2017-12-16T20:30:13Z</time>
      </trkpt>
      <trkpt lat="44.91437" lon="5.82667">
        <ele>754</ele>
        <time>2017-12-16T20:30:20Z</time>
      </trkpt>
      <trkpt lat="44.91437" lon="5.82621">
        <ele>759</ele>
        <time>2017-12-16T20:30:23Z</time>
      </trkpt>
      <trkpt lat="44.9144" lon="5.82596">
        <ele>759</ele>
        <time>2017-12-16T20:30:25Z</time>
      </trkpt>
      <trkpt lat="44.91465" lon="5.82474">
        <ele>767</ele>
        <time>2017-12-16T20:30:29Z</time>
      </trkpt>
      <trkpt lat="44.91472" lon="5.82436">
        <ele>768</ele>
        <time>2017-12-16T20:30:42Z</time>
      </trkpt>
      <trkpt lat="44.91474" lon="5.82411">
        <ele>771</ele>
        <time>2017-12-16T20:30:57Z</time>
      </trkpt>
      <trkpt lat="44.9147" lon="5.82367">
        <ele>772</ele>
        <time>2017-12-16T20:31:02Z</time>
      </trkpt>
      <trkpt lat="44.91453" lon="5.82293">
        <ele>776</ele>
        <time>2017-12-16T20:31:21Z</time>
      </trkpt>
      <trkpt lat="44.91421" lon="5.8216">
        <ele>782</ele>
        <time>2017-12-16T20:31:33Z</time>
      </trkpt>
      <trkpt lat="44.91395" lon="5.82087">
        <ele>780</ele>
        <time>2017-12-16T20:31:35Z</time>
      </trkpt>
      <trkpt lat="44.91368" lon="5.82039">
        <ele>785</ele>
        <time>2017-12-16T20:31:37Z</time>
      </trkpt>
      <trkpt lat="44.91337" lon="5.81996">
        <ele>789</ele>
        <time>2017-12-16T20:31:42Z</time>
      </trkpt>
      <trkpt lat="44.91331" lon="5.81982">
        <ele>789</ele>
        <time>2017-12-16T20:31:47Z</time>
      </trkpt>
      <trkpt lat="44.91333" lon="5.81969">
        <ele>792</ele>
        <time>2017-12-16T20:31:49Z</time>
      </trkpt>
      <trkpt lat="44.91337" lon="5.81964">
        <ele>798</ele>
        <time>2017-12-16T20:31:56Z</time>
      </trkpt>
      <trkpt lat="44.91342" lon="5.81963">
        <ele>798</ele>
        <time>2017-12-16T20:32:16Z</time>
      </trkpt>
      <trkpt lat="44.91349" lon="5.81966">
        <ele>798</ele>
        <time>2017-12-16T20:32:33Z</time>
      </trkpt>
      <trkpt lat="44.91366" lon="5.81981">
        <ele>797</ele>
        <time>2017-12-16T20:32:39Z</time>
      </trkpt>
      <trkpt lat="44.91393" lon="5.82002">
        <ele>790</ele>
        <time>2017-12-16T20:32:42Z</time>
      </trkpt>
      <trkpt lat="44.91414" lon="5.82014">
        <ele>792</ele>
        <time>2017-12-16T20:32:47Z</time>
      </trkpt>
      <trkpt lat="44.91426" lon="5.82022">
        <ele>798</ele>
        <time>2017-12-16T20:32:57Z</time>
      </trkpt>
      <trkpt lat="44.91443" lon="5.82041">
        <ele>798</ele>
        <time>2017-12-16T20:33:04Z</time>
      </trkpt>
      <trkpt lat="44.91485" lon="5.82108">
        <ele>794</ele>
        <time>2017-12-16T20:33:17Z</time>
      </trkpt>
      <trkpt lat="44.91537" lon="5.82197">
        <ele>801</ele>
        <time>2017-12-16T20:33:26Z</time>
      </trkpt>
      <trkpt lat="44.91555" lon="5.82233">
        <ele>802</ele>
        <time>2017-12-16T20:33:37Z</time>
      </trkpt>
      <trkpt lat="44.91595" lon="5.8232">
        <ele>808</ele>
        <time>2017-12-16T20:33:43Z</time>
      </trkpt>
      <trkpt lat="44.91607" lon="5.82343">
        <ele>807</ele>
        <time>2017-12-16T20:33:53Z</time>
      </trkpt>
      <trkpt lat="44.91611" lon="5.82347">
        <ele>808</ele>
        <time>2017-12-16T20:33:55Z</time>
      </trkpt>
      <trkpt lat="44.91617" lon="5.82346">
        <ele>809</ele>
        <time>2017-12-16T20:34:01Z</time>
      </trkpt>
      <trkpt lat="44.91622" lon="5.82342">
        <ele>810</ele>
        <time>2017-12-16T20:34:08Z</time>
      </trkpt>
      <trkpt lat="44.91625" lon="5.82335">
        <ele>810</ele>
        <time>2017-12-16T20:34:26Z</time>
      </trkpt>
      <trkpt lat="44.91625" lon="5.82328">
        <ele>815</ele>
        <time>2017-12-16T20:34:41Z</time>
      </trkpt>
      <trkpt lat="44.91606" lon="5.82286">
        <ele>813</ele>
        <time>2017-12-16T20:34:59Z</time>
      </trkpt>
      <trkpt lat="44.91575" lon="5.82202">
        <ele>805</ele>
        <time>2017-12-16T20:35:09Z</time>
      </trkpt>
      <trkpt lat="44.9157" lon="5.82169">
        <ele>809</ele>
        <time>2017-12-16T20:35:12Z</time>
      </trkpt>
      <trkpt lat="44.91568" lon="5.82136">
        <ele>812</ele>
        <time>2017-12-16T20:35:16Z</time>
      </trkpt>
      <trkpt lat="44.91561" lon="5.82105">
        <ele>813</ele>
        <time>2017-12-16T20:35:28Z</time>
      </trkpt>
      <trkpt lat="44.91542" lon="5.82052">
        <ele>818</ele>
        <time>2017-12-16T20:35:31Z</time>
      </trkpt>
      <trkpt lat="44.91525" lon="5.82001">
        <ele>817</ele>
        <time>2017-12-16T20:35:38Z</time>
      </trkpt>
      <trkpt lat="44.91505" lon="5.81961">
        <ele>826</ele>
        <time>2017-12-16T20:35:40Z</time>
      </trkpt>
      <trkpt lat="44.91474" lon="5.81913">
        <ele>827</ele>
        <time>2017-12-16T20:35:44Z</time>
      </trkpt>
      <trkpt lat="44.91458" lon="5.81892">
        <ele>826</ele>
        <time>2017-12-16T20:35:57Z</time>
      </trkpt>
      <trkpt lat="44.91448" lon="5.81883">
        <ele>826</ele>
        <time>2017-12-16T20:35:59Z</time>
      </trkpt>
      <trkpt lat="44.9143" lon="5.81873">
        <ele>826</ele>
        <time>2017-12-16T20:36:10Z</time>
      </trkpt>
      <trkpt lat="44.91407" lon="5.81864">
        <ele>821</ele>
        <time>2017-12-16T20:36:27Z</time>
      </trkpt>
      <trkpt lat="44.91396" lon="5.81861">
        <ele>821</ele>
        <time>2017-12-16T20:36:35Z</time>
      </trkpt>
      <trkpt lat="44.91352" lon="5.81856">
        <ele>821</ele>
        <time>2017-12-16T20:36:42Z</time>
      </trkpt>
      <trkpt lat="44.91338" lon="5.81854">
        <ele>821</ele>
        <time>2017-12-16T20:36:56Z</time>
      </trkpt>
      <trkpt lat="44.91328" lon="5.81851">
        <ele>819</ele>
        <time>2017-12-16T20:37:04Z</time>
      </trkpt>
      <trkpt lat="44.91318" lon="5.81844">
        <ele>819</ele>
        <time>2017-12-16T20:37:06Z</time>
      </trkpt>
      <trkpt lat="44.91308" lon="5.8183">
        <ele>826</ele>
        <time>2017-12-16T20:37:14Z</time>
      </trkpt>
      <trkpt lat="44.91302" lon="5.81813">
        <ele>826</ele>
        <time>2017-12-16T20:37:28Z</time>
      </trkpt>
      <trkpt lat="44.913" lon="5.81794">
        <ele>826</ele>
        <time>2017-12-16T20:37:42Z</time>
      </trkpt>
      <trkpt lat="44.91303" lon="5.81775">
        <ele>827</ele>
        <time>2017-12-16T20:38:01Z</time>
      </trkpt>
      <trkpt lat="44.91309" lon="5.81759">
        <ele>828</ele>
        <time>2017-12-16T20:38:15Z</time>
      </trkpt>
      <trkpt lat="44.91324" lon="5.81743">
        <ele>829</ele>
        <time>2017-12-16T20:38:26Z</time>
      </trkpt>
      <trkpt lat="44.91389" lon="5.81688">
        <ele>831</ele>
        <time>2017-12-16T20:38:40Z</time>
      </trkpt>
      <trkpt lat="44.91403" lon="5.81671">
        <ele>831</ele>
        <time>2017-12-16T20:38:57Z</time>
      </trkpt>
      <trkpt lat="44.91431" lon="5.81619">
        <ele>825</ele>
        <time>2017-12-16T20:39:04Z</time>
      </trkpt>
      <trkpt lat="44.91442" lon="5.81597">
        <ele>825</ele>
        <time>2017-12-16T20:39:10Z</time>
      </trkpt>
      <trkpt lat="44.91466" lon="5.8156">
        <ele>823</ele>
        <time>2017-12-16T20:39:19Z</time>
      </trkpt>
      <trkpt lat="44.91506" lon="5.81474">
        <ele>824</ele>
        <time>2017-12-16T20:39:31Z</time>
      </trkpt>
      <trkpt lat="44.91529" lon="5.81419">
        <ele>825</ele>
        <time>2017-12-16T20:39:39Z</time>
      </trkpt>
      <trkpt lat="44.91544" lon="5.81394">
        <ele>826</ele>
        <time>2017-12-16T20:39:51Z</time>
      </trkpt>
      <trkpt lat="44.9156" lon="5.81371">
        <ele>827</ele>
        <time>2017-12-16T20:39:56Z</time>
      </trkpt>
      <trkpt lat="44.91585" lon="5.81345">
        <ele>832</ele>
        <time>2017-12-16T20:40:14Z</time>
      </trkpt>
      <trkpt lat="44.91608" lon="5.81321">
        <ele>834</ele>
        <time>2017-12-16T20:40:26Z</time>
      </trkpt>
      <trkpt lat="44.91621" lon="5.81301">
        <ele>835</ele>
        <time>2017-12-16T20:40:36Z</time>
      </trkpt>
      <trkpt lat="44.91696" lon="5.81188">
        <ele>842</ele>
        <time>2017-12-16T20:40:53Z</time>
      </trkpt>
      <trkpt lat="44.91725" lon="5.81154">
        <ele>837</ele>
        <time>2017-12-16T20:40:59Z</time>
      </trkpt>
      <trkpt lat="44.9174" lon="5.81139">
        <ele>837</ele>
        <time>2017-12-16T20:41:19Z</time>
      </trkpt>
      <trkpt lat="44.91757" lon="5.8113">
        <ele>838</ele>
        <time>2017-12-16T20:41:23Z</time>
      </trkpt>
      <trkpt lat="44.91772" lon="5.81124">
        <ele>838</ele>
        <time>2017-12-16T20:41:39Z</time>
      </trkpt>
      <trkpt lat="44.918" lon="5.81115">
        <ele>837</ele>
        <time>2017-12-16T20:41:49Z</time>
      </trkpt>
      <trkpt lat="44.9182" lon="5.81112">
        <ele>837</ele>
        <time>2017-12-16T20:41:56Z</time>
      </trkpt>
      <trkpt lat="44.91854" lon="5.81113">
        <ele>841</ele>
        <time>2017-12-16T20:42:12Z</time>
      </trkpt>
      <trkpt lat="44.91907" lon="5.81106">
        <ele>840</ele>
        <time>2017-12-16T20:42:25Z</time>
      </trkpt>
      <trkpt lat="44.9195" lon="5.81098">
        <ele>844</ele>
        <time>2017-12-16T20:42:41Z</time>
      </trkpt>
      <trkpt lat="44.91969" lon="5.81093">
        <ele>844</ele>
        <time>2017-12-16T20:42:50Z</time>
      </trkpt>
      <trkpt lat="44.91983" lon="5.81084">
        <ele>843</ele>
        <time>2017-12-16T20:43:05Z</time>
      </trkpt>
      <trkpt lat="44.92063" lon="5.81028">
        <ele>835</ele>
        <time>2017-12-16T20:43:21Z</time>
      </trkpt>
      <trkpt lat="44.92179" lon="5.80951">
        <ele>846</ele>
        <time>2017-12-16T20:43:34Z</time>
      </trkpt>
      <trkpt lat="44.92215" lon="5.8093">
        <ele>848</ele>
        <time>2017-12-16T20:43:36Z</time>
      </trkpt>
      <trkpt lat="44.92229" lon="5.80916">
        <ele>846</ele>
        <time>2017-12-16T20:43:54Z</time>
      </trkpt>
      <trkpt lat="44.92232" lon="5.80908">
        <ele>846</ele>
        <time>2017-12-16T20:43:59Z</time>
      </trkpt>
      <trkpt lat="44.92234" lon="5.80893">
        <ele>846</ele>
        <time>2017-12-16T20:44:11Z</time>
      </trkpt>
      <trkpt lat="44.92235" lon="5.80881">
        <ele>845</ele>
        <time>2017-12-16T20:44:25Z</time>
      </trkpt>
      <trkpt lat="44.92232" lon="5.8087">
        <ele>845</ele>
        <time>2017-12-16T20:44:27Z</time>
      </trkpt>
      <trkpt lat="44.92228" lon="5.8086">
        <ele>845</ele>
        <time>2017-12-16T20:44:44Z</time>
      </trkpt>
      <trkpt lat="44.92221" lon="5.80852">
        <ele>845</ele>
        <time>2017-12-16T20:44:54Z</time>
      </trkpt>
      <trkpt lat="44.92208" lon="5.80842">
        <ele>844</ele>
        <time>2017-12-16T20:45:09Z</time>
      </trkpt>
      <trkpt lat="44.92163" lon="5.80837">
        <ele>842</ele>
        <time>2017-12-16T20:45:20Z</time>
      </trkpt>
      <trkpt lat="44.92132" lon="5.80832">
        <ele>849</ele>
        <time>2017-12-16T20:45:39Z</time>
      </trkpt>
      <trkpt lat="44.9211" lon="5.80824">
        <ele>849</ele>
        <time>2017-12-16T20:45:46Z</time>
      </trkpt>
      <trkpt lat="44.92083" lon="5.80814">
        <ele>847</ele>
        <time>2017-12-16T20:46:06Z</time>
      </trkpt>
      <trkpt lat="44.92063" lon="5.80808">
        <ele>848</ele>
        <time>2017-12-16T20:46:18Z</time>
      </trkpt>
      <trkpt lat="44.92033" lon="5.80806">
        <ele>849</ele>
        <time>2017-12-16T20:46:27Z</time>
      </trkpt>
      <trkpt lat="44.91997" lon="5.808">
        <ele>846</ele>
        <time>2017-12-16T20:46:44Z</time>
      </trkpt>
      <trkpt lat="44.91965" lon="5.80786">
        <ele>847</ele>
        <time>2017-12-16T20:46:52Z</time>
      </trkpt>
      <trkpt lat="44.9191" lon="5.80753">
        <ele>849</ele>
        <time>2017-12-16T20:47:12Z</time>
      </trkpt>
      <trkpt lat="44.91837" lon="5.8071">
        <ele>854</ele>
        <time>2017-12-16T20:47:31Z</time>
      </trkpt>
      <trkpt lat="44.91805" lon="5.80699">
        <ele>849</ele>
        <time>2017-12-16T20:47:50Z</time>
      </trkpt>
      <trkpt lat="44.91769" lon="5.80692">
        <ele>849</ele>
        <time>2017-12-16T20:48:05Z</time>
      </trkpt>
      <trkpt lat="44.91726" lon="5.8068">
        <ele>846</ele>
        <time>2017-12-16T20:48:16Z</time>
      </trkpt>
      <trkpt lat="44.91699" lon="5.80671">
        <ele>845</ele>
        <time>2017-12-16T20:48:33Z</time>
      </trkpt>
      <trkpt lat="44.91674" lon="5.80656">
        <ele>853</ele>
        <time>2017-12-16T20:48:35Z</time>
      </trkpt>
      <trkpt lat="44.91662" lon="5.80646">
        <ele>851</ele>
        <time>2017-12-16T20:48:40Z</time>
      </trkpt>
      <trkpt lat="44.91643" lon="5.80621">
        <ele>853</ele>
        <time>2017-12-16T20:48:57Z</time>
      </trkpt>
      <trkpt lat="44.91628" lon="5.80589">
        <ele>854</ele>
        <time>2017-12-16T20:48:59Z</time>
      </trkpt>
      <trkpt lat="44.9161" lon="5.80546">
        <ele>858</ele>
        <time>2017-12-16T20:49:14Z</time>
      </trkpt>
      <trkpt lat="44.91597" lon="5.80511">
        <ele>858</ele>
        <time>2017-12-16T20:49:34Z</time>
      </trkpt>
      <trkpt lat="44.9158" lon="5.8045">
        <ele>855</ele>
        <time>2017-12-16T20:49:39Z</time>
      </trkpt>
      <trkpt lat="44.91558" lon="5.80331">
        <ele>858</ele>
        <time>2017-12-16T20:49:52Z</time>
      </trkpt>
      <trkpt lat="44.91533" lon="5.802">
        <ele>861</ele>
        <time>2017-12-16T20:49:56Z</time>
      </trkpt>
      <trkpt lat="44.9152" lon="5.80157">
        <ele>861</ele>
        <time>2017-12-16T20:50:13Z</time>
      </trkpt>
      <trkpt lat="44.91503" lon="5.80119">
        <ele>863</ele>
        <time>2017-12-16T20:50:25Z</time>
      </trkpt>
      <trkpt lat="44.91483" lon="5.80093">
        <ele>859</ele>
        <time>2017-12-16T20:50:29Z</time>
      </trkpt>
      <trkpt lat="44.91459" lon="5.80065">
        <ele>862</ele>
        <time>2017-12-16T20:50:34Z</time>
      </trkpt>
      <trkpt lat="44.91424" lon="5.80027">
        <ele>862</ele>
        <time>2017-12-16T20:50:40Z</time>
      </trkpt>
      <trkpt lat="44.91402" lon="5.8">
        <ele>863</ele>
        <time>2017-12-16T20:50:59Z</time>
      </trkpt>
      <trkpt lat="44.91381" lon="5.79959">
        <ele>863</ele>
        <time>2017-12-16T20:51:01Z</time>
      </trkpt>
      <trkpt lat="44.91353" lon="5.79911">
        <ele>865</ele>
        <time>2017-12-16T20:51:05Z</time>
      </trkpt>
      <trkpt lat="44.91244" lon="5.79744">
        <ele>865</ele>
        <time>2017-12-16T20:51:14Z</time>
      </trkpt>
      <trkpt lat="44.91192" lon="5.79659">
        <ele>867</ele>
        <time>2017-12-16T20:51:23Z</time>
      </trkpt>
      <trkpt lat="44.91123" lon="5.79552">
        <ele>868</ele>
        <time>2017-12-16T20:51:42Z</time>
      </trkpt>
      <trkpt lat="44.9094" lon="5.79265">
        <ele>872</ele>
        <time>2017-12-16T20:51:55Z</time>
      </trkpt>
      <trkpt lat="44.9083" lon="5.79093">
        <ele>871</ele>
        <time>2017-12-16T20:52:14Z</time>
      </trkpt>
      <trkpt lat="44.90741" lon="5.7895">
        <ele>872</ele>
        <time>2017-12-16T20:52:20Z</time>
      </trkpt>
      <trkpt lat="44.90696" lon="5.78883">
        <ele>874</ele>
        <time>2017-12-16T20:52:29Z</time>
      </trkpt>
      <trkpt lat="44.90682" lon="5.78861">
        <ele>874</ele>
        <time>2017-12-16T20:52:47Z</time>
      </trkpt>
      <trkpt lat="44.9067" lon="5.78833">
        <ele>874</ele>
        <time>2017-12-16T20:52:53Z</time>
      </trkpt>
      <trkpt lat="44.90651" lon="5.78782">
        <ele>875</ele>
        <time>2017-12-16T20:52:55Z</time>
      </trkpt>
      <trkpt lat="44.90625" lon="5.78733">
        <ele>878</ele>
        <time>2017-12-16T20:52:57Z</time>
      </trkpt>
      <trkpt lat="44.90614" lon="5.78715">
        <ele>878</ele>
        <time>2017-12-16T20:53:11Z</time>
      </trkpt>
      <trkpt lat="44.90606" lon="5.78693">
        <ele>878</ele>
        <time>2017-12-16T20:53:14Z</time>
      </trkpt>
      <trkpt lat="44.90636" lon="5.78655">
        <ele>880</ele>
        <time>2017-12-16T20:53:21Z</time>
      </trkpt>
      <trkpt lat="44.90648" lon="5.78642">
        <ele>880</ele>
        <time>2017-12-16T20:53:32Z</time>
      </trkpt>
    </trkseg>
  </trk>
</gpx>